Darstellungsparameter: Aktuell verwendete Einstellungen:
Skalierung der Graphiken ... ?
xyx+y,   Skalierungsfaktor:      Skalierung: Modus: x, Faktor: 1
Darstellungszeitraum ... ?
Vom - - bis: - -   Zeitraum: 07.03.2020 - 04.04.2020
Min/Max/Avg-Anzeige ... ?
Zeige MMA aktuell
Zeige MMA Monat
Zeige MMA alles
Zeige --A aktuell
Zeige --A Monat
Zeige --A alles
Keine MMA-Anzeige
MMA:
Keine MMA-Graphiken
MMA-Basis: 07.03.2020 - 04.04.2020
Quicknavigation für Darstellung... ?
Tage:      1T, 2T, 3T, 5T -1T -2T -3T -5T +1T +2T +3T +5T
Wochen: 1W, 2W, 3W -1W -2W -3W +1W +2W +3W
Monate: 1M, 3M, 6M -1M -3M -6M +1M +3M +6M
Jahre:    1J, 3J, 5J, 10J -1J -3J -5J -10J +1J +3J +5J +10J
Nutze für die Darstellung ... ?
Originaldaten oder Mittelwerte auf ...
Stundenbasis Tagesbasis Wochenbasis
Monatsbasis Jahresbasis      Datenbasis: Original-Daten
Darstellen als:
Statistik (Auto) Statistik J:M      Darstellung:
Zur Graphik,    zurück zur Übersicht aller Sensoren.
 
Tabellarische Datenbersicht: ?
 
Sensor: Nr:Datum:Temp:Feuchte:
Aussen-T/F 1 07-03-2020 00:08:17 5.1 C 37 %
2 07-03-2020 00:18:18 5.1 C 37 %
3 07-03-2020 00:28:18 5.1 C 37 %
4 07-03-2020 00:38:17 5.1 C 37 %
5 07-03-2020 00:48:17 5.1 C 37 %
6 07-03-2020 00:58:17 5 C 37 %
7 07-03-2020 01:08:17 5.1 C 38 %
8 07-03-2020 01:18:17 5.1 C 38 %
9 07-03-2020 01:28:17 5.1 C 38 %
10 07-03-2020 01:38:18 5.3 C 37 %
11 07-03-2020 01:48:18 5.2 C 38 %
12 07-03-2020 01:58:18 5.2 C 38 %
13 07-03-2020 02:08:18 5.2 C 38 %
14 07-03-2020 02:18:17 5.3 C 38 %
15 07-03-2020 02:28:17 5.1 C 38 %
16 07-03-2020 02:38:17 5.1 C 38 %
17 07-03-2020 02:48:18 5.1 C 38 %
18 07-03-2020 02:58:18 5.1 C 38 %
19 07-03-2020 03:08:18 4.9 C 39 %
20 07-03-2020 03:18:17 4.7 C 40 %
21 07-03-2020 03:28:17 4.6 C 40 %
22 07-03-2020 03:38:17 4.7 C 40 %
23 07-03-2020 03:48:17 4.7 C 39 %
24 07-03-2020 03:58:17 4.6 C 40 %
25 07-03-2020 04:08:18 4.6 C 40 %
Sensor: Nr:Datum:Temp:Feuchte:
Aussen-T/F 26 07-03-2020 04:18:17 4.7 C 40 %
27 07-03-2020 04:28:17 4.8 C 39 %
28 07-03-2020 04:38:18 4.7 C 39 %
29 07-03-2020 04:48:17 4.7 C 39 %
30 07-03-2020 04:58:18 4.7 C 39 %
31 07-03-2020 05:08:18 4.6 C 39 %
32 07-03-2020 05:18:18 4.6 C 39 %
33 07-03-2020 05:28:18 4.6 C 39 %
34 07-03-2020 05:38:18 4.6 C 39 %
35 07-03-2020 05:48:18 4.5 C 39 %
36 07-03-2020 05:58:18 4.5 C 39 %
37 07-03-2020 06:08:17 4.6 C 39 %
38 07-03-2020 06:18:17 4.6 C 40 %
39 07-03-2020 06:28:17 4.6 C 39 %
40 07-03-2020 06:38:18 4.5 C 39 %
41 07-03-2020 06:48:17 4.5 C 39 %
42 07-03-2020 06:58:17 4.5 C 39 %
43 07-03-2020 07:08:18 4.5 C 39 %
44 07-03-2020 07:18:18 4.4 C 39 %
45 07-03-2020 07:28:18 4.4 C 39 %
46 07-03-2020 07:38:18 4.3 C 40 %
47 07-03-2020 07:48:17 4 C 40 %
48 07-03-2020 07:58:17 3.7 C 42 %
49 07-03-2020 08:08:18 3.7 C 45 %
50 07-03-2020 08:18:17 3.7 C 44 %
Sensor: Nr:Datum:Temp:Feuchte:
Aussen-T/F 51 07-03-2020 08:28:17 3.9 C 43 %
52 07-03-2020 08:38:17 4 C 42 %
53 07-03-2020 08:48:17 4.4 C 41 %
54 07-03-2020 08:58:17 4.7 C 40 %
55 07-03-2020 09:08:17 5.1 C 38 %
56 07-03-2020 09:18:17 5.3 C 37 %
57 07-03-2020 09:28:17 5.6 C 37 %
58 07-03-2020 09:38:17 5.7 C 36 %
59 07-03-2020 09:48:17 6.3 C 36 %
60 07-03-2020 09:58:17 6.5 C 35 %
61 07-03-2020 10:08:17 6.1 C 35 %
62 07-03-2020 10:18:17 5.7 C 36 %
63 07-03-2020 10:28:17 6.5 C 36 %
64 07-03-2020 10:38:17 6.4 C 35 %
65 07-03-2020 10:48:18 7 C 35 %
66 07-03-2020 10:58:18 7.3 C 35 %
67 07-03-2020 11:08:18 7.3 C 34 %
68 07-03-2020 11:18:18 7.8 C 32 %
69 07-03-2020 11:28:18 7.6 C 31 %
70 07-03-2020 11:38:18 7.8 C 30 %
71 07-03-2020 11:48:17 9.7 C 25 %
72 07-03-2020 11:58:18 7.6 C 29 %
73 07-03-2020 12:08:18 7.6 C 29 %
74 07-03-2020 12:18:18 7.8 C 29 %
75 07-03-2020 12:28:18 7.8 C 30 %
Sensor: Nr:Datum:Temp:Feuchte:
Aussen-T/F 76 07-03-2020 12:38:17 8.2 C 30 %
77 07-03-2020 12:48:18 7.5 C 28 %
78 07-03-2020 12:58:18 8 C 27 %
79 07-03-2020 13:08:17 9.5 C 26 %
80 07-03-2020 13:18:18 9.1 C 21 %
81 07-03-2020 13:28:18 9.1 C 25 %
82 07-03-2020 13:38:18 8.8 C 26 %
83 07-03-2020 13:48:18 9.1 C 26 %
84 07-03-2020 13:58:18 10 C 25 %
85 07-03-2020 14:08:17 8.9 C 26 %
86 07-03-2020 14:18:17 10.5 C 20 %
87 07-03-2020 14:28:17 10.1 C 20 %
88 07-03-2020 14:38:18 9.8 C 20 %
89 07-03-2020 14:48:17 11.6 C 20 %
90 07-03-2020 14:58:18 11.5 C 20 %
91 07-03-2020 15:08:18 12.4 C 20 %
92 07-03-2020 15:18:18 11.1 C 20 %
93 07-03-2020 15:28:18 9.8 C 20 %
94 07-03-2020 15:38:17 12.4 C 20 %
95 07-03-2020 15:48:18 10.8 C 20 %
96 07-03-2020 15:58:18 9.5 C 20 %
97 07-03-2020 16:08:17 11.7 C 20 %
98 07-03-2020 16:18:17 10.4 C 20 %
99 07-03-2020 16:28:17 9.6 C 20 %
100 07-03-2020 16:38:17 9.1 C 20 %
Sensor: Nr:Datum:Temp:Feuchte:
Aussen-T/F 101 07-03-2020 16:48:18 8.9 C 20 %
102 07-03-2020 16:58:18 8.8 C 20 %
103 07-03-2020 17:08:18 8.8 C 20 %
104 07-03-2020 17:18:18 8.5 C 20 %
105 07-03-2020 17:28:18 8.5 C 20 %
106 07-03-2020 17:38:18 8.6 C 25 %
107 07-03-2020 17:48:18 8.4 C 25 %
108 07-03-2020 17:58:18 7.1 C 31 %
109 07-03-2020 18:08:17 6.7 C 31 %
110 07-03-2020 18:19:17 6.3 C 33 %
111 07-03-2020 18:28:17 5.7 C 34 %
112 07-03-2020 18:38:18 5.2 C 35 %
113 07-03-2020 18:48:18 4.9 C 36 %
114 07-03-2020 18:58:18 5 C 35 %
115 07-03-2020 19:08:17 4.9 C 36 %
116 07-03-2020 19:18:17 4.7 C 36 %
117 07-03-2020 19:28:17 4.4 C 37 %
118 07-03-2020 19:38:17 4.5 C 37 %
119 07-03-2020 19:48:18 4.7 C 37 %
120 07-03-2020 19:58:18 4.5 C 37 %
121 07-03-2020 20:08:18 4.2 C 38 %
122 07-03-2020 20:18:17 4.4 C 38 %
123 07-03-2020 20:28:17 4.6 C 39 %
124 07-03-2020 20:38:17 4.6 C 38 %
125 07-03-2020 20:49:17 4.5 C 38 %
Sensor: Nr:Datum:Temp:Feuchte:
Aussen-T/F 126 07-03-2020 20:59:17 4.5 C 38 %
127 07-03-2020 21:09:17 4.5 C 39 %
128 07-03-2020 21:18:17 4.5 C 39 %
129 07-03-2020 21:28:17 4.7 C 39 %
130 07-03-2020 21:38:17 4.7 C 38 %
131 07-03-2020 21:48:18 5.1 C 37 %
132 07-03-2020 21:58:18 5.1 C 37 %
133 07-03-2020 22:08:17 5.3 C 37 %
134 07-03-2020 22:18:18 5.5 C 36 %
135 07-03-2020 22:28:18 5.6 C 36 %
136 07-03-2020 22:38:17 5.5 C 36 %
137 07-03-2020 22:49:17 5.5 C 36 %
138 07-03-2020 22:59:17 5.8 C 36 %
139 07-03-2020 23:09:17 6.2 C 35 %
140 07-03-2020 23:19:17 6.3 C 35 %
141 07-03-2020 23:29:17 6.4 C 35 %
142 07-03-2020 23:38:17 6.4 C 34 %
143 07-03-2020 23:48:18 6.4 C 34 %
144 07-03-2020 23:58:18 6.5 C 34 %
145 08-03-2020 00:08:18 6.5 C 35 %
146 08-03-2020 00:18:18 6.4 C 35 %
147 08-03-2020 00:28:18 6.8 C 35 %
148 08-03-2020 00:38:18 6.7 C 35 %
149 08-03-2020 00:48:18 7 C 34 %
150 08-03-2020 00:58:18 7.1 C 35 %
Sensor: Nr:Datum:Temp:Feuchte:
Aussen-T/F 151 08-03-2020 01:08:17 7.1 C 34 %
152 08-03-2020 01:18:17 6.8 C 35 %
153 08-03-2020 01:28:17 6.9 C 35 %
154 08-03-2020 01:38:17 6.7 C 35 %
155 08-03-2020 01:49:17 6.9 C 35 %
156 08-03-2020 01:59:17 6.7 C 35 %
157 08-03-2020 02:09:17 6.8 C 35 %
158 08-03-2020 02:19:17 7 C 35 %
159 08-03-2020 02:29:17 6.9 C 35 %
160 08-03-2020 02:38:17 7.3 C 35 %
161 08-03-2020 02:48:17 7.2 C 35 %
162 08-03-2020 02:58:17 7 C 35 %
163 08-03-2020 03:08:18 7.1 C 35 %
164 08-03-2020 03:19:17 6.7 C 35 %
165 08-03-2020 03:29:17 6.4 C 36 %
166 08-03-2020 03:39:17 6.5 C 36 %
167 08-03-2020 03:48:18 6.6 C 36 %
168 08-03-2020 03:58:18 6.8 C 35 %
169 08-03-2020 04:08:18 7 C 35 %
170 08-03-2020 04:19:17 7.1 C 35 %
171 08-03-2020 04:29:17 7 C 35 %
172 08-03-2020 04:39:17 7 C 35 %
173 08-03-2020 04:49:17 6.8 C 35 %
174 08-03-2020 04:59:17 6.9 C 35 %
175 08-03-2020 05:09:17 7 C 35 %
Sensor: Nr:Datum:Temp:Feuchte:
Aussen-T/F 176 08-03-2020 05:19:17 6.8 C 35 %
177 08-03-2020 05:29:17 6.5 C 35 %
178 08-03-2020 05:39:17 6.8 C 35 %
179 08-03-2020 05:49:17 6.6 C 35 %
180 08-03-2020 05:59:17 6.4 C 35 %
181 08-03-2020 06:09:17 6.4 C 35 %
182 08-03-2020 06:19:17 5.9 C 37 %
183 08-03-2020 06:29:18 6.3 C 36 %
184 08-03-2020 06:39:18 6.6 C 36 %
185 08-03-2020 06:49:17 6.9 C 36 %
186 08-03-2020 06:59:17 7.3 C 35 %
187 08-03-2020 07:09:17 7.4 C 35 %
188 08-03-2020 07:19:17 7.7 C 35 %
189 08-03-2020 07:29:17 7.8 C 35 %
190 08-03-2020 07:39:17 7.9 C 35 %
191 08-03-2020 07:49:17 8 C 35 %
192 08-03-2020 07:59:17 8.2 C 34 %
193 08-03-2020 08:09:17 8.2 C 34 %
194 08-03-2020 08:19:17 8.4 C 34 %
195 08-03-2020 08:29:17 8.6 C 34 %
196 08-03-2020 08:39:17 8.5 C 35 %
197 08-03-2020 08:49:17 8.6 C 34 %
198 08-03-2020 08:59:17 8.6 C 34 %
199 08-03-2020 09:09:17 8.6 C 34 %
200 08-03-2020 09:19:17 8.8 C 34 %
Sensor: Nr:Datum:Temp:Feuchte:
Aussen-T/F 201 08-03-2020 09:29:18 9.2 C 33 %
202 08-03-2020 09:39:17 9.6 C 33 %
203 08-03-2020 09:49:17 10.3 C 32 %
204 08-03-2020 09:59:17 10.2 C 32 %
205 08-03-2020 10:09:17 9.9 C 33 %
206 08-03-2020 10:19:17 10.1 C 32 %
207 08-03-2020 10:29:17 10.1 C 32 %
208 08-03-2020 10:39:17 11.4 C 30 %
209 08-03-2020 10:49:17 11.2 C 30 %
210 08-03-2020 10:59:18 11.9 C 30 %
211 08-03-2020 11:09:17 11.9 C 28 %
212 08-03-2020 11:19:16 11.9 C 29 %
213 08-03-2020 11:29:16 12.1 C 27 %
214 08-03-2020 11:39:17 12.5 C 26 %
215 08-03-2020 11:49:16 12.5 C 26 %
216 08-03-2020 11:59:16 13.4 C 25 %
217 08-03-2020 12:09:17 12.8 C 25 %
218 08-03-2020 12:19:17 13.1 C 25 %
219 08-03-2020 12:29:17 13.5 C 23 %
220 08-03-2020 12:39:17 13.2 C 24 %
221 08-03-2020 12:49:17 14.1 C 22 %
222 08-03-2020 12:59:18 13.2 C 22 %
223 08-03-2020 13:09:17 12.2 C 25 %
224 08-03-2020 13:19:16 12.3 C 25 %
225 08-03-2020 13:29:16 12.3 C 25 %
Sensor: Nr:Datum:Temp:Feuchte:
Aussen-T/F 226 08-03-2020 13:39:16 12.7 C 25 %
227 08-03-2020 13:49:17 12.7 C 25 %
228 08-03-2020 13:59:17 12.5 C 25 %
229 08-03-2020 14:09:17 13 C 23 %
230 08-03-2020 14:19:16 12.8 C 25 %
231 08-03-2020 14:29:16 12.5 C 25 %
232 08-03-2020 14:39:16 12.8 C 25 %
233 08-03-2020 14:49:16 12.7 C 25 %
234 08-03-2020 14:59:16 12.3 C 25 %
235 08-03-2020 15:09:16 12.8 C 25 %
236 08-03-2020 15:19:17 12.5 C 25 %
237 08-03-2020 15:29:17 12.5 C 25 %
238 08-03-2020 15:39:17 12.1 C 25 %
239 08-03-2020 15:49:17 12 C 25 %
240 08-03-2020 15:59:17 12.1 C 25 %
241 08-03-2020 16:09:17 12.5 C 25 %
242 08-03-2020 16:19:17 12.4 C 25 %
243 08-03-2020 16:29:17 12.1 C 25 %
244 08-03-2020 16:39:17 12.2 C 26 %
245 08-03-2020 16:49:17 12.2 C 26 %
246 08-03-2020 16:59:17 12 C 26 %
247 08-03-2020 17:09:17 12.6 C 25 %
248 08-03-2020 17:19:17 12.4 C 26 %
249 08-03-2020 17:29:17 12.3 C 26 %
250 08-03-2020 17:39:17 12 C 26 %
Sensor: Nr:Datum:Temp:Feuchte:
Aussen-T/F 251 08-03-2020 17:49:16 11.5 C 28 %
252 08-03-2020 17:59:16 11.4 C 29 %
253 08-03-2020 18:09:17 11.1 C 30 %
254 08-03-2020 18:19:17 10.9 C 31 %
255 08-03-2020 18:29:18 10.7 C 31 %
256 08-03-2020 18:39:17 10.4 C 32 %
257 08-03-2020 18:49:16 10.2 C 32 %
258 08-03-2020 18:59:16 9.6 C 35 %
259 08-03-2020 19:09:17 9.9 C 35 %
260 08-03-2020 19:19:16 9.8 C 35 %
261 08-03-2020 19:29:16 9.6 C 36 %
262 08-03-2020 19:39:17 9.4 C 36 %
263 08-03-2020 19:49:16 9.5 C 36 %
264 08-03-2020 19:59:16 9.5 C 36 %
265 08-03-2020 20:09:16 9.4 C 36 %
266 08-03-2020 20:19:16 9.3 C 36 %
267 08-03-2020 20:29:16 9.3 C 37 %
268 08-03-2020 20:39:17 9.2 C 37 %
269 08-03-2020 20:49:16 9.2 C 37 %
270 08-03-2020 20:59:16 9 C 37 %
271 08-03-2020 21:09:17 9 C 37 %
272 08-03-2020 21:19:17 9.1 C 37 %
273 08-03-2020 21:29:17 9.1 C 37 %
274 08-03-2020 21:39:17 9.3 C 37 %
275 08-03-2020 21:49:17 9.3 C 37 %
Sensor: Nr:Datum:Temp:Feuchte:
Aussen-T/F 276 08-03-2020 21:59:17 9.3 C 37 %
277 08-03-2020 22:09:17 9.3 C 37 %
278 08-03-2020 22:19:16 9.3 C 37 %
279 08-03-2020 22:29:16 8.9 C 37 %
280 08-03-2020 22:39:17 9.2 C 37 %
281 08-03-2020 22:49:16 8.7 C 37 %
282 08-03-2020 22:59:16 9 C 37 %
283 08-03-2020 23:09:16 9.3 C 37 %
284 08-03-2020 23:19:16 7.9 C 39 %
285 08-03-2020 23:29:16 7.8 C 40 %
286 08-03-2020 23:39:16 7.9 C 40 %
287 08-03-2020 23:49:16 7.9 C 39 %
288 08-03-2020 23:59:16 7.6 C 40 %
289 09-03-2020 00:09:17 7.3 C 41 %
290 09-03-2020 00:19:16 7 C 41 %
291 09-03-2020 00:29:16 6.8 C 43 %
292 09-03-2020 00:39:16 6.8 C 44 %
293 09-03-2020 00:49:16 6.6 C 45 %
294 09-03-2020 00:59:16 6.8 C 43 %
295 09-03-2020 01:09:16 6.9 C 42 %
296 09-03-2020 01:19:16 6.9 C 43 %
297 09-03-2020 01:29:16 6.7 C 45 %
298 09-03-2020 01:39:16 6.8 C 43 %
299 09-03-2020 01:49:16 6.9 C 42 %
300 09-03-2020 01:59:16 6.7 C 43 %
Sensor: Nr:Datum:Temp:Feuchte:
Aussen-T/F 301 09-03-2020 02:09:16 6.6 C 43 %
302 09-03-2020 02:19:16 6.4 C 44 %
303 09-03-2020 02:29:16 6.3 C 45 %
304 09-03-2020 02:39:16 6.2 C 45 %
305 09-03-2020 02:49:17 6.4 C 45 %
306 09-03-2020 02:59:17 6.4 C 44 %
307 09-03-2020 03:09:17 6.1 C 44 %
308 09-03-2020 03:19:17 6.5 C 43 %
309 09-03-2020 03:29:17 6.7 C 42 %
310 09-03-2020 03:39:17 6.4 C 42 %
311 09-03-2020 03:49:17 6.2 C 43 %
312 09-03-2020 03:59:17 6 C 44 %
313 09-03-2020 04:09:17 5.7 C 45 %
314 09-03-2020 04:19:17 5.5 C 45 %
315 09-03-2020 04:29:17 6.1 C 44 %
316 09-03-2020 04:39:18 6.3 C 43 %
317 09-03-2020 04:49:17 6.2 C 43 %
318 09-03-2020 04:59:17 6.2 C 43 %
319 09-03-2020 05:09:18 6.2 C 43 %
320 09-03-2020 05:19:17 6 C 43 %
321 09-03-2020 05:29:17 5.8 C 44 %
322 09-03-2020 05:39:17 5.6 C 44 %
323 09-03-2020 05:49:17 5.2 C 44 %
324 09-03-2020 05:59:17 5.3 C 43 %
325 09-03-2020 06:09:17 5 C 43 %
Sensor: Nr:Datum:Temp:Feuchte:
Aussen-T/F 326 09-03-2020 06:19:17 5.2 C 43 %
327 09-03-2020 06:29:17 5.1 C 43 %
328 09-03-2020 06:39:18 5.4 C 42 %
329 09-03-2020 06:49:17 5.7 C 41 %
330 09-03-2020 06:59:18 5.7 C 41 %
331 09-03-2020 07:09:18 5 C 42 %
332 09-03-2020 07:19:18 4.7 C 44 %
333 09-03-2020 07:29:18 5.7 C 42 %
334 09-03-2020 07:39:17 5.8 C 41 %
335 09-03-2020 07:49:17 5.4 C 41 %
336 09-03-2020 07:59:17 5.4 C 42 %
337 09-03-2020 08:09:17 5.4 C 42 %
338 09-03-2020 08:19:17 5 C 43 %
339 09-03-2020 08:29:17 5.3 C 43 %
340 09-03-2020 08:39:18 6.1 C 41 %
341 09-03-2020 08:49:17 6.8 C 40 %
342 09-03-2020 08:59:17 7.3 C 38 %
343 09-03-2020 09:09:17 7.4 C 38 %
344 09-03-2020 09:19:17 7.7 C 37 %
345 09-03-2020 09:29:17 8 C 37 %
346 09-03-2020 09:39:17 8.1 C 37 %
347 09-03-2020 09:49:17 8 C 37 %
348 09-03-2020 09:59:17 7.8 C 37 %
349 09-03-2020 10:09:17 8.3 C 36 %
350 09-03-2020 10:19:17 8.2 C 36 %
Sensor: Nr:Datum:Temp:Feuchte:
Aussen-T/F 351 09-03-2020 10:29:17 8.5 C 36 %
352 09-03-2020 10:39:17 8.6 C 36 %
353 09-03-2020 10:49:17 8.5 C 36 %
354 09-03-2020 10:59:17 8.1 C 36 %
355 09-03-2020 11:09:17 8.1 C 36 %
356 09-03-2020 11:19:17 8.5 C 36 %
357 09-03-2020 11:29:17 9.7 C 34 %
358 09-03-2020 11:39:17 9.1 C 34 %
359 09-03-2020 11:49:17 10.1 C 33 %
360 09-03-2020 11:59:17 10.6 C 29 %
361 09-03-2020 12:09:18 10.9 C 27 %
362 09-03-2020 12:19:18 11.2 C 25 %
363 09-03-2020 12:29:18 10.1 C 26 %
364 09-03-2020 12:39:18 10.3 C 26 %
365 09-03-2020 12:49:17 11 C 25 %
366 09-03-2020 12:59:17 10.1 C 26 %
367 09-03-2020 13:09:17 11.6 C 26 %
368 09-03-2020 13:19:17 9.8 C 29 %
369 09-03-2020 13:29:17 9.5 C 31 %
370 09-03-2020 13:39:17 10.5 C 30 %
371 09-03-2020 13:49:17 10.4 C 29 %
372 09-03-2020 13:59:17 10.5 C 29 %
373 09-03-2020 14:09:17 11.6 C 27 %
374 09-03-2020 14:19:17 11.5 C 26 %
375 09-03-2020 14:29:17 10.4 C 27 %
Sensor: Nr:Datum:Temp:Feuchte:
Aussen-T/F 376 09-03-2020 14:39:17 11.6 C 26 %
377 09-03-2020 14:49:17 12.8 C 20 %
378 09-03-2020 14:59:17 13.6 C 20 %
379 09-03-2020 15:09:18 12.6 C 20 %
380 09-03-2020 15:19:18 13 C 20 %
381 09-03-2020 15:29:18 12.9 C 20 %
382 09-03-2020 15:39:18 14.4 C 20 %
383 09-03-2020 15:49:17 14 C 20 %
384 09-03-2020 15:59:17 12.5 C 20 %
385 09-03-2020 16:09:18 11.2 C 20 %
386 09-03-2020 16:19:17 10.5 C 22 %
387 09-03-2020 16:29:17 10.7 C 23 %
388 09-03-2020 16:39:17 13.3 C 20 %
389 09-03-2020 16:49:17 14.2 C 20 %
390 09-03-2020 16:59:18 14.1 C 20 %
391 09-03-2020 17:09:18 12.2 C 20 %
392 09-03-2020 17:19:17 10.1 C 20 %
393 09-03-2020 17:29:17 9.9 C 25 %
394 09-03-2020 17:39:18 9.8 C 25 %
395 09-03-2020 17:49:17 9.7 C 27 %
396 09-03-2020 17:59:18 9.7 C 26 %
397 09-03-2020 18:09:18 9.5 C 27 %
398 09-03-2020 18:19:17 9.2 C 28 %
399 09-03-2020 18:29:17 8.9 C 30 %
400 09-03-2020 18:39:17 8.7 C 30 %
Sensor: Nr:Datum:Temp:Feuchte:
Aussen-T/F 401 09-03-2020 18:49:17 8.1 C 30 %
402 09-03-2020 18:59:17 7.7 C 32 %
403 09-03-2020 19:09:18 7.5 C 33 %
404 09-03-2020 19:19:17 7.4 C 33 %
405 09-03-2020 19:29:17 7.6 C 33 %
406 09-03-2020 19:39:17 7.4 C 34 %
407 09-03-2020 19:49:18 7.3 C 33 %
408 09-03-2020 19:59:18 7.2 C 34 %
409 09-03-2020 20:09:17 6.5 C 36 %
410 09-03-2020 20:19:17 6.9 C 35 %
411 09-03-2020 20:29:17 6.5 C 36 %
412 09-03-2020 20:39:18 6.5 C 36 %
413 09-03-2020 20:49:18 6.7 C 36 %
414 09-03-2020 20:59:18 6.8 C 35 %
415 09-03-2020 21:09:17 5.9 C 37 %
416 09-03-2020 21:19:17 5.6 C 38 %
417 09-03-2020 21:29:17 5.5 C 38 %
418 09-03-2020 21:39:17 5.4 C 38 %
419 09-03-2020 21:49:18 5.4 C 38 %
420 09-03-2020 21:59:18 5.6 C 38 %
421 09-03-2020 22:09:18 5.4 C 38 %
422 09-03-2020 22:19:17 5.6 C 38 %
423 09-03-2020 22:29:17 5.8 C 38 %
424 09-03-2020 22:39:17 5.8 C 38 %
425 09-03-2020 22:49:17 5.4 C 38 %
Sensor: Nr:Datum:Temp:Feuchte:
Aussen-T/F 426 09-03-2020 22:59:17 5.1 C 39 %
427 09-03-2020 23:09:18 5.1 C 39 %
428 09-03-2020 23:19:17 5.2 C 39 %
429 09-03-2020 23:29:17 5 C 39 %
430 09-03-2020 23:39:17 4.6 C 40 %
431 09-03-2020 23:49:17 4.6 C 41 %
432 09-03-2020 23:59:17 4.5 C 41 %
433 10-03-2020 00:09:17 4.6 C 41 %
434 10-03-2020 00:19:18 4.7 C 41 %
435 10-03-2020 00:29:18 5.1 C 40 %
436 10-03-2020 00:39:18 5.5 C 40 %
437 10-03-2020 00:49:18 5.5 C 40 %
438 10-03-2020 00:59:18 5.8 C 39 %
439 10-03-2020 01:09:18 5.8 C 39 %
440 10-03-2020 01:19:17 5.9 C 39 %
441 10-03-2020 01:29:18 6 C 38 %
442 10-03-2020 01:39:18 6.3 C 38 %
443 10-03-2020 01:49:17 6.7 C 37 %
444 10-03-2020 01:59:17 6.6 C 37 %
445 10-03-2020 02:09:18 6.7 C 37 %
446 10-03-2020 02:19:17 6.6 C 37 %
447 10-03-2020 02:29:18 6.7 C 37 %
448 10-03-2020 02:39:18 6.8 C 37 %
449 10-03-2020 02:49:17 6.9 C 37 %
450 10-03-2020 02:59:17 7.1 C 37 %
Sensor: Nr:Datum:Temp:Feuchte:
Aussen-T/F 451 10-03-2020 03:09:18 6.6 C 38 %
452 10-03-2020 03:19:18 6.5 C 38 %
453 10-03-2020 03:29:18 6.3 C 39 %
454 10-03-2020 03:39:18 6.2 C 39 %
455 10-03-2020 03:49:17 6 C 40 %
456 10-03-2020 03:59:17 6 C 40 %
457 10-03-2020 04:09:17 5.8 C 40 %
458 10-03-2020 04:19:17 5.8 C 40 %
459 10-03-2020 04:29:17 5.6 C 41 %
460 10-03-2020 04:39:17 5.9 C 40 %
461 10-03-2020 04:49:17 5.6 C 41 %
462 10-03-2020 04:59:17 5.5 C 41 %
463 10-03-2020 05:09:17 5.5 C 41 %
464 10-03-2020 05:19:17 5.2 C 41 %
465 10-03-2020 05:29:18 5.2 C 41 %
466 10-03-2020 05:39:18 5.1 C 42 %
467 10-03-2020 05:49:18 5.1 C 42 %
468 10-03-2020 05:59:18 5 C 42 %
469 10-03-2020 06:09:17 4.9 C 43 %
470 10-03-2020 06:19:17 5 C 42 %
471 10-03-2020 06:29:17 4.9 C 43 %
472 10-03-2020 06:39:18 5 C 44 %
473 10-03-2020 06:49:17 5.1 C 43 %
474 10-03-2020 06:59:17 5 C 43 %
475 10-03-2020 07:09:18 5.1 C 42 %
Sensor: Nr:Datum:Temp:Feuchte:
Aussen-T/F 476 10-03-2020 07:19:18 5.3 C 42 %
477 10-03-2020 07:29:18 5.8 C 41 %
478 10-03-2020 07:39:18 5.8 C 42 %
479 10-03-2020 07:49:18 5.7 C 41 %
480 10-03-2020 07:59:18 5.9 C 41 %
481 10-03-2020 08:09:18 6 C 41 %
482 10-03-2020 08:19:18 6 C 41 %
483 10-03-2020 08:29:18 6.3 C 41 %
484 10-03-2020 08:39:18 6.5 C 40 %
485 10-03-2020 08:49:18 6.3 C 41 %
486 10-03-2020 08:59:18 6.5 C 41 %
487 10-03-2020 09:09:17 6.6 C 41 %
488 10-03-2020 09:19:17 6.6 C 41 %
489 10-03-2020 09:29:17 6.7 C 42 %
490 10-03-2020 09:39:17 6.8 C 42 %
491 10-03-2020 09:49:17 6.9 C 42 %
492 10-03-2020 09:59:17 7.1 C 41 %
493 10-03-2020 10:09:18 7.2 C 41 %
494 10-03-2020 10:19:18 7.3 C 41 %
495 10-03-2020 10:29:18 7.4 C 41 %
496 10-03-2020 10:39:18 7.5 C 41 %
497 10-03-2020 10:49:18 7.8 C 41 %
498 10-03-2020 10:59:18 7.9 C 41 %
499 10-03-2020 11:09:18 8.1 C 41 %
500 10-03-2020 11:19:18 8.2 C 40 %
Sensor: Nr:Datum:Temp:Feuchte:
Aussen-T/F 501 10-03-2020 11:29:18 8.4 C 40 %
502 10-03-2020 11:39:18 8.5 C 41 %
503 10-03-2020 11:49:17 8.7 C 41 %
504 10-03-2020 11:59:17 8.9 C 41 %
505 10-03-2020 12:09:17 8.9 C 40 %
506 10-03-2020 12:19:17 8.9 C 41 %
507 10-03-2020 12:29:18 9 C 41 %
508 10-03-2020 12:39:18 9.1 C 41 %
509 10-03-2020 12:49:17 9.1 C 41 %
510 10-03-2020 12:59:17 9.3 C 41 %
511 10-03-2020 13:09:18 9.4 C 40 %
512 10-03-2020 13:19:17 9.5 C 41 %
513 10-03-2020 13:29:18 9.5 C 41 %
514 10-03-2020 13:39:18 9.5 C 41 %
515 10-03-2020 13:49:17 9.7 C 41 %
516 10-03-2020 13:59:18 9.8 C 41 %
517 10-03-2020 14:09:18 9.9 C 41 %
518 10-03-2020 14:19:18 10.2 C 40 %
519 10-03-2020 14:29:18 10.5 C 40 %
520 10-03-2020 14:39:18 10.8 C 40 %
521 10-03-2020 14:49:17 10.9 C 40 %
522 10-03-2020 14:59:17 11.3 C 38 %
523 10-03-2020 15:09:18 11.3 C 38 %
524 10-03-2020 15:19:18 11.4 C 38 %
525 10-03-2020 15:29:18 11.8 C 38 %
Sensor: Nr:Datum:Temp:Feuchte:
Aussen-T/F 526 10-03-2020 15:39:18 12.3 C 37 %
527 10-03-2020 15:49:17 12.3 C 36 %
528 10-03-2020 15:59:18 12.5 C 37 %
529 10-03-2020 16:09:18 13 C 35 %
530 10-03-2020 16:19:18 12.6 C 36 %
531 10-03-2020 16:29:18 12.5 C 37 %
532 10-03-2020 16:39:18 12.4 C 37 %
533 10-03-2020 16:49:17 12.5 C 37 %
534 10-03-2020 16:59:18 12.5 C 37 %
535 10-03-2020 17:09:18 12.7 C 37 %
536 10-03-2020 17:19:17 12.6 C 37 %
537 10-03-2020 17:29:18 12.7 C 37 %
538 10-03-2020 17:39:18 12.6 C 37 %
539 10-03-2020 17:49:17 12.5 C 37 %
540 10-03-2020 17:59:18 12.5 C 38 %
541 10-03-2020 18:09:18 12.3 C 38 %
542 10-03-2020 18:19:17 12.3 C 38 %
543 10-03-2020 18:29:18 12.3 C 38 %
544 10-03-2020 18:39:18 12.5 C 38 %
545 10-03-2020 18:49:17 12.4 C 38 %
546 10-03-2020 18:59:17 12.3 C 38 %
547 10-03-2020 19:09:18 12.5 C 38 %
548 10-03-2020 19:19:17 12.3 C 38 %
549 10-03-2020 19:29:17 12.4 C 38 %
550 10-03-2020 19:39:17 12.5 C 38 %
Sensor: Nr:Datum:Temp:Feuchte:
Aussen-T/F 551 10-03-2020 19:49:17 12.5 C 38 %
552 10-03-2020 19:59:17 12.5 C 38 %
553 10-03-2020 20:09:17 12.5 C 38 %
554 10-03-2020 20:19:17 12.7 C 38 %
555 10-03-2020 20:29:18 12.8 C 38 %
556 10-03-2020 20:39:18 12.8 C 38 %
557 10-03-2020 20:49:17 12.9 C 38 %
558 10-03-2020 20:59:17 13.1 C 37 %
559 10-03-2020 21:09:18 12.8 C 38 %
560 10-03-2020 21:19:17 13.2 C 37 %
561 10-03-2020 21:29:18 13.2 C 37 %
562 10-03-2020 21:39:18 13.2 C 37 %
563 10-03-2020 21:49:17 13.2 C 37 %
564 10-03-2020 21:59:18 13.1 C 37 %
565 10-03-2020 22:09:18 12.8 C 39 %
566 10-03-2020 22:19:18 12.5 C 40 %
567 10-03-2020 22:29:18 12.5 C 40 %
568 10-03-2020 22:39:18 12.7 C 40 %
569 10-03-2020 22:49:17 12.5 C 40 %
570 10-03-2020 22:59:17 12.5 C 40 %
571 10-03-2020 23:09:18 12.8 C 40 %
572 10-03-2020 23:19:18 12.8 C 39 %
573 10-03-2020 23:29:18 12.8 C 39 %
574 10-03-2020 23:39:18 12.8 C 39 %
575 10-03-2020 23:49:17 12.9 C 39 %
Sensor: Nr:Datum:Temp:Feuchte:
Aussen-T/F 576 10-03-2020 23:59:17 13.1 C 37 %
577 11-03-2020 00:09:17 13.5 C 36 %
578 11-03-2020 00:19:17 13.5 C 36 %
579 11-03-2020 00:29:17 13.6 C 36 %
580 11-03-2020 00:39:18 13.7 C 36 %
581 11-03-2020 00:49:17 13.7 C 36 %
582 11-03-2020 00:59:17 13.7 C 36 %
583 11-03-2020 01:09:17 13.5 C 36 %
584 11-03-2020 01:19:17 13.4 C 37 %
585 11-03-2020 01:29:17 13.4 C 37 %
586 11-03-2020 01:39:17 13.3 C 37 %
587 11-03-2020 01:49:17 13 C 38 %
588 11-03-2020 01:59:17 12.9 C 39 %
589 11-03-2020 02:09:17 13.2 C 38 %
590 11-03-2020 02:19:17 13.1 C 38 %
591 11-03-2020 02:29:17 13.1 C 38 %
592 11-03-2020 02:39:17 13.2 C 37 %
593 11-03-2020 02:49:17 13.4 C 37 %
594 11-03-2020 02:59:17 13.5 C 37 %
595 11-03-2020 03:09:17 13.1 C 37 %
596 11-03-2020 03:19:18 13 C 38 %
597 11-03-2020 03:29:18 13.2 C 37 %
598 11-03-2020 03:39:18 13.4 C 37 %
599 11-03-2020 03:49:17 13.5 C 37 %
600 11-03-2020 03:59:18 13.4 C 37 %
Sensor: Nr:Datum:Temp:Feuchte:
Aussen-T/F 601 11-03-2020 04:09:18 13.4 C 37 %
602 11-03-2020 04:19:18 13.4 C 37 %
603 11-03-2020 04:29:18 13.4 C 37 %
604 11-03-2020 04:39:17 13.4 C 37 %
605 11-03-2020 04:49:17 13.5 C 36 %
606 11-03-2020 04:59:17 13.4 C 37 %
607 11-03-2020 05:09:17 13.1 C 37 %
608 11-03-2020 05:19:17 13.1 C 37 %
609 11-03-2020 05:29:17 13.1 C 37 %
610 11-03-2020 05:39:17 13.1 C 37 %
611 11-03-2020 05:49:18 13 C 37 %
612 11-03-2020 05:59:18 12.9 C 38 %
613 11-03-2020 06:09:18 13.1 C 37 %
614 11-03-2020 06:19:17 13.2 C 37 %
615 11-03-2020 06:29:17 13.2 C 36 %
616 11-03-2020 06:39:18 13.2 C 36 %
617 11-03-2020 06:49:17 13.6 C 36 %
618 11-03-2020 06:59:17 13.4 C 36 %
619 11-03-2020 07:09:17 13.2 C 36 %
620 11-03-2020 07:19:17 13.1 C 36 %
621 11-03-2020 07:29:17 13.1 C 36 %
622 11-03-2020 07:39:17 13.1 C 36 %
623 11-03-2020 07:49:17 13.1 C 36 %
624 11-03-2020 07:59:18 12.9 C 37 %
625 11-03-2020 08:09:18 12.8 C 37 %
Sensor: Nr:Datum:Temp:Feuchte:
Aussen-T/F 626 11-03-2020 08:19:18 12.6 C 37 %
627 11-03-2020 08:29:18 12.6 C 37 %
628 11-03-2020 08:39:18 12.7 C 37 %
629 11-03-2020 08:49:18 12.8 C 37 %
630 11-03-2020 08:59:18 12.7 C 37 %
631 11-03-2020 09:09:18 13 C 36 %
632 11-03-2020 09:19:18 13.2 C 36 %
633 11-03-2020 09:29:18 13.6 C 36 %
634 11-03-2020 09:39:18 13.8 C 36 %
635 11-03-2020 09:49:18 14 C 35 %
636 11-03-2020 09:59:18 13.9 C 35 %
637 11-03-2020 10:09:18 13.7 C 36 %
638 11-03-2020 10:19:17 13.8 C 36 %
639 11-03-2020 10:29:17 14 C 35 %
640 11-03-2020 10:39:18 14.3 C 35 %
641 11-03-2020 10:49:18 14.4 C 35 %
642 11-03-2020 10:59:18 14.5 C 35 %
643 11-03-2020 11:09:17 14.9 C 35 %
644 11-03-2020 11:19:17 14.6 C 35 %
645 11-03-2020 11:29:17 15.8 C 33 %
646 11-03-2020 11:39:17 15.8 C 33 %
647 11-03-2020 11:49:17 15.6 C 33 %
648 11-03-2020 11:59:17 15.9 C 33 %
649 11-03-2020 12:09:18 15.9 C 33 %
650 11-03-2020 12:19:18 16.4 C 32 %
Sensor: Nr:Datum:Temp:Feuchte:
Aussen-T/F 651 11-03-2020 12:29:18 16.5 C 32 %
652 11-03-2020 12:39:18 16.3 C 32 %
653 11-03-2020 12:49:18 16.5 C 32 %
654 11-03-2020 12:59:18 16.3 C 32 %
655 11-03-2020 13:09:17 16 C 32 %
656 11-03-2020 13:19:17 17 C 31 %
657 11-03-2020 13:29:17 16.8 C 31 %
658 11-03-2020 13:39:17 17.7 C 31 %
659 11-03-2020 13:49:17 15.8 C 32 %
660 11-03-2020 13:59:17 16.1 C 31 %
661 11-03-2020 14:09:17 16.3 C 31 %
662 11-03-2020 14:19:17 16.1 C 31 %
663 11-03-2020 14:29:17 16.6 C 31 %
664 11-03-2020 14:39:17 15.7 C 31 %
665 11-03-2020 14:49:17 16.2 C 31 %
666 11-03-2020 14:59:17 15.8 C 31 %
667 11-03-2020 15:09:17 16.5 C 31 %
668 11-03-2020 15:19:17 15.6 C 32 %
669 11-03-2020 15:29:18 16.4 C 31 %
670 11-03-2020 15:39:18 17.5 C 30 %
671 11-03-2020 15:49:17 15.1 C 32 %
672 11-03-2020 15:59:17 15.6 C 33 %
673 11-03-2020 16:09:18 15 C 33 %
674 11-03-2020 16:19:18 14.7 C 35 %
675 11-03-2020 16:29:18 15.1 C 34 %
Sensor: Nr:Datum:Temp:Feuchte:
Aussen-T/F 676 11-03-2020 16:39:17 14.5 C 35 %
677 11-03-2020 16:49:18 14.5 C 35 %
678 11-03-2020 16:59:18 14.5 C 34 %
679 11-03-2020 17:09:18 14.1 C 35 %
680 11-03-2020 17:19:18 14 C 35 %
681 11-03-2020 17:29:18 13.2 C 38 %
682 11-03-2020 17:39:17 13.2 C 38 %
683 11-03-2020 17:49:18 13.2 C 38 %
684 11-03-2020 17:59:18 13.4 C 37 %
685 11-03-2020 18:09:18 13.5 C 37 %
686 11-03-2020 18:19:17 13.5 C 36 %
687 11-03-2020 18:29:17 13.3 C 36 %
688 11-03-2020 18:39:17 13.4 C 36 %
689 11-03-2020 18:49:17 13.5 C 36 %
690 11-03-2020 18:59:17 13.4 C 36 %
691 11-03-2020 19:09:17 13.2 C 37 %
692 11-03-2020 19:19:17 13.1 C 37 %
693 11-03-2020 19:29:17 13.1 C 37 %
694 11-03-2020 19:39:18 13.4 C 36 %
695 11-03-2020 19:49:17 13.3 C 36 %
696 11-03-2020 19:59:17 13.2 C 36 %
697 11-03-2020 20:09:17 13.4 C 36 %
698 11-03-2020 20:19:17 13.6 C 36 %
699 11-03-2020 20:29:18 13.6 C 36 %
700 11-03-2020 20:39:18 13.6 C 36 %
Sensor: Nr:Datum:Temp:Feuchte:
Aussen-T/F 701 11-03-2020 20:49:17 13.5 C 36 %
702 11-03-2020 20:59:17 13.3 C 36 %
703 11-03-2020 21:09:18 13.2 C 36 %
704 11-03-2020 21:19:17 13.4 C 36 %
705 11-03-2020 21:29:17 13.5 C 36 %
706 11-03-2020 21:39:18 13.7 C 36 %
707 11-03-2020 21:49:17 14 C 35 %
708 11-03-2020 21:59:17 14 C 35 %
709 11-03-2020 22:09:18 14.1 C 34 %
710 11-03-2020 22:19:18 14 C 34 %
711 11-03-2020 22:29:18 13.9 C 35 %
712 11-03-2020 22:39:17 13.9 C 35 %
713 11-03-2020 22:49:18 13.8 C 35 %
714 11-03-2020 22:59:18 13.8 C 35 %
715 11-03-2020 23:09:18 13.8 C 34 %
716 11-03-2020 23:19:18 13.9 C 34 %
717 11-03-2020 23:29:18 13.8 C 34 %
718 11-03-2020 23:39:17 13.8 C 34 %
719 11-03-2020 23:49:17 13.8 C 34 %
720 11-03-2020 23:59:17 13.7 C 34 %
721 12-03-2020 00:09:17 13.6 C 34 %
722 12-03-2020 00:19:17 13.6 C 34 %
723 12-03-2020 00:29:17 13.6 C 34 %
724 12-03-2020 00:39:18 13.7 C 34 %
725 12-03-2020 00:49:17 13.8 C 34 %
Sensor: Nr:Datum:Temp:Feuchte:
Aussen-T/F 726 12-03-2020 00:59:17 13.9 C 34 %
727 12-03-2020 01:09:18 13.9 C 34 %
728 12-03-2020 01:19:17 13.8 C 34 %
729 12-03-2020 01:29:17 13.9 C 34 %
730 12-03-2020 01:39:18 13.8 C 34 %
731 12-03-2020 01:49:17 13.7 C 34 %
732 12-03-2020 01:59:17 13.8 C 34 %
733 12-03-2020 02:09:18 13.7 C 34 %
734 12-03-2020 02:19:17 13.7 C 34 %
735 12-03-2020 02:29:18 13.6 C 34 %
736 12-03-2020 02:39:18 13.6 C 33 %
737 12-03-2020 02:49:18 13.6 C 33 %
738 12-03-2020 02:59:18 13.5 C 33 %
739 12-03-2020 03:09:18 13.5 C 33 %
740 12-03-2020 03:19:18 13.5 C 32 %
741 12-03-2020 03:29:18 13.5 C 32 %
742 12-03-2020 03:39:17 13.4 C 32 %
743 12-03-2020 03:49:17 13.2 C 32 %
744 12-03-2020 03:59:17 13.1 C 32 %
745 12-03-2020 04:09:17 13.1 C 32 %
746 12-03-2020 04:19:17 13.1 C 32 %
747 12-03-2020 04:29:17 13 C 32 %
748 12-03-2020 04:39:17 13 C 32 %
749 12-03-2020 04:49:17 13 C 32 %
750 12-03-2020 04:59:17 13 C 32 %
Sensor: Nr:Datum:Temp:Feuchte:
Aussen-T/F 751 12-03-2020 05:09:17 12.7 C 33 %
752 12-03-2020 05:19:17 12.7 C 33 %
753 12-03-2020 05:29:17 12.6 C 34 %
754 12-03-2020 05:39:18 12.5 C 34 %
755 12-03-2020 05:49:17 12.5 C 34 %
756 12-03-2020 05:59:17 12.3 C 34 %
757 12-03-2020 06:09:18 12.2 C 34 %
758 12-03-2020 06:19:18 12.1 C 34 %
759 12-03-2020 06:29:18 12 C 34 %
760 12-03-2020 06:39:18 12 C 35 %
761 12-03-2020 06:49:17 12 C 35 %
762 12-03-2020 06:59:17 11.9 C 35 %
763 12-03-2020 07:09:18 11.9 C 35 %
764 12-03-2020 07:19:18 12 C 35 %
765 12-03-2020 07:29:18 12 C 35 %
766 12-03-2020 07:39:18 12 C 35 %
767 12-03-2020 07:49:17 11.2 C 38 %
768 12-03-2020 07:59:17 11 C 39 %
769 12-03-2020 08:09:18 10.8 C 41 %
770 12-03-2020 08:19:18 10.7 C 42 %
771 12-03-2020 08:29:18 10.4 C 40 %
772 12-03-2020 08:39:18 10.1 C 39 %
773 12-03-2020 08:49:17 10.4 C 38 %
774 12-03-2020 08:59:17 10.2 C 38 %
775 12-03-2020 09:09:18 10.4 C 38 %
Sensor: Nr:Datum:Temp:Feuchte:
Aussen-T/F 776 12-03-2020 09:19:17 10.5 C 37 %
777 12-03-2020 09:29:17 10.9 C 36 %
778 12-03-2020 09:39:17 10.8 C 36 %
779 12-03-2020 09:49:18 11 C 36 %
780 12-03-2020 09:59:18 11.5 C 35 %
781 12-03-2020 10:09:18 11.7 C 34 %
782 12-03-2020 10:19:17 11.5 C 34 %
783 12-03-2020 10:29:17 11.5 C 34 %
784 12-03-2020 10:39:17 11.8 C 33 %
785 12-03-2020 10:49:17 11.3 C 33 %
786 12-03-2020 10:59:17 11.3 C 32 %
787 12-03-2020 11:09:18 11.6 C 28 %
788 12-03-2020 11:19:17 11.5 C 27 %
789 12-03-2020 11:29:17 11.7 C 26 %
790 12-03-2020 11:39:17 11.9 C 23 %
791 12-03-2020 11:49:18 11.9 C 20 %
792 12-03-2020 11:59:18 12.3 C 20 %
793 12-03-2020 12:09:18 12.2 C 20 %
794 12-03-2020 12:19:18 12.4 C 20 %
795 12-03-2020 12:29:18 12.8 C 20 %
796 12-03-2020 12:39:17 12.4 C 20 %
797 12-03-2020 12:49:17 12.1 C 20 %
798 12-03-2020 12:59:18 12 C 20 %
799 12-03-2020 13:09:18 12.2 C 20 %
800 12-03-2020 13:19:17 12.3 C 20 %
Sensor: Nr:Datum:Temp:Feuchte:
Aussen-T/F 801 12-03-2020 13:29:17 12.3 C 20 %
802 12-03-2020 13:39:17 12.7 C 20 %
803 12-03-2020 13:49:17 12.5 C 20 %
804 12-03-2020 13:59:17 12.4 C 20 %
805 12-03-2020 14:09:17 12.2 C 20 %
806 12-03-2020 14:19:17 12.2 C 20 %
807 12-03-2020 14:29:18 12.2 C 20 %
808 12-03-2020 14:39:18 13.4 C 20 %
809 12-03-2020 14:49:17 13 C 20 %
810 12-03-2020 14:59:17 11.8 C 20 %
811 12-03-2020 15:09:17 11.9 C 20 %
812 12-03-2020 15:19:17 11.8 C 20 %
813 12-03-2020 15:29:18 11.9 C 20 %
814 12-03-2020 15:39:18 11.8 C 20 %
815 12-03-2020 15:49:17 11.7 C 20 %
816 12-03-2020 15:59:18 11.6 C 20 %
817 12-03-2020 16:09:18 11.5 C 20 %
818 12-03-2020 16:19:18 11.7 C 20 %
819 12-03-2020 16:29:18 11.7 C 20 %
820 12-03-2020 16:39:18 12.4 C 20 %
821 12-03-2020 16:49:17 11.8 C 20 %
822 12-03-2020 16:59:17 11.5 C 20 %
823 12-03-2020 17:09:17 11.5 C 20 %
824 12-03-2020 17:19:17 11.5 C 20 %
825 12-03-2020 17:29:17 11.2 C 20 %
Sensor: Nr:Datum:Temp:Feuchte:
Aussen-T/F 826 12-03-2020 17:39:18 10.9 C 20 %
827 12-03-2020 17:49:17 11 C 20 %
828 12-03-2020 17:59:18 10.8 C 22 %
829 12-03-2020 18:09:18 10.3 C 25 %
830 12-03-2020 18:19:18 9.8 C 27 %
831 12-03-2020 18:29:18 9.3 C 30 %
832 12-03-2020 18:39:17 8.7 C 31 %
833 12-03-2020 18:49:17 7.9 C 33 %
834 12-03-2020 18:59:17 7.6 C 35 %
835 12-03-2020 19:09:17 7.5 C 34 %
836 12-03-2020 19:19:17 7 C 35 %
837 12-03-2020 19:29:17 6.6 C 36 %
838 12-03-2020 19:39:17 6.5 C 36 %
839 12-03-2020 19:49:17 7.1 C 35 %
840 12-03-2020 19:59:17 6.8 C 35 %
841 12-03-2020 20:09:17 7.6 C 35 %
842 12-03-2020 20:19:17 7.3 C 35 %
843 12-03-2020 20:29:17 6.8 C 35 %
844 12-03-2020 20:39:17 6.8 C 36 %
845 12-03-2020 20:49:17 6.4 C 36 %
846 12-03-2020 20:59:17 6.7 C 36 %
847 12-03-2020 21:09:17 6.3 C 36 %
848 12-03-2020 21:19:17 7.2 C 35 %
849 12-03-2020 21:29:17 7.6 C 35 %
850 12-03-2020 21:39:18 7.4 C 35 %
Sensor: Nr:Datum:Temp:Feuchte:
Aussen-T/F 851 12-03-2020 21:49:17 7.4 C 35 %
852 12-03-2020 21:59:17 7.6 C 35 %
853 12-03-2020 22:09:18 7.6 C 35 %
854 12-03-2020 22:19:18 7.1 C 35 %
855 12-03-2020 22:29:18 7.2 C 35 %
856 12-03-2020 22:39:18 7.5 C 35 %
857 12-03-2020 22:49:17 7.6 C 35 %
858 12-03-2020 22:59:17 7.3 C 35 %
859 12-03-2020 23:09:17 7.2 C 35 %
860 12-03-2020 23:19:17 7 C 35 %
861 12-03-2020 23:29:18 6.2 C 35 %
862 12-03-2020 23:39:18 6.7 C 34 %
863 12-03-2020 23:49:17 6.5 C 34 %
864 12-03-2020 23:59:17 6.4 C 32 %
865 13-03-2020 00:09:17 6.5 C 32 %
866 13-03-2020 00:19:17 6.5 C 32 %
867 13-03-2020 00:29:17 6.1 C 32 %
868 13-03-2020 00:39:17 6.2 C 32 %
869 13-03-2020 00:49:17 6 C 32 %
870 13-03-2020 00:59:17 5.9 C 33 %
871 13-03-2020 01:09:17 5.4 C 33 %
872 13-03-2020 01:19:17 5.4 C 33 %
873 13-03-2020 01:29:17 5.1 C 34 %
874 13-03-2020 01:39:17 5.2 C 34 %
875 13-03-2020 01:49:17 5.2 C 33 %
Sensor: Nr:Datum:Temp:Feuchte:
Aussen-T/F 876 13-03-2020 01:59:17 5.2 C 33 %
877 13-03-2020 02:09:17 4.8 C 35 %
878 13-03-2020 02:19:17 5 C 34 %
879 13-03-2020 02:29:17 5.1 C 34 %
880 13-03-2020 02:39:18 5.1 C 34 %
881 13-03-2020 02:49:17 5.1 C 34 %
882 13-03-2020 02:59:17 5.1 C 34 %
883 13-03-2020 03:09:17 5 C 34 %
884 13-03-2020 03:19:17 5.2 C 34 %
885 13-03-2020 03:29:17 5.2 C 34 %
886 13-03-2020 03:39:18 5.1 C 34 %
887 13-03-2020 03:49:17 5.1 C 34 %
888 13-03-2020 03:59:17 5.2 C 34 %
889 13-03-2020 04:09:17 5 C 34 %
890 13-03-2020 04:19:17 4.9 C 35 %
891 13-03-2020 04:29:17 5.1 C 35 %
892 13-03-2020 04:39:17 5.1 C 35 %
893 13-03-2020 04:49:17 5 C 34 %
894 13-03-2020 04:59:17 5.2 C 34 %
895 13-03-2020 05:09:17 5.2 C 34 %
896 13-03-2020 05:19:17 5.6 C 34 %
897 13-03-2020 05:29:17 5.4 C 34 %
898 13-03-2020 05:39:17 5.4 C 34 %
899 13-03-2020 05:49:18 5.4 C 34 %
900 13-03-2020 05:59:18 5.4 C 34 %
Sensor: Nr:Datum:Temp:Feuchte:
Aussen-T/F 901 13-03-2020 06:09:18 5.6 C 34 %
902 13-03-2020 06:19:17 5.7 C 34 %
903 13-03-2020 06:29:17 5.4 C 34 %
904 13-03-2020 06:39:17 5.4 C 35 %
905 13-03-2020 06:49:17 5.3 C 34 %
906 13-03-2020 06:59:17 5.4 C 35 %
907 13-03-2020 07:09:17 5.3 C 35 %
908 13-03-2020 07:19:17 5.4 C 35 %
909 13-03-2020 07:29:17 5.6 C 35 %
910 13-03-2020 07:39:17 5.7 C 35 %
911 13-03-2020 07:49:18 5.7 C 35 %
912 13-03-2020 07:59:18 5.7 C 35 %
913 13-03-2020 08:09:17 5.8 C 35 %
914 13-03-2020 08:19:17 6 C 35 %
915 13-03-2020 08:29:17 5.9 C 35 %
916 13-03-2020 08:39:18 6 C 35 %
917 13-03-2020 08:49:17 6.2 C 35 %
918 13-03-2020 08:59:17 6.4 C 34 %
919 13-03-2020 09:09:17 6.5 C 35 %
920 13-03-2020 09:19:17 6.9 C 34 %
921 13-03-2020 09:29:17 7.1 C 33 %
922 13-03-2020 09:39:18 7.1 C 33 %
923 13-03-2020 09:49:17 6.6 C 34 %
924 13-03-2020 09:59:17 7.1 C 33 %
925 13-03-2020 10:09:18 7.5 C 33 %
Sensor: Nr:Datum:Temp:Feuchte:
Aussen-T/F 926 13-03-2020 10:19:17 8.5 C 32 %
927 13-03-2020 10:29:17 8.1 C 32 %
928 13-03-2020 10:39:18 8 C 32 %
929 13-03-2020 10:49:17 7.6 C 33 %
930 13-03-2020 10:59:17 7.4 C 35 %
931 13-03-2020 11:09:17 8.9 C 33 %
932 13-03-2020 11:19:17 9.1 C 31 %
933 13-03-2020 11:29:17 8 C 32 %
934 13-03-2020 11:39:17 7.3 C 35 %
935 13-03-2020 11:49:18 7.4 C 35 %
936 13-03-2020 11:59:18 8.2 C 33 %
937 13-03-2020 12:09:18 8.9 C 32 %
938 13-03-2020 12:19:18 9.7 C 29 %
939 13-03-2020 12:29:18 9 C 30 %
940 13-03-2020 12:39:18 9.6 C 30 %
941 13-03-2020 12:49:18 9 C 31 %
942 13-03-2020 12:59:18 8.8 C 31 %
943 13-03-2020 13:09:18 8.4 C 32 %
944 13-03-2020 13:19:18 8.6 C 33 %
945 13-03-2020 13:29:18 9.5 C 31 %
946 13-03-2020 13:39:18 9.9 C 30 %
947 13-03-2020 13:49:17 9.7 C 30 %
948 13-03-2020 13:59:17 9.6 C 30 %
949 13-03-2020 14:09:18 9.3 C 30 %
950 13-03-2020 14:19:18 9.4 C 30 %
Sensor: Nr:Datum:Temp:Feuchte:
Aussen-T/F 951 13-03-2020 14:29:18 8.9 C 32 %
952 13-03-2020 14:39:18 9.5 C 31 %
953 13-03-2020 14:49:18 10.3 C 28 %
954 13-03-2020 14:59:18 10.1 C 28 %
955 13-03-2020 15:09:18 9.5 C 29 %
956 13-03-2020 15:19:17 9.3 C 29 %
957 13-03-2020 15:29:17 10.1 C 27 %
958 13-03-2020 15:39:18 10.4 C 26 %
959 13-03-2020 15:49:18 10.4 C 26 %
960 13-03-2020 15:59:18 10.1 C 27 %
961 13-03-2020 16:09:18 10 C 27 %
962 13-03-2020 16:19:17 9.8 C 27 %
963 13-03-2020 16:29:17 9.1 C 29 %
964 13-03-2020 16:39:17 9 C 30 %
965 13-03-2020 16:49:17 10 C 27 %
966 13-03-2020 16:59:17 9.3 C 30 %
967 13-03-2020 17:09:17 9.1 C 30 %
968 13-03-2020 17:19:18 9.1 C 30 %
969 13-03-2020 17:29:18 9.3 C 30 %
970 13-03-2020 17:39:17 9.4 C 29 %
971 13-03-2020 17:49:18 9.5 C 30 %
972 13-03-2020 17:59:18 9.1 C 31 %
973 13-03-2020 18:09:18 8.7 C 31 %
974 13-03-2020 18:19:17 8.6 C 31 %
975 13-03-2020 18:29:17 8.4 C 31 %
Sensor: Nr:Datum:Temp:Feuchte:
Aussen-T/F 976 13-03-2020 18:39:17 8.2 C 31 %
977 13-03-2020 18:49:17 8.1 C 32 %
978 13-03-2020 18:59:17 8 C 32 %
979 13-03-2020 19:09:17 7.8 C 33 %
980 13-03-2020 19:19:17 7.3 C 35 %
981 13-03-2020 19:29:17 7.3 C 35 %
982 13-03-2020 19:39:18 7.3 C 35 %
983 13-03-2020 19:49:17 7.3 C 35 %
984 13-03-2020 19:59:18 7 C 35 %
985 13-03-2020 20:09:18 6.7 C 36 %
986 13-03-2020 20:19:17 6.7 C 36 %
987 13-03-2020 20:29:17 6.9 C 36 %
988 13-03-2020 20:39:17 6.4 C 36 %
989 13-03-2020 20:49:17 6.3 C 37 %
990 13-03-2020 20:59:17 6.2 C 37 %
991 13-03-2020 21:09:18 5.8 C 38 %
992 13-03-2020 21:19:18 5.8 C 38 %
993 13-03-2020 21:29:18 5.8 C 38 %
994 13-03-2020 21:39:18 6.2 C 37 %
995 13-03-2020 21:49:17 5.7 C 38 %
996 13-03-2020 21:59:17 5.8 C 38 %
997 13-03-2020 22:09:18 5.4 C 39 %
998 13-03-2020 22:19:17 5.6 C 39 %
999 13-03-2020 22:29:18 5.4 C 39 %
1000 13-03-2020 22:39:18 5.5 C 40 %
Sensor: Nr:Datum:Temp:Feuchte:
Aussen-T/F 1001 13-03-2020 22:49:17 5.7 C 39 %
1002 13-03-2020 22:59:17 5.8 C 39 %
1003 13-03-2020 23:09:18 5.6 C 39 %
1004 13-03-2020 23:19:17 5.6 C 39 %
1005 13-03-2020 23:29:17 5.5 C 40 %
1006 13-03-2020 23:39:17 5.4 C 40 %
1007 13-03-2020 23:49:17 5.4 C 40 %
1008 13-03-2020 23:59:17 4.8 C 41 %
1009 14-03-2020 00:09:17 4.8 C 41 %
1010 14-03-2020 00:19:18 4.6 C 41 %
1011 14-03-2020 00:29:18 4.4 C 41 %
1012 14-03-2020 00:39:18 3.7 C 42 %
1013 14-03-2020 00:49:17 3.5 C 44 %
1014 14-03-2020 00:59:17 3 C 43 %
1015 14-03-2020 01:09:18 2.6 C 45 %
1016 14-03-2020 01:19:17 2.4 C 46 %
1017 14-03-2020 01:29:18 2 C 45 %
1018 14-03-2020 01:39:18 2 C 46 %
1019 14-03-2020 01:49:17 2.4 C 48 %
1020 14-03-2020 01:59:18 2.8 C 49 %
1021 14-03-2020 02:09:18 3.3 C 47 %
1022 14-03-2020 02:19:18 3.6 C 46 %
1023 14-03-2020 02:29:18 3.3 C 45 %
1024 14-03-2020 02:39:18 3 C 45 %
1025 14-03-2020 02:49:18 2.8 C 45 %
Sensor: Nr:Datum:Temp:Feuchte:
Aussen-T/F 1026 14-03-2020 02:59:18 2.3 C 46 %
1027 14-03-2020 03:09:18 2.2 C 46 %
1028 14-03-2020 03:19:17 1.5 C 47 %
1029 14-03-2020 03:29:17 1.3 C 47 %
1030 14-03-2020 03:39:17 1.4 C 48 %
1031 14-03-2020 03:49:18 1.5 C 48 %
1032 14-03-2020 03:59:18 1.5 C 49 %
1033 14-03-2020 04:09:17 1.7 C 49 %
1034 14-03-2020 04:19:17 1.6 C 48 %
1035 14-03-2020 04:29:17 1.6 C 49 %
1036 14-03-2020 04:39:17 1.5 C 48 %
1037 14-03-2020 04:49:17 1.3 C 48 %
1038 14-03-2020 04:59:17 1.3 C 48 %
1039 14-03-2020 05:09:17 1.3 C 49 %
1040 14-03-2020 05:19:17 1.1 C 48 %
1041 14-03-2020 05:29:17 0.8 C 49 %
1042 14-03-2020 05:39:18 0.9 C 50 %
1043 14-03-2020 05:49:17 1.3 C 49 %
1044 14-03-2020 05:59:17 0.5 C 49 %
1045 14-03-2020 06:09:18 0.3 C 49 %
1046 14-03-2020 06:19:18 0.6 C 50 %
1047 14-03-2020 06:29:18 0.4 C 49 %
1048 14-03-2020 06:39:18 0.4 C 50 %
1049 14-03-2020 06:49:17 0.8 C 50 %
1050 14-03-2020 06:59:17 0.8 C 50 %
Sensor: Nr:Datum:Temp:Feuchte:
Aussen-T/F 1051 14-03-2020 07:09:17 0.7 C 50 %
1052 14-03-2020 07:19:17 0.8 C 50 %
1053 14-03-2020 07:29:17 0.6 C 49 %
1054 14-03-2020 07:39:18 0.6 C 49 %
1055 14-03-2020 07:49:17 0.8 C 49 %
1056 14-03-2020 07:59:17 0.8 C 50 %
1057 14-03-2020 08:09:17 1 C 48 %
1058 14-03-2020 08:19:17 1.4 C 49 %
1059 14-03-2020 08:29:17 1.7 C 49 %
1060 14-03-2020 08:39:18 1.9 C 49 %
1061 14-03-2020 08:49:17 2.2 C 48 %
1062 14-03-2020 08:59:17 2.5 C 48 %
1063 14-03-2020 09:09:17 2.8 C 48 %
1064 14-03-2020 09:19:17 3.4 C 46 %
1065 14-03-2020 09:29:17 3.7 C 45 %
1066 14-03-2020 09:39:18 4.1 C 43 %
1067 14-03-2020 09:49:17 4.5 C 43 %
1068 14-03-2020 09:59:17 5 C 41 %
1069 14-03-2020 10:09:18 5.7 C 41 %
1070 14-03-2020 10:19:18 6 C 39 %
1071 14-03-2020 10:29:18 6.8 C 40 %
1072 14-03-2020 10:39:18 7.7 C 38 %
1073 14-03-2020 10:49:17 7.7 C 37 %
1074 14-03-2020 10:59:17 8.4 C 36 %
1075 14-03-2020 11:09:18 9 C 35 %
Sensor: Nr:Datum:Temp:Feuchte:
Aussen-T/F 1076 14-03-2020 11:19:18 10.4 C 34 %
1077 14-03-2020 11:29:18 11 C 31 %
1078 14-03-2020 11:39:18 10.4 C 31 %
1079 14-03-2020 11:49:17 10.1 C 32 %
1080 14-03-2020 11:59:17 11.3 C 31 %
1081 14-03-2020 12:09:18 13 C 27 %
1082 14-03-2020 12:19:17 12.4 C 27 %
1083 14-03-2020 12:29:18 12 C 27 %
1084 14-03-2020 12:39:18 11.3 C 28 %
1085 14-03-2020 12:49:17 11.5 C 28 %
1086 14-03-2020 12:59:17 13.1 C 26 %
1087 14-03-2020 13:09:18 12.9 C 25 %
1088 14-03-2020 13:19:17 13 C 22 %
1089 14-03-2020 13:29:17 13.3 C 23 %
1090 14-03-2020 13:39:17 12.5 C 22 %
1091 14-03-2020 13:49:17 12.4 C 22 %
1092 14-03-2020 13:59:17 13.8 C 21 %
1093 14-03-2020 14:09:18 12.3 C 22 %
1094 14-03-2020 14:19:17 12.5 C 21 %
1095 14-03-2020 14:29:17 14 C 20 %
1096 14-03-2020 14:39:17 13.7 C 20 %
1097 14-03-2020 14:49:18 12.3 C 20 %
1098 14-03-2020 14:59:18 11.6 C 23 %
1099 14-03-2020 15:09:18 11.4 C 22 %
1100 14-03-2020 15:19:17 12.1 C 21 %
Sensor: Nr:Datum:Temp:Feuchte:
Aussen-T/F 1101 14-03-2020 15:29:17 12.1 C 20 %
1102 14-03-2020 15:39:18 11.7 C 21 %
1103 14-03-2020 15:49:17 12 C 20 %
1104 14-03-2020 15:59:17 11.8 C 21 %
1105 14-03-2020 16:09:18 11.2 C 23 %
1106 14-03-2020 16:19:17 10.6 C 25 %
1107 14-03-2020 16:29:17 10.4 C 26 %
1108 14-03-2020 16:39:18 9.9 C 26 %
1109 14-03-2020 16:49:18 10.1 C 26 %
1110 14-03-2020 16:59:18 9.8 C 27 %
1111 14-03-2020 17:09:18 10.3 C 26 %
1112 14-03-2020 17:19:17 10.3 C 26 %
1113 14-03-2020 17:29:17 10.7 C 26 %
1114 14-03-2020 17:39:17 9.6 C 27 %
1115 14-03-2020 17:49:17 9.3 C 28 %
1116 14-03-2020 17:59:17 8.6 C 30 %
1117 14-03-2020 18:09:17 8.1 C 31 %
1118 14-03-2020 18:19:17 7.3 C 33 %
1119 14-03-2020 18:29:17 7.1 C 33 %
1120 14-03-2020 18:39:17 6.3 C 36 %
1121 14-03-2020 18:49:17 5.9 C 37 %
1122 14-03-2020 18:59:17 5.9 C 38 %
1123 14-03-2020 19:09:17 5.3 C 38 %
1124 14-03-2020 19:19:17 5.5 C 39 %
1125 14-03-2020 19:29:17 5.1 C 39 %
Sensor: Nr:Datum:Temp:Feuchte:
Aussen-T/F 1126 14-03-2020 19:39:17 5.6 C 39 %
1127 14-03-2020 19:49:17 5.2 C 39 %
1128 14-03-2020 19:59:17 5.3 C 39 %
1129 14-03-2020 20:09:18 5.3 C 39 %
1130 14-03-2020 20:19:18 5.3 C 39 %
1131 14-03-2020 20:29:18 5.3 C 39 %
1132 14-03-2020 20:39:18 5.6 C 39 %
1133 14-03-2020 20:49:17 5.5 C 39 %
1134 14-03-2020 20:59:18 5.7 C 39 %
1135 14-03-2020 21:09:18 5.7 C 39 %
1136 14-03-2020 21:19:18 5.7 C 39 %
1137 14-03-2020 21:29:18 5.6 C 38 %
1138 14-03-2020 21:39:17 5.1 C 39 %
1139 14-03-2020 21:49:18 5.2 C 39 %
1140 14-03-2020 21:59:18 5 C 39 %
1141 14-03-2020 22:09:18 5 C 39 %
1142 14-03-2020 22:19:17 5 C 39 %
1143 14-03-2020 22:29:17 5 C 39 %
1144 14-03-2020 22:39:18 5.1 C 39 %
1145 14-03-2020 22:49:18 4.8 C 40 %
1146 14-03-2020 22:59:18 5.1 C 39 %
1147 14-03-2020 23:09:17 5.5 C 39 %
1148 14-03-2020 23:19:17 5.7 C 39 %
1149 14-03-2020 23:29:17 5.6 C 40 %
1150 14-03-2020 23:39:17 5.6 C 39 %
Sensor: Nr:Datum:Temp:Feuchte:
Aussen-T/F 1151 14-03-2020 23:49:18 5.8 C 40 %
1152 14-03-2020 23:59:18 5.8 C 40 %
1153 15-03-2020 00:09:18 5.9 C 39 %
1154 15-03-2020 00:19:17 5.8 C 39 %
1155 15-03-2020 00:29:17 6.1 C 37 %
1156 15-03-2020 00:39:18 6 C 38 %
1157 15-03-2020 00:49:18 5.6 C 39 %
1158 15-03-2020 00:59:18 5.3 C 39 %
1159 15-03-2020 01:09:17 5.1 C 40 %
1160 15-03-2020 01:19:18 5.1 C 39 %
1161 15-03-2020 01:29:18 5.5 C 39 %
1162 15-03-2020 01:39:17 5.2 C 40 %
1163 15-03-2020 01:49:17 5.2 C 40 %
1164 15-03-2020 01:59:17 5.2 C 40 %
1165 15-03-2020 02:09:17 5.1 C 40 %
1166 15-03-2020 02:19:17 5.1 C 40 %
1167 15-03-2020 02:29:17 4.8 C 40 %
1168 15-03-2020 02:39:18 4.5 C 40 %
1169 15-03-2020 02:49:17 4.9 C 40 %
1170 15-03-2020 02:59:17 5 C 40 %
1171 15-03-2020 03:09:17 4.8 C 40 %
1172 15-03-2020 03:19:17 4.2 C 40 %
1173 15-03-2020 03:29:17 4 C 40 %
1174 15-03-2020 03:39:18 4 C 40 %
1175 15-03-2020 03:49:17 3.8 C 41 %
Sensor: Nr:Datum:Temp:Feuchte:
Aussen-T/F 1176 15-03-2020 03:59:17 3.7 C 42 %
1177 15-03-2020 04:09:18 3.7 C 41 %
1178 15-03-2020 04:19:18 3.9 C 41 %
1179 15-03-2020 04:29:18 3.7 C 41 %
1180 15-03-2020 04:39:18 3.8 C 41 %
1181 15-03-2020 04:49:17 3.7 C 41 %
1182 15-03-2020 04:59:18 3.5 C 41 %
1183 15-03-2020 05:09:18 3.5 C 41 %
1184 15-03-2020 05:19:17 3.3 C 41 %
1185 15-03-2020 05:29:18 3.2 C 41 %
1186 15-03-2020 05:39:18 3 C 41 %
1187 15-03-2020 05:49:17 3.1 C 41 %
1188 15-03-2020 05:59:17 3.1 C 41 %
1189 15-03-2020 06:09:18 3.1 C 41 %
1190 15-03-2020 06:19:17 3.1 C 41 %
1191 15-03-2020 06:29:17 2.9 C 43 %
1192 15-03-2020 06:39:18 3.3 C 41 %
1193 15-03-2020 06:49:18 3.6 C 41 %
1194 15-03-2020 06:59:18 3.3 C 41 %
1195 15-03-2020 07:09:18 3 C 42 %
1196 15-03-2020 07:19:18 3.1 C 42 %
1197 15-03-2020 07:29:18 3.6 C 41 %
1198 15-03-2020 07:39:18 3.6 C 41 %
1199 15-03-2020 07:49:18 3.5 C 41 %
1200 15-03-2020 07:59:18 4 C 41 %
Sensor: Nr:Datum:Temp:Feuchte:
Aussen-T/F 1201 15-03-2020 08:09:18 4.8 C 40 %
1202 15-03-2020 08:19:18 5.4 C 39 %
1203 15-03-2020 08:29:18 5.7 C 39 %
1204 15-03-2020 08:39:18 5.9 C 38 %
1205 15-03-2020 08:49:17 6.4 C 38 %
1206 15-03-2020 08:59:17 6.7 C 38 %
1207 15-03-2020 09:09:18 6.8 C 37 %
1208 15-03-2020 09:19:18 6.9 C 38 %
1209 15-03-2020 09:29:18 7.1 C 37 %
1210 15-03-2020 09:39:18 7.8 C 36 %
1211 15-03-2020 09:49:18 9.2 C 33 %
1212 15-03-2020 09:59:18 9.9 C 32 %
1213 15-03-2020 10:09:18 9.9 C 31 %
1214 15-03-2020 10:19:18 9.8 C 32 %
1215 15-03-2020 10:29:18 10 C 32 %
1216 15-03-2020 10:39:18 10.8 C 31 %
1217 15-03-2020 10:49:17 11.8 C 29 %
1218 15-03-2020 10:59:17 12.5 C 27 %
1219 15-03-2020 11:09:17 13.4 C 25 %
1220 15-03-2020 11:19:17 14.7 C 23 %
1221 15-03-2020 11:29:17 16 C 20 %
1222 15-03-2020 11:39:18 15.5 C 20 %
1223 15-03-2020 11:49:17 14.9 C 20 %
1224 15-03-2020 11:59:18 15.2 C 20 %
1225 15-03-2020 12:09:18 14.5 C 20 %
Sensor: Nr:Datum:Temp:Feuchte:
Aussen-T/F 1226 15-03-2020 12:19:18 14.1 C 20 %
1227 15-03-2020 12:29:18 14.4 C 20 %
1228 15-03-2020 12:39:18 14.7 C 20 %
1229 15-03-2020 12:49:17 15.2 C 20 %
1230 15-03-2020 12:59:17 15.4 C 20 %
1231 15-03-2020 13:09:18 14.8 C 20 %
1232 15-03-2020 13:19:17 17 C 20 %
1233 15-03-2020 13:29:17 18.6 C 20 %
1234 15-03-2020 13:39:18 17.4 C 20 %
1235 15-03-2020 13:49:17 16.7 C 20 %
1236 15-03-2020 13:59:17 16.2 C 20 %
1237 15-03-2020 14:09:17 15.5 C 20 %
1238 15-03-2020 14:19:17 16.5 C 20 %
1239 15-03-2020 14:29:17 16.3 C 20 %
1240 15-03-2020 14:39:18 16.6 C 20 %
1241 15-03-2020 14:49:17 16.2 C 20 %
1242 15-03-2020 14:59:17 16 C 20 %
1243 15-03-2020 15:09:17 17.4 C 20 %
1244 15-03-2020 15:19:17 20.3 C 20 %
1245 15-03-2020 15:29:18 20.4 C 20 %
1246 15-03-2020 15:39:18 19.4 C 20 %
1247 15-03-2020 15:49:17 20.7 C 20 %
1248 15-03-2020 15:59:17 19.9 C 20 %
1249 15-03-2020 16:09:17 21.2 C 20 %
1250 15-03-2020 16:19:17 20.2 C 20 %
Sensor: Nr:Datum:Temp:Feuchte:
Aussen-T/F 1251 15-03-2020 16:29:17 20.5 C 20 %
1252 15-03-2020 16:39:17 19.7 C 20 %
1253 15-03-2020 16:49:18 18.1 C 20 %
1254 15-03-2020 16:59:18 16.9 C 20 %
1255 15-03-2020 17:09:18 16 C 20 %
1256 15-03-2020 17:19:18 15.5 C 20 %
1257 15-03-2020 17:29:18 15.5 C 20 %
1258 15-03-2020 17:39:18 14.9 C 20 %
1259 15-03-2020 17:49:18 13.8 C 20 %
1260 15-03-2020 17:59:18 12.6 C 23 %
1261 15-03-2020 18:09:18 12.1 C 25 %
1262 15-03-2020 18:19:18 11.7 C 26 %
1263 15-03-2020 18:29:18 11.1 C 27 %
1264 15-03-2020 18:39:18 10.6 C 28 %
1265 15-03-2020 18:49:17 10.4 C 28 %
1266 15-03-2020 18:59:17 10 C 28 %
1267 15-03-2020 19:09:18 9.6 C 30 %
1268 15-03-2020 19:19:18 9.4 C 30 %
1269 15-03-2020 19:29:18 9.2 C 31 %
1270 15-03-2020 19:39:18 9.1 C 30 %
1271 15-03-2020 19:49:17 9 C 31 %
1272 15-03-2020 19:59:17 8.9 C 31 %
1273 15-03-2020 20:09:18 8.6 C 31 %
1274 15-03-2020 20:19:17 8.5 C 32 %
1275 15-03-2020 20:29:17 8.2 C 32 %
Sensor: Nr:Datum:Temp:Feuchte:
Aussen-T/F 1276 15-03-2020 20:39:18 8.2 C 32 %
1277 15-03-2020 20:49:18 8 C 32 %
1278 15-03-2020 20:59:18 7.4 C 34 %
1279 15-03-2020 21:09:18 7.1 C 35 %
1280 15-03-2020 21:19:17 7 C 35 %
1281 15-03-2020 21:29:17 7.4 C 35 %
1282 15-03-2020 21:39:17 7.5 C 35 %
1283 15-03-2020 21:49:17 7.1 C 35 %
1284 15-03-2020 21:59:17 6.3 C 36 %
1285 15-03-2020 22:09:17 5.8 C 37 %
1286 15-03-2020 22:19:17 5.4 C 37 %
1287 15-03-2020 22:29:18 5 C 38 %
1288 15-03-2020 22:39:17 4.7 C 40 %
1289 15-03-2020 22:49:17 4.7 C 40 %
1290 15-03-2020 22:59:17 4.7 C 40 %
1291 15-03-2020 23:09:17 4.7 C 40 %
1292 15-03-2020 23:19:17 4.6 C 40 %
1293 15-03-2020 23:29:17 4.5 C 40 %
1294 15-03-2020 23:39:17 4.5 C 40 %
1295 15-03-2020 23:49:17 4.3 C 40 %
1296 15-03-2020 23:59:17 4.1 C 40 %
1297 16-03-2020 00:09:17 4 C 40 %
1298 16-03-2020 00:19:17 3.8 C 41 %
1299 16-03-2020 00:29:17 3.4 C 41 %
1300 16-03-2020 00:39:17 3.4 C 42 %
Sensor: Nr:Datum:Temp:Feuchte:
Aussen-T/F 1301 16-03-2020 00:49:17 3.3 C 42 %
1302 16-03-2020 00:59:17 3.3 C 42 %
1303 16-03-2020 01:09:18 2.9 C 43 %
1304 16-03-2020 01:19:17 3 C 43 %
1305 16-03-2020 01:29:17 3 C 42 %
1306 16-03-2020 01:39:17 3.2 C 42 %
1307 16-03-2020 01:49:18 2.8 C 43 %
1308 16-03-2020 01:59:18 2.6 C 44 %
1309 16-03-2020 02:09:17 2.7 C 45 %
1310 16-03-2020 02:19:17 2.7 C 44 %
1311 16-03-2020 02:29:17 2.4 C 44 %
1312 16-03-2020 02:39:17 2.6 C 45 %
1313 16-03-2020 02:49:17 2.8 C 45 %
1314 16-03-2020 02:59:17 2.8 C 44 %
1315 16-03-2020 03:09:18 2.2 C 44 %
1316 16-03-2020 03:19:17 2.3 C 44 %
1317 16-03-2020 03:29:17 2.2 C 45 %
1318 16-03-2020 03:39:17 1.8 C 45 %
1319 16-03-2020 03:49:18 2 C 46 %
1320 16-03-2020 03:59:18 1.8 C 46 %
1321 16-03-2020 04:09:18 1.6 C 46 %
1322 16-03-2020 04:19:18 1.7 C 46 %
1323 16-03-2020 04:29:18 2 C 46 %
1324 16-03-2020 04:39:18 1.5 C 46 %
1325 16-03-2020 04:49:17 1.7 C 46 %
Sensor: Nr:Datum:Temp:Feuchte:
Aussen-T/F 1326 16-03-2020 04:59:18 1.9 C 46 %
1327 16-03-2020 05:09:18 1.7 C 46 %
1328 16-03-2020 05:19:18 1.7 C 46 %
1329 16-03-2020 05:29:18 1.4 C 46 %
1330 16-03-2020 05:39:18 1.3 C 46 %
1331 16-03-2020 05:49:17 1.2 C 46 %
1332 16-03-2020 05:59:17 1.3 C 47 %
1333 16-03-2020 06:09:18 1.1 C 47 %
1334 16-03-2020 06:19:17 0.6 C 48 %
1335 16-03-2020 06:29:17 0.6 C 48 %
1336 16-03-2020 06:39:17 0.6 C 48 %
1337 16-03-2020 06:49:17 0.6 C 48 %
1338 16-03-2020 06:59:17 0.9 C 49 %
1339 16-03-2020 07:09:17 1.2 C 49 %
1340 16-03-2020 07:19:17 1.1 C 47 %
1341 16-03-2020 07:29:17 1 C 47 %
1342 16-03-2020 07:39:17 1.4 C 49 %
1343 16-03-2020 07:49:17 1.4 C 48 %
1344 16-03-2020 07:59:17 1.7 C 48 %
1345 16-03-2020 08:09:18 2 C 47 %
1346 16-03-2020 08:19:17 2.3 C 47 %
1347 16-03-2020 08:29:18 2.4 C 46 %
1348 16-03-2020 08:39:18 2.4 C 46 %
1349 16-03-2020 08:49:17 2.6 C 46 %
1350 16-03-2020 08:59:17 2.9 C 47 %
Sensor: Nr:Datum:Temp:Feuchte:
Aussen-T/F 1351 16-03-2020 09:09:18 3.4 C 46 %
1352 16-03-2020 09:19:18 3.7 C 45 %
1353 16-03-2020 09:29:18 4 C 45 %
1354 16-03-2020 09:39:18 4.6 C 44 %
1355 16-03-2020 09:49:18 5 C 43 %
1356 16-03-2020 09:59:18 5.6 C 42 %
1357 16-03-2020 10:09:18 6.6 C 41 %
1358 16-03-2020 10:19:18 7.3 C 40 %
1359 16-03-2020 10:29:18 8.3 C 39 %
1360 16-03-2020 10:39:17 9.3 C 38 %
1361 16-03-2020 10:49:18 10.4 C 37 %
1362 16-03-2020 10:59:18 12.4 C 34 %
1363 16-03-2020 11:09:17 13.3 C 32 %
1364 16-03-2020 11:19:17 14.3 C 30 %
1365 16-03-2020 11:29:17 15.4 C 27 %
1366 16-03-2020 11:39:18 15.7 C 26 %
1367 16-03-2020 11:49:17 15.6 C 25 %
1368 16-03-2020 11:59:17 16.1 C 25 %
1369 16-03-2020 12:09:17 16.5 C 25 %
1370 16-03-2020 12:19:17 16.8 C 25 %
1371 16-03-2020 12:29:17 16.4 C 24 %
1372 16-03-2020 12:39:17 16.9 C 24 %
1373 16-03-2020 12:49:17 18.3 C 21 %
1374 16-03-2020 12:59:17 18.7 C 20 %
1375 16-03-2020 13:09:17 22.3 C 20 %
Sensor: Nr:Datum:Temp:Feuchte:
Aussen-T/F 1376 16-03-2020 13:19:17 21.2 C 20 %
1377 16-03-2020 13:29:17 21.1 C 20 %
1378 16-03-2020 13:39:17 20.6 C 20 %
1379 16-03-2020 13:49:17 21.1 C 20 %
1380 16-03-2020 13:59:17 19.7 C 20 %
1381 16-03-2020 14:09:17 18.7 C 20 %
1382 16-03-2020 14:19:17 19.7 C 20 %
1383 16-03-2020 14:29:17 19.7 C 20 %
1384 16-03-2020 14:39:17 20 C 20 %
1385 16-03-2020 14:49:17 19.2 C 20 %
1386 16-03-2020 14:59:17 20.8 C 20 %
1387 16-03-2020 15:09:17 20 C 20 %
1388 16-03-2020 15:19:17 19.1 C 20 %
1389 16-03-2020 15:29:17 18.8 C 20 %
1390 16-03-2020 15:39:18 18.8 C 20 %
1391 16-03-2020 15:49:17 19 C 20 %
1392 16-03-2020 15:59:17 19 C 20 %
1393 16-03-2020 16:09:18 18.7 C 20 %
1394 16-03-2020 16:19:18 19 C 20 %
1395 16-03-2020 16:29:18 21.4 C 20 %
1396 16-03-2020 16:39:17 20.8 C 20 %
1397 16-03-2020 16:49:17 20.2 C 20 %
1398 16-03-2020 16:59:17 19.4 C 20 %
1399 16-03-2020 17:09:17 18.4 C 20 %
1400 16-03-2020 17:19:17 17.9 C 20 %
Sensor: Nr:Datum:Temp:Feuchte:
Aussen-T/F 1401 16-03-2020 17:29:18 17.7 C 20 %
1402 16-03-2020 17:39:18 17.5 C 20 %
1403 16-03-2020 17:49:17 16.8 C 21 %
1404 16-03-2020 17:59:18 16 C 23 %
1405 16-03-2020 18:09:18 15 C 26 %
1406 16-03-2020 18:19:18 14.3 C 27 %
1407 16-03-2020 18:29:18 13.7 C 29 %
1408 16-03-2020 18:39:18 13.1 C 30 %
1409 16-03-2020 18:49:18 12.7 C 31 %
1410 16-03-2020 18:59:18 12.4 C 32 %
1411 16-03-2020 19:09:18 12.1 C 32 %
1412 16-03-2020 19:19:18 12.2 C 32 %
1413 16-03-2020 19:29:18 12.2 C 32 %
1414 16-03-2020 19:39:18 11.9 C 34 %
1415 16-03-2020 19:49:17 11.5 C 34 %
1416 16-03-2020 19:59:18 11 C 35 %
1417 16-03-2020 20:09:18 10.7 C 36 %
1418 16-03-2020 20:19:18 11.4 C 35 %
1419 16-03-2020 20:29:18 10.8 C 36 %
1420 16-03-2020 20:39:18 10.3 C 36 %
1421 16-03-2020 20:49:18 9.5 C 38 %
1422 16-03-2020 20:59:18 10.8 C 37 %
1423 16-03-2020 21:09:18 10.1 C 37 %
1424 16-03-2020 21:19:17 10.3 C 38 %
1425 16-03-2020 21:29:17 9.9 C 38 %
Sensor: Nr:Datum:Temp:Feuchte:
Aussen-T/F 1426 16-03-2020 21:39:17 9.7 C 38 %
1427 16-03-2020 21:49:18 10.2 C 37 %
1428 16-03-2020 21:59:18 9.9 C 38 %
1429 16-03-2020 22:09:18 9.7 C 38 %
1430 16-03-2020 22:19:18 9.5 C 38 %
1431 16-03-2020 22:29:18 9.5 C 39 %
1432 16-03-2020 22:39:18 9.2 C 38 %
1433 16-03-2020 22:49:18 8.9 C 39 %
1434 16-03-2020 22:59:18 9.1 C 39 %
1435 16-03-2020 23:09:18 9.4 C 39 %
1436 16-03-2020 23:19:17 9.4 C 39 %
1437 16-03-2020 23:29:17 9.4 C 39 %
1438 16-03-2020 23:39:17 9.5 C 39 %
1439 16-03-2020 23:49:17 9.5 C 40 %
1440 16-03-2020 23:59:17 9.5 C 39 %
1441 17-03-2020 00:09:17 9.3 C 39 %
1442 17-03-2020 00:19:17 9.7 C 40 %
1443 17-03-2020 00:29:17 9.5 C 39 %
1444 17-03-2020 00:39:18 9.3 C 39 %
1445 17-03-2020 00:49:18 9.1 C 40 %
1446 17-03-2020 00:59:18 9 C 40 %
1447 17-03-2020 01:09:18 9.3 C 40 %
1448 17-03-2020 01:19:17 9.2 C 40 %
1449 17-03-2020 01:29:17 8.9 C 40 %
1450 17-03-2020 01:39:17 8.7 C 41 %
Sensor: Nr:Datum:Temp:Feuchte:
Aussen-T/F 1451 17-03-2020 01:49:18 8.8 C 41 %
1452 17-03-2020 01:59:18 8.8 C 41 %
1453 17-03-2020 02:09:18 8.7 C 41 %
1454 17-03-2020 02:19:17 8.7 C 41 %
1455 17-03-2020 02:29:17 8.7 C 41 %
1456 17-03-2020 02:39:17 8.9 C 41 %
1457 17-03-2020 02:49:17 8.9 C 41 %
1458 17-03-2020 02:59:17 8.8 C 41 %
1459 17-03-2020 03:09:18 8.6 C 41 %
1460 17-03-2020 03:19:18 8.6 C 41 %
1461 17-03-2020 03:29:18 8.4 C 41 %
1462 17-03-2020 03:39:17 8.3 C 41 %
1463 17-03-2020 03:49:18 8.1 C 42 %
1464 17-03-2020 03:59:18 8 C 41 %
1465 17-03-2020 04:09:18 8.9 C 42 %
1466 17-03-2020 04:19:18 9.2 C 40 %
1467 17-03-2020 04:29:18 9.3 C 40 %
1468 17-03-2020 04:39:17 9 C 40 %
1469 17-03-2020 04:49:18 9 C 40 %
1470 17-03-2020 04:59:18 8.6 C 41 %
1471 17-03-2020 05:09:17 8.9 C 41 %
1472 17-03-2020 05:19:17 9 C 40 %
1473 17-03-2020 05:29:17 8.6 C 41 %
1474 17-03-2020 05:39:17 8.3 C 41 %
1475 17-03-2020 05:49:17 8.2 C 41 %
Sensor: Nr:Datum:Temp:Feuchte:
Aussen-T/F 1476 17-03-2020 05:59:18 8.2 C 41 %
1477 17-03-2020 06:09:18 8.1 C 41 %
1478 17-03-2020 06:19:18 8.1 C 41 %
1479 17-03-2020 06:29:18 8 C 41 %
1480 17-03-2020 06:39:18 8.2 C 41 %
1481 17-03-2020 06:49:18 8.1 C 41 %
1482 17-03-2020 06:59:18 8.2 C 41 %
1483 17-03-2020 07:09:17 8.8 C 40 %
1484 17-03-2020 07:19:17 9 C 40 %
1485 17-03-2020 07:29:17 9.5 C 39 %
1486 17-03-2020 07:39:17 9.6 C 39 %
1487 17-03-2020 07:49:18 9.6 C 39 %
1488 17-03-2020 07:59:18 9.8 C 38 %
1489 17-03-2020 08:09:18 10.1 C 37 %
1490 17-03-2020 08:19:17 10 C 37 %
1491 17-03-2020 08:29:17 9.8 C 38 %
1492 17-03-2020 08:39:17 9.9 C 38 %
1493 17-03-2020 08:49:17 9.9 C 38 %
1494 17-03-2020 08:59:17 10 C 37 %
1495 17-03-2020 09:09:17 10.2 C 37 %
1496 17-03-2020 09:19:18 10.4 C 37 %
1497 17-03-2020 09:29:18 10.4 C 37 %
1498 17-03-2020 09:39:18 10.6 C 37 %
1499 17-03-2020 09:49:17 10.6 C 37 %
1500 17-03-2020 09:59:17 10.7 C 37 %
Sensor: Nr:Datum:Temp:Feuchte:
Aussen-T/F 1501 17-03-2020 10:09:17 10.7 C 37 %
1502 17-03-2020 10:19:17 10.9 C 36 %
1503 17-03-2020 10:29:17 11 C 35 %
1504 17-03-2020 10:39:17 11.7 C 35 %
1505 17-03-2020 10:49:17 12.4 C 33 %
1506 17-03-2020 10:59:17 12.9 C 33 %
1507 17-03-2020 11:09:17 13.1 C 32 %
1508 17-03-2020 11:19:17 13.3 C 31 %
1509 17-03-2020 11:29:17 13.3 C 31 %
1510 17-03-2020 11:39:17 14.7 C 30 %
1511 17-03-2020 11:49:17 14.1 C 29 %
1512 17-03-2020 11:59:17 15.4 C 28 %
1513 17-03-2020 12:09:17 14.5 C 29 %
1514 17-03-2020 12:19:18 14.6 C 27 %
1515 17-03-2020 12:29:18 15.2 C 26 %
1516 17-03-2020 12:39:18 16.5 C 26 %
1517 17-03-2020 12:49:18 16.6 C 24 %
1518 17-03-2020 12:59:18 19.3 C 20 %
1519 17-03-2020 13:09:17 18.8 C 20 %
1520 17-03-2020 13:19:17 20.4 C 20 %
1521 17-03-2020 13:29:17 19.5 C 20 %
1522 17-03-2020 13:39:17 18.5 C 20 %
1523 17-03-2020 13:49:18 18.8 C 20 %
1524 17-03-2020 13:59:18 19.3 C 20 %
1525 17-03-2020 14:09:17 18.3 C 20 %
Sensor: Nr:Datum:Temp:Feuchte:
Aussen-T/F 1526 17-03-2020 14:19:17 18.5 C 20 %
1527 17-03-2020 14:29:17 17.9 C 20 %
1528 17-03-2020 14:39:18 17.1 C 20 %
1529 17-03-2020 14:49:18 20.5 C 20 %
1530 17-03-2020 14:59:18 22.2 C 20 %
1531 17-03-2020 15:09:17 22.5 C 20 %
1532 17-03-2020 15:19:17 22.1 C 20 %
1533 17-03-2020 15:29:17 23.8 C 20 %
1534 17-03-2020 15:39:18 23.6 C 20 %
1535 17-03-2020 15:49:17 23.8 C 20 %
1536 17-03-2020 15:59:17 23.9 C 20 %
1537 17-03-2020 16:09:18 23.3 C 20 %
1538 17-03-2020 16:19:18 21.8 C 20 %
1539 17-03-2020 16:29:18 23.2 C 20 %
1540 17-03-2020 16:39:17 21.4 C 20 %
1541 17-03-2020 16:49:17 22.3 C 20 %
1542 17-03-2020 16:59:17 20.1 C 20 %
1543 17-03-2020 17:09:17 18.7 C 20 %
1544 17-03-2020 17:19:18 17.7 C 20 %
1545 17-03-2020 17:29:18 17.3 C 20 %
1546 17-03-2020 17:39:18 16.8 C 20 %
1547 17-03-2020 17:49:17 16.1 C 22 %
1548 17-03-2020 17:59:18 15.3 C 24 %
1549 17-03-2020 18:09:18 14.1 C 27 %
1550 17-03-2020 18:19:17 13.5 C 28 %
Sensor: Nr:Datum:Temp:Feuchte:
Aussen-T/F 1551 17-03-2020 18:29:17 13.2 C 29 %
1552 17-03-2020 18:39:18 12.8 C 30 %
1553 17-03-2020 18:49:18 12.4 C 31 %
1554 17-03-2020 18:59:18 12 C 31 %
1555 17-03-2020 19:09:18 11.9 C 32 %
1556 17-03-2020 19:19:17 11.8 C 32 %
1557 17-03-2020 19:29:17 11.1 C 33 %
1558 17-03-2020 19:39:17 11 C 34 %
1559 17-03-2020 19:49:17 10.4 C 35 %
1560 17-03-2020 19:59:17 10.2 C 35 %
1561 17-03-2020 20:09:17 9.9 C 36 %
1562 17-03-2020 20:19:17 10.1 C 36 %
1563 17-03-2020 20:29:17 10.7 C 35 %
1564 17-03-2020 20:39:18 10.4 C 35 %
1565 17-03-2020 20:49:18 9.6 C 37 %
1566 17-03-2020 20:59:18 9.5 C 37 %
1567 17-03-2020 21:09:18 9 C 37 %
1568 17-03-2020 21:19:17 8.4 C 39 %
1569 17-03-2020 21:29:17 8.4 C 39 %
1570 17-03-2020 21:39:17 8.1 C 39 %
1571 17-03-2020 21:49:18 8 C 40 %
1572 17-03-2020 21:59:18 7.6 C 40 %
1573 17-03-2020 22:09:18 7.3 C 40 %
1574 17-03-2020 22:19:18 7.2 C 41 %
1575 17-03-2020 22:29:18 7 C 41 %
Sensor: Nr:Datum:Temp:Feuchte:
Aussen-T/F 1576 17-03-2020 22:39:17 6.9 C 41 %
1577 17-03-2020 22:49:17 6.7 C 42 %
1578 17-03-2020 22:59:17 6.5 C 42 %
1579 17-03-2020 23:09:17 6.4 C 42 %
1580 17-03-2020 23:19:17 6.3 C 42 %
1581 17-03-2020 23:29:17 6.1 C 42 %
1582 17-03-2020 23:39:18 6.1 C 42 %
1583 17-03-2020 23:49:18 6.2 C 43 %
1584 17-03-2020 23:59:18 6.3 C 43 %
1585 18-03-2020 00:09:17 5.9 C 43 %
1586 18-03-2020 00:19:17 5.8 C 44 %
1587 18-03-2020 00:29:17 5.9 C 44 %
1588 18-03-2020 00:39:17 5.8 C 44 %
1589 18-03-2020 00:49:17 6 C 44 %
1590 18-03-2020 00:59:17 6 C 43 %
1591 18-03-2020 01:09:17 5.7 C 44 %
1592 18-03-2020 01:19:17 5.6 C 44 %
1593 18-03-2020 01:29:17 5.3 C 44 %
1594 18-03-2020 01:39:17 5.6 C 45 %
1595 18-03-2020 01:49:17 5.3 C 45 %
1596 18-03-2020 01:59:17 5.6 C 46 %
1597 18-03-2020 02:09:17 5.1 C 44 %
1598 18-03-2020 02:19:17 4.8 C 45 %
1599 18-03-2020 02:29:17 4.8 C 45 %
1600 18-03-2020 02:39:17 4.6 C 46 %
Sensor: Nr:Datum:Temp:Feuchte:
Aussen-T/F 1601 18-03-2020 02:49:18 4.3 C 46 %
1602 18-03-2020 02:59:18 4.3 C 46 %
1603 18-03-2020 03:09:18 4.2 C 46 %
1604 18-03-2020 03:19:17 4.2 C 46 %
1605 18-03-2020 03:29:17 4.1 C 46 %
1606 18-03-2020 03:39:17 4 C 46 %
1607 18-03-2020 03:49:17 3.8 C 47 %
1608 18-03-2020 03:59:17 3.8 C 47 %
1609 18-03-2020 04:09:17 3.8 C 47 %
1610 18-03-2020 04:19:18 3.8 C 47 %
1611 18-03-2020 04:29:18 3.7 C 47 %
1612 18-03-2020 04:39:18 3.7 C 47 %
1613 18-03-2020 04:49:18 3.6 C 47 %
1614 18-03-2020 04:59:18 3.6 C 47 %
1615 18-03-2020 05:09:18 3.7 C 48 %
1616 18-03-2020 05:19:18 3.8 C 48 %
1617 18-03-2020 05:29:18 3.3 C 47 %
1618 18-03-2020 05:39:18 3.2 C 47 %
1619 18-03-2020 05:49:18 3.3 C 47 %
1620 18-03-2020 05:59:18 3.1 C 47 %
1621 18-03-2020 06:09:18 2.9 C 48 %
1622 18-03-2020 06:19:17 3.3 C 47 %
1623 18-03-2020 06:29:18 3.1 C 47 %
1624 18-03-2020 06:39:18 3.1 C 47 %
1625 18-03-2020 06:49:17 3.1 C 47 %
Sensor: Nr:Datum:Temp:Feuchte:
Aussen-T/F 1626 18-03-2020 06:59:18 3.6 C 47 %
1627 18-03-2020 07:09:18 3.5 C 47 %
1628 18-03-2020 07:19:17 3.4 C 47 %
1629 18-03-2020 07:29:17 3.7 C 47 %
1630 18-03-2020 07:39:17 3.9 C 47 %
1631 18-03-2020 07:49:18 4 C 46 %
1632 18-03-2020 07:59:18 4.9 C 46 %
1633 18-03-2020 08:09:18 4.6 C 46 %
1634 18-03-2020 08:19:18 4.5 C 46 %
1635 18-03-2020 08:29:18 4.7 C 46 %
1636 18-03-2020 08:39:17 5 C 45 %
1637 18-03-2020 08:49:18 5.3 C 46 %
1638 18-03-2020 08:59:18 5.6 C 46 %
1639 18-03-2020 09:09:17 6.7 C 45 %
1640 18-03-2020 09:19:17 7.1 C 45 %
1641 18-03-2020 09:29:17 8.5 C 45 %
1642 18-03-2020 09:39:17 9.7 C 41 %
1643 18-03-2020 09:49:18 10.5 C 40 %
1644 18-03-2020 09:59:18 11 C 38 %
1645 18-03-2020 10:09:18 11.1 C 38 %
1646 18-03-2020 10:19:18 11.6 C 38 %
1647 18-03-2020 10:29:18 11.6 C 37 %
1648 18-03-2020 10:39:18 11.7 C 38 %
1649 18-03-2020 10:49:18 12 C 36 %
1650 18-03-2020 10:59:18 12.2 C 35 %
Sensor: Nr:Datum:Temp:Feuchte:
Aussen-T/F 1651 18-03-2020 11:09:18 12.7 C 35 %
1652 18-03-2020 11:19:18 12.8 C 34 %
1653 18-03-2020 11:29:18 13.3 C 34 %
1654 18-03-2020 11:39:18 13.9 C 33 %
1655 18-03-2020 11:49:17 14.7 C 32 %
1656 18-03-2020 11:59:17 15.3 C 30 %
1657 18-03-2020 12:09:18 15.8 C 30 %
1658 18-03-2020 12:19:17 16.6 C 29 %
1659 18-03-2020 12:29:18 17 C 27 %
1660 18-03-2020 12:39:18 17.8 C 26 %
1661 18-03-2020 12:49:17 19.1 C 25 %
1662 18-03-2020 12:59:17 19.8 C 20 %
1663 18-03-2020 13:09:17 21 C 20 %
1664 18-03-2020 13:19:17 21.2 C 20 %
1665 18-03-2020 13:29:17 19.5 C 20 %
1666 18-03-2020 13:39:18 17.7 C 20 %
1667 18-03-2020 13:49:17 16.6 C 22 %
1668 18-03-2020 13:59:17 16 C 22 %
1669 18-03-2020 14:09:17 17.6 C 21 %
1670 18-03-2020 14:19:17 16.7 C 20 %
1671 18-03-2020 14:29:17 17.9 C 20 %
1672 18-03-2020 14:39:18 18.5 C 20 %
1673 18-03-2020 14:49:17 17.4 C 20 %
1674 18-03-2020 14:59:17 17.4 C 20 %
1675 18-03-2020 15:09:17 20.6 C 20 %
Sensor: Nr:Datum:Temp:Feuchte:
Aussen-T/F 1676 18-03-2020 15:19:18 17.9 C 20 %
1677 18-03-2020 15:29:18 18.2 C 20 %
1678 18-03-2020 15:39:18 17.7 C 20 %
1679 18-03-2020 15:49:17 16.9 C 20 %
1680 18-03-2020 15:59:17 16.7 C 21 %
1681 18-03-2020 16:09:17 16.4 C 21 %
1682 18-03-2020 16:19:17 16.4 C 22 %
1683 18-03-2020 16:29:17 16.4 C 20 %
1684 18-03-2020 16:39:17 16.5 C 20 %
1685 18-03-2020 16:49:18 16.2 C 21 %
1686 18-03-2020 16:59:18 16.1 C 21 %
1687 18-03-2020 17:09:17 16 C 21 %
1688 18-03-2020 17:19:17 16 C 21 %
1689 18-03-2020 17:29:17 15.7 C 22 %
1690 18-03-2020 17:39:18 16 C 20 %
1691 18-03-2020 17:49:17 16.3 C 20 %
1692 18-03-2020 17:59:17 15.8 C 22 %
1693 18-03-2020 18:09:17 15.4 C 22 %
1694 18-03-2020 18:19:17 14.7 C 26 %
1695 18-03-2020 18:29:17 13.7 C 26 %
1696 18-03-2020 18:39:17 13.3 C 28 %
1697 18-03-2020 18:49:17 12.7 C 30 %
1698 18-03-2020 18:59:17 12 C 31 %
1699 18-03-2020 19:09:17 11.7 C 32 %
1700 18-03-2020 19:19:18 11.5 C 32 %
Sensor: Nr:Datum:Temp:Feuchte:
Aussen-T/F 1701 18-03-2020 19:29:18 10.5 C 34 %
1702 18-03-2020 19:39:18 10.9 C 34 %
1703 18-03-2020 19:49:18 11.1 C 34 %
1704 18-03-2020 19:59:18 10.9 C 35 %
1705 18-03-2020 20:09:18 10.6 C 35 %
1706 18-03-2020 20:19:17 10.4 C 35 %
1707 18-03-2020 20:29:17 10.4 C 35 %
1708 18-03-2020 20:39:18 10 C 36 %
1709 18-03-2020 20:49:17 9.7 C 37 %
1710 18-03-2020 20:59:17 9.7 C 37 %
1711 18-03-2020 21:09:18 9.7 C 37 %
1712 18-03-2020 21:19:17 9.6 C 37 %
1713 18-03-2020 21:29:17 9.4 C 37 %
1714 18-03-2020 21:39:17 9 C 37 %
1715 18-03-2020 21:49:17 8.7 C 38 %
1716 18-03-2020 21:59:17 8.4 C 39 %
1717 18-03-2020 22:09:17 8.2 C 39 %
1718 18-03-2020 22:19:17 8.1 C 40 %
1719 18-03-2020 22:29:17 8 C 40 %
1720 18-03-2020 22:39:17 8 C 40 %
1721 18-03-2020 22:49:17 8.1 C 40 %
1722 18-03-2020 22:59:17 8.2 C 40 %
1723 18-03-2020 23:09:18 8.3 C 40 %
1724 18-03-2020 23:19:17 8.1 C 40 %
1725 18-03-2020 23:29:17 8 C 40 %
Sensor: Nr:Datum:Temp:Feuchte:
Aussen-T/F 1726 18-03-2020 23:39:18 8 C 40 %
1727 18-03-2020 23:49:18 8.4 C 40 %
1728 18-03-2020 23:59:18 8.9 C 40 %
1729 19-03-2020 00:09:17 8.9 C 39 %
1730 19-03-2020 00:19:18 8.9 C 38 %
1731 19-03-2020 00:29:18 9 C 38 %
1732 19-03-2020 00:39:18 9 C 38 %
1733 19-03-2020 00:49:17 9.1 C 38 %
1734 19-03-2020 00:59:17 9.1 C 38 %
1735 19-03-2020 01:09:18 9 C 38 %
1736 19-03-2020 01:19:17 9.1 C 38 %
1737 19-03-2020 01:29:17 9 C 38 %
1738 19-03-2020 01:39:17 9 C 38 %
1739 19-03-2020 01:49:17 8.9 C 38 %
1740 19-03-2020 01:59:17 8.8 C 39 %
1741 19-03-2020 02:09:18 8.7 C 39 %
1742 19-03-2020 02:19:17 8.7 C 39 %
1743 19-03-2020 02:29:17 8.6 C 39 %
1744 19-03-2020 02:39:17 8.5 C 39 %
1745 19-03-2020 02:49:18 8.5 C 39 %
1746 19-03-2020 02:59:18 8.5 C 39 %
1747 19-03-2020 03:09:18 8.5 C 39 %
1748 19-03-2020 03:19:18 8.6 C 39 %
1749 19-03-2020 03:29:18 8.5 C 39 %
1750 19-03-2020 03:39:17 8.5 C 39 %
Sensor: Nr:Datum:Temp:Feuchte:
Aussen-T/F 1751 19-03-2020 03:49:18 8.4 C 39 %
1752 19-03-2020 03:59:18 8.4 C 40 %
1753 19-03-2020 04:09:18 8.4 C 40 %
1754 19-03-2020 04:19:17 8.5 C 40 %
1755 19-03-2020 04:29:17 8.5 C 39 %
1756 19-03-2020 04:39:17 8.5 C 39 %
1757 19-03-2020 04:49:18 8.5 C 39 %
1758 19-03-2020 04:59:18 8.5 C 39 %
1759 19-03-2020 05:09:18 8.6 C 39 %
1760 19-03-2020 05:19:18 8.9 C 38 %
1761 19-03-2020 05:29:18 8.7 C 39 %
1762 19-03-2020 05:39:18 8.6 C 39 %
1763 19-03-2020 05:49:17 8.5 C 39 %
1764 19-03-2020 05:59:18 8.4 C 39 %
1765 19-03-2020 06:09:18 8.4 C 39 %
1766 19-03-2020 06:19:17 8.3 C 40 %
1767 19-03-2020 06:29:17 8.2 C 39 %
1768 19-03-2020 06:39:17 8.1 C 40 %
1769 19-03-2020 06:49:17 8.1 C 40 %
1770 19-03-2020 06:59:17 8.2 C 40 %
1771 19-03-2020 07:09:17 8.2 C 40 %
1772 19-03-2020 07:19:17 8.5 C 40 %
1773 19-03-2020 07:29:17 8.7 C 39 %
1774 19-03-2020 07:39:18 8.9 C 39 %
1775 19-03-2020 07:49:18 9.1 C 38 %
Sensor: Nr:Datum:Temp:Feuchte:
Aussen-T/F 1776 19-03-2020 07:59:18 9.4 C 38 %
1777 19-03-2020 08:09:18 9.7 C 38 %
1778 19-03-2020 08:19:17 9.9 C 37 %
1779 19-03-2020 08:29:17 9.9 C 37 %
1780 19-03-2020 08:39:17 10.5 C 36 %
1781 19-03-2020 08:49:18 10.4 C 36 %
1782 19-03-2020 08:59:18 10.2 C 36 %
1783 19-03-2020 09:09:17 11.2 C 35 %
1784 19-03-2020 09:19:17 11.7 C 35 %
1785 19-03-2020 09:29:17 11.5 C 35 %
1786 19-03-2020 09:39:18 11.8 C 35 %
1787 19-03-2020 09:49:17 11.6 C 35 %
1788 19-03-2020 09:59:17 12.4 C 33 %
1789 19-03-2020 10:09:18 12.3 C 32 %
1790 19-03-2020 10:19:18 13.1 C 31 %
1791 19-03-2020 10:29:18 13.5 C 30 %
1792 19-03-2020 10:39:17 13.9 C 31 %
1793 19-03-2020 10:49:17 14.2 C 30 %
1794 19-03-2020 10:59:17 15.4 C 29 %
1795 19-03-2020 11:09:17 15.5 C 29 %
1796 19-03-2020 11:19:17 16.4 C 26 %
1797 19-03-2020 11:29:17 17.7 C 26 %
1798 19-03-2020 11:39:17 18.5 C 24 %
1799 19-03-2020 11:49:17 15.8 C 26 %
1800 19-03-2020 11:59:17 15 C 28 %
Sensor: Nr:Datum:Temp:Feuchte:
Aussen-T/F 1801 19-03-2020 12:09:17 15.2 C 28 %
1802 19-03-2020 12:19:17 15.5 C 28 %
1803 19-03-2020 12:29:17 16.8 C 26 %
1804 19-03-2020 12:39:18 18.1 C 22 %
1805 19-03-2020 12:49:17 18.6 C 20 %
1806 19-03-2020 12:59:17 17.9 C 20 %
1807 19-03-2020 13:09:18 20.4 C 20 %
1808 19-03-2020 13:19:18 25.8 C 20 %
1809 19-03-2020 13:29:18 25.6 C 20 %
1810 19-03-2020 13:39:18 19.7 C 20 %
1811 19-03-2020 13:49:17 18.8 C 20 %
1812 19-03-2020 13:59:17 18.2 C 20 %
1813 19-03-2020 14:09:17 18.7 C 20 %
1814 19-03-2020 14:19:17 18.9 C 20 %
1815 19-03-2020 14:29:17 18.8 C 20 %
1816 19-03-2020 14:39:17 18.9 C 20 %
1817 19-03-2020 14:49:17 19.3 C 20 %
1818 19-03-2020 14:59:17 19.1 C 20 %
1819 19-03-2020 15:09:18 18.5 C 20 %
1820 19-03-2020 15:19:18 19.1 C 20 %
1821 19-03-2020 15:29:18 19.3 C 20 %
1822 19-03-2020 15:39:18 19.8 C 20 %
1823 19-03-2020 15:49:17 21.8 C 20 %
1824 19-03-2020 15:59:18 19.5 C 20 %
1825 19-03-2020 16:09:18 19.1 C 20 %
Sensor: Nr:Datum:Temp:Feuchte:
Aussen-T/F 1826 19-03-2020 16:20:17 19.1 C 20 %
1827 19-03-2020 16:29:17 19.1 C 20 %
1828 19-03-2020 16:39:17 19.1 C 20 %
1829 19-03-2020 16:49:17 19.1 C 20 %
1830 19-03-2020 16:59:17 18.4 C 20 %
1831 19-03-2020 17:09:18 17.6 C 20 %
1832 19-03-2020 17:19:18 17.3 C 20 %
1833 19-03-2020 17:29:18 17 C 20 %
1834 19-03-2020 17:39:18 16.8 C 20 %
1835 19-03-2020 17:49:18 16.9 C 20 %
1836 19-03-2020 17:59:18 16.7 C 20 %
1837 19-03-2020 18:09:18 16.3 C 20 %
1838 19-03-2020 18:20:17 15.7 C 23 %
1839 19-03-2020 18:30:17 13.9 C 29 %
1840 19-03-2020 18:40:17 13.5 C 30 %
1841 19-03-2020 18:50:17 12.8 C 31 %
1842 19-03-2020 18:59:18 12.7 C 31 %
1843 19-03-2020 19:09:18 12.3 C 31 %
1844 19-03-2020 19:20:17 12.2 C 31 %
1845 19-03-2020 19:30:17 11.9 C 32 %
1846 19-03-2020 19:40:17 11.7 C 32 %
1847 19-03-2020 19:50:17 11.7 C 33 %
1848 19-03-2020 19:59:17 11.7 C 33 %
1849 19-03-2020 20:09:17 11.7 C 33 %
1850 19-03-2020 20:29:17 11.5 C 34 %
Sensor: Nr:Datum:Temp:Feuchte:
Aussen-T/F 1851 19-03-2020 20:29:17 11.6 C 34 %
1852 19-03-2020 20:39:17 12 C 33 %
1853 19-03-2020 20:49:17 11.8 C 34 %
1854 19-03-2020 20:59:17 11.5 C 35 %
1855 19-03-2020 21:09:18 12 C 33 %
1856 19-03-2020 21:20:17 11.4 C 35 %
1857 19-03-2020 21:30:17 11.3 C 35 %
1858 19-03-2020 21:40:17 10.3 C 36 %
1859 19-03-2020 21:50:17 10.7 C 36 %
1860 19-03-2020 21:59:18 10.6 C 36 %
1861 19-03-2020 22:09:18 10.1 C 37 %
1862 19-03-2020 22:19:18 9.7 C 38 %
1863 19-03-2020 22:29:18 9.8 C 38 %
1864 19-03-2020 22:39:18 9.5 C 39 %
1865 19-03-2020 22:49:18 9.4 C 39 %
1866 19-03-2020 22:59:18 9.5 C 38 %
1867 19-03-2020 23:09:18 9.5 C 38 %
1868 19-03-2020 23:20:17 9.4 C 39 %
1869 19-03-2020 23:30:17 9.2 C 39 %
1870 19-03-2020 23:40:17 9.6 C 38 %
1871 19-03-2020 23:50:17 9.1 C 39 %
1872 19-03-2020 23:59:18 8.7 C 40 %
1873 20-03-2020 00:09:18 8.6 C 40 %
1874 20-03-2020 00:19:18 9.3 C 39 %
1875 20-03-2020 00:29:18 9.1 C 39 %
Sensor: Nr:Datum:Temp:Feuchte:
Aussen-T/F 1876 20-03-2020 00:39:18 9 C 39 %
1877 20-03-2020 00:59:17 8.8 C 40 %
1878 20-03-2020 01:00:18 8.8 C 40 %
1879 20-03-2020 01:10:18 8.7 C 40 %
1880 20-03-2020 01:20:17 8.7 C 40 %
1881 20-03-2020 01:30:18 8.6 C 40 %
1882 20-03-2020 01:40:18 8.4 C 40 %
1883 20-03-2020 01:50:17 8.5 C 40 %
1884 20-03-2020 02:00:18 8.3 C 40 %
1885 20-03-2020 02:10:18 7.9 C 40 %
1886 20-03-2020 02:20:17 7.6 C 41 %
1887 20-03-2020 02:30:17 7.4 C 41 %
1888 20-03-2020 02:40:17 7.4 C 41 %
1889 20-03-2020 02:50:17 7.1 C 41 %
1890 20-03-2020 03:00:17 7.1 C 42 %
1891 20-03-2020 03:10:17 7.1 C 42 %
1892 20-03-2020 03:20:17 7.1 C 42 %
1893 20-03-2020 03:30:18 7.2 C 42 %
1894 20-03-2020 03:40:18 7.3 C 42 %
1895 20-03-2020 03:50:17 7.5 C 42 %
1896 20-03-2020 04:00:18 7.5 C 42 %
1897 20-03-2020 04:10:18 7.7 C 42 %
1898 20-03-2020 04:20:18 7.6 C 41 %
1899 20-03-2020 04:30:18 7.4 C 42 %
1900 20-03-2020 04:40:18 7.2 C 42 %
Sensor: Nr:Datum:Temp:Feuchte:
Aussen-T/F 1901 20-03-2020 04:50:17 7 C 42 %
1902 20-03-2020 05:00:18 6.9 C 43 %
1903 20-03-2020 05:10:18 6.8 C 43 %
1904 20-03-2020 05:20:17 6.5 C 43 %
1905 20-03-2020 05:30:17 6.2 C 43 %
1906 20-03-2020 05:40:17 5.9 C 44 %
1907 20-03-2020 05:50:17 5.6 C 44 %
1908 20-03-2020 06:00:17 5.4 C 45 %
1909 20-03-2020 06:10:17 5.2 C 45 %
1910 20-03-2020 06:20:17 5 C 45 %
1911 20-03-2020 06:30:17 5.1 C 46 %
1912 20-03-2020 06:40:17 5 C 46 %
1913 20-03-2020 06:50:17 5 C 46 %
1914 20-03-2020 07:00:17 5.1 C 46 %
1915 20-03-2020 07:10:17 5.3 C 46 %
1916 20-03-2020 07:20:17 5.5 C 46 %
1917 20-03-2020 07:30:17 5.6 C 46 %
1918 20-03-2020 07:40:17 5.7 C 46 %
1919 20-03-2020 07:50:18 5.8 C 46 %
1920 20-03-2020 08:00:17 6.3 C 46 %
1921 20-03-2020 08:10:17 6.9 C 45 %
1922 20-03-2020 08:20:17 7.2 C 43 %
1923 20-03-2020 08:30:17 7.1 C 43 %
1924 20-03-2020 08:40:17 7.1 C 43 %
1925 20-03-2020 08:50:17 7.3 C 43 %
Sensor: Nr:Datum:Temp:Feuchte:
Aussen-T/F 1926 20-03-2020 09:00:17 8 C 43 %
1927 20-03-2020 09:10:17 8.2 C 42 %
1928 20-03-2020 09:20:17 9.6 C 42 %
1929 20-03-2020 09:30:17 10 C 40 %
1930 20-03-2020 09:40:17 10.2 C 40 %
1931 20-03-2020 09:50:17 10.5 C 39 %
1932 20-03-2020 10:00:18 10.8 C 39 %
1933 20-03-2020 10:10:18 11.2 C 38 %
1934 20-03-2020 10:20:18 11.1 C 37 %
1935 20-03-2020 10:30:18 11 C 37 %
1936 20-03-2020 10:40:18 11.5 C 37 %
1937 20-03-2020 10:50:18 12.6 C 36 %
1938 20-03-2020 11:00:17 13.1 C 35 %
1939 20-03-2020 11:10:18 13.1 C 35 %
1940 20-03-2020 11:20:18 14.2 C 33 %
1941 20-03-2020 11:30:18 14.5 C 32 %
1942 20-03-2020 11:40:18 15.3 C 31 %
1943 20-03-2020 11:50:18 14.6 C 32 %
1944 20-03-2020 12:00:17 15.6 C 31 %
1945 20-03-2020 12:10:17 15.4 C 30 %
1946 20-03-2020 12:20:17 15.6 C 30 %
1947 20-03-2020 12:30:18 14.4 C 31 %
1948 20-03-2020 12:40:18 14.9 C 31 %
1949 20-03-2020 12:50:18 14.9 C 31 %
1950 20-03-2020 13:00:18 14.9 C 31 %
Sensor: Nr:Datum:Temp:Feuchte:
Aussen-T/F 1951 20-03-2020 13:10:18 14.9 C 31 %
1952 20-03-2020 13:20:18 14.9 C 31 %
1953 20-03-2020 13:30:18 14.9 C 31 %
1954 20-03-2020 13:40:18 14.9 C 31 %
1955 20-03-2020 13:50:17 16.4 C 26 %
1956 20-03-2020 14:00:17 16.2 C 27 %
1957 20-03-2020 14:10:17 16.6 C 26 %
1958 20-03-2020 14:20:17 16.2 C 27 %
1959 20-03-2020 14:30:18 17.4 C 26 %
1960 20-03-2020 14:40:18 17.3 C 26 %
1961 20-03-2020 14:50:18 17.9 C 25 %
1962 20-03-2020 15:00:17 17.9 C 25 %
1963 20-03-2020 15:10:17 18.1 C 25 %
1964 20-03-2020 15:20:17 17 C 25 %
1965 20-03-2020 15:30:18 17.9 C 25 %
1966 20-03-2020 15:40:18 18.5 C 25 %
1967 20-03-2020 15:50:18 17 C 25 %
1968 20-03-2020 16:00:17 16.2 C 26 %
1969 20-03-2020 16:10:17 16.1 C 26 %
1970 20-03-2020 16:20:17 15.5 C 26 %
1971 20-03-2020 16:30:18 15.8 C 26 %
1972 20-03-2020 16:40:18 15.3 C 26 %
1973 20-03-2020 16:50:18 17 C 25 %
1974 20-03-2020 17:00:18 16.1 C 26 %
1975 20-03-2020 17:10:18 15.2 C 27 %
Sensor: Nr:Datum:Temp:Feuchte:
Aussen-T/F 1976 20-03-2020 17:20:18 14.3 C 28 %
1977 20-03-2020 17:30:18 13.9 C 30 %
1978 20-03-2020 17:40:18 12.8 C 31 %
1979 20-03-2020 17:50:17 12.5 C 31 %
1980 20-03-2020 18:00:17 12.4 C 32 %
1981 20-03-2020 18:10:17 11.9 C 33 %
1982 20-03-2020 18:20:17 11.8 C 34 %
1983 20-03-2020 18:30:17 11.6 C 34 %
1984 20-03-2020 18:40:17 11.6 C 34 %
1985 20-03-2020 18:50:18 11.5 C 34 %
1986 20-03-2020 19:00:17 11.5 C 34 %
1987 20-03-2020 19:10:17 11.3 C 34 %
1988 20-03-2020 19:20:17 11.1 C 34 %
1989 20-03-2020 19:30:17 11 C 35 %
1990 20-03-2020 19:40:17 10.7 C 35 %
1991 20-03-2020 19:50:17 10.6 C 35 %
1992 20-03-2020 20:00:17 10.4 C 35 %
1993 20-03-2020 20:10:17 10.2 C 35 %
1994 20-03-2020 20:20:17 10.3 C 35 %
1995 20-03-2020 20:30:17 10.3 C 35 %
1996 20-03-2020 20:40:17 10.2 C 35 %
1997 20-03-2020 20:50:18 10.3 C 35 %
1998 20-03-2020 21:00:18 10.1 C 35 %
1999 20-03-2020 21:10:18 9.9 C 35 %
2000 20-03-2020 21:20:17 9.5 C 35 %
Sensor: Nr:Datum:Temp:Feuchte:
Aussen-T/F 2001 20-03-2020 21:30:17 9.2 C 35 %
2002 20-03-2020 21:40:17 9.1 C 35 %
2003 20-03-2020 21:50:17 8.7 C 36 %
2004 20-03-2020 22:00:17 8.5 C 36 %
2005 20-03-2020 22:10:17 8.4 C 36 %
2006 20-03-2020 22:20:18 8.3 C 36 %
2007 20-03-2020 22:30:17 8.2 C 36 %
2008 20-03-2020 22:40:18 8.1 C 36 %
2009 20-03-2020 22:50:17 8.1 C 36 %
2010 20-03-2020 23:00:18 8 C 35 %
2011 20-03-2020 23:10:18 7.9 C 36 %
2012 20-03-2020 23:20:17 7.9 C 36 %
2013 20-03-2020 23:30:18 7.9 C 35 %
2014 20-03-2020 23:40:18 7.8 C 35 %
2015 20-03-2020 23:50:18 7.7 C 35 %
2016 21-03-2020 00:00:17 7.6 C 34 %
2017 21-03-2020 00:10:17 7.6 C 34 %
2018 21-03-2020 00:20:17 7.4 C 34 %
2019 21-03-2020 00:30:17 7.3 C 34 %
2020 21-03-2020 00:40:17 7.3 C 34 %
2021 21-03-2020 00:50:17 7.3 C 34 %
2022 21-03-2020 01:00:17 7.2 C 33 %
2023 21-03-2020 01:10:17 7.1 C 33 %
2024 21-03-2020 01:20:17 6.8 C 35 %
2025 21-03-2020 01:30:18 6.5 C 35 %
Sensor: Nr:Datum:Temp:Feuchte:
Aussen-T/F 2026 21-03-2020 01:40:18 6.2 C 36 %
2027 21-03-2020 01:50:17 5.9 C 38 %
2028 21-03-2020 02:00:18 5.6 C 39 %
2029 21-03-2020 02:10:18 5.3 C 40 %
2030 21-03-2020 02:20:17 5.1 C 41 %
2031 21-03-2020 02:30:18 4.9 C 43 %
2032 21-03-2020 02:40:18 4.9 C 43 %
2033 21-03-2020 02:50:18 4.6 C 43 %
2034 21-03-2020 03:00:17 4.5 C 43 %
2035 21-03-2020 03:10:17 4.4 C 44 %
2036 21-03-2020 03:20:17 4.5 C 45 %
2037 21-03-2020 03:30:18 4.5 C 45 %
2038 21-03-2020 03:40:18 4.4 C 45 %
2039 21-03-2020 03:50:17 4.4 C 45 %
2040 21-03-2020 04:00:18 4.3 C 45 %
2041 21-03-2020 04:10:18 4.2 C 45 %
2042 21-03-2020 04:20:17 4.1 C 45 %
2043 21-03-2020 04:30:18 4.1 C 45 %
2044 21-03-2020 04:40:18 4 C 45 %
2045 21-03-2020 04:50:18 3.9 C 46 %
2046 21-03-2020 05:00:18 3.9 C 46 %
2047 21-03-2020 05:10:18 4 C 46 %
2048 21-03-2020 05:20:18 3.9 C 47 %
2049 21-03-2020 05:30:18 3.9 C 47 %
2050 21-03-2020 05:40:18 3.9 C 47 %
Sensor: Nr:Datum:Temp:Feuchte:
Aussen-T/F 2051 21-03-2020 05:50:17 4 C 46 %
2052 21-03-2020 06:00:18 4 C 47 %
2053 21-03-2020 06:10:18 3.9 C 47 %
2054 21-03-2020 06:20:17 4 C 47 %
2055 21-03-2020 06:30:18 4 C 47 %
2056 21-03-2020 06:40:18 4 C 47 %
2057 21-03-2020 06:50:17 4 C 47 %
2058 21-03-2020 07:00:17 4.1 C 47 %
2059 21-03-2020 07:10:18 4.1 C 47 %
2060 21-03-2020 07:20:18 4.1 C 47 %
2061 21-03-2020 07:30:18 4.2 C 47 %
2062 21-03-2020 07:40:18 4.3 C 47 %
2063 21-03-2020 07:50:17 4.3 C 47 %
2064 21-03-2020 08:00:18 4.4 C 47 %
2065 21-03-2020 08:10:18 4.5 C 47 %
2066 21-03-2020 08:20:17 4.5 C 46 %
2067 21-03-2020 08:30:17 4.6 C 46 %
2068 21-03-2020 08:40:17 4.7 C 46 %
2069 21-03-2020 08:50:18 4.8 C 46 %
2070 21-03-2020 09:00:18 4.7 C 46 %
2071 21-03-2020 09:10:18 4.6 C 45 %
2072 21-03-2020 09:20:18 5.2 C 43 %
2073 21-03-2020 09:30:18 5.6 C 42 %
2074 21-03-2020 09:40:18 5.8 C 41 %
2075 21-03-2020 09:50:17 6 C 41 %
Sensor: Nr:Datum:Temp:Feuchte:
Aussen-T/F 2076 21-03-2020 10:00:17 6.2 C 41 %
2077 21-03-2020 10:10:18 6.4 C 39 %
2078 21-03-2020 10:20:18 6.5 C 40 %
2079 21-03-2020 10:30:18 6.7 C 39 %
2080 21-03-2020 10:40:18 6.7 C 38 %
2081 21-03-2020 10:50:17 6.4 C 39 %
2082 21-03-2020 11:00:17 6.5 C 37 %
2083 21-03-2020 11:10:18 7.1 C 36 %
2084 21-03-2020 11:20:18 7.3 C 36 %
2085 21-03-2020 11:30:18 8.1 C 34 %
2086 21-03-2020 11:40:18 8 C 34 %
2087 21-03-2020 11:50:18 8.3 C 32 %
2088 21-03-2020 12:00:18 7.8 C 32 %
2089 21-03-2020 12:10:18 7.6 C 33 %
2090 21-03-2020 12:20:17 7.9 C 31 %
2091 21-03-2020 12:30:17 8.7 C 32 %
2092 21-03-2020 12:40:17 8.2 C 30 %
2093 21-03-2020 12:50:17 7.8 C 31 %
2094 21-03-2020 13:00:17 7.9 C 30 %
2095 21-03-2020 13:10:17 8.7 C 30 %
2096 21-03-2020 13:20:18 8.9 C 28 %
2097 21-03-2020 13:30:18 8.5 C 28 %
2098 21-03-2020 13:40:18 8.2 C 27 %
2099 21-03-2020 13:50:17 8.4 C 27 %
2100 21-03-2020 14:00:18 8.6 C 27 %
Sensor: Nr:Datum:Temp:Feuchte:
Aussen-T/F 2101 21-03-2020 14:10:18 9.1 C 26 %
2102 21-03-2020 14:20:18 8.7 C 27 %
2103 21-03-2020 14:30:18 9.1 C 25 %
2104 21-03-2020 14:40:18 11.1 C 24 %
2105 21-03-2020 14:50:17 9.8 C 23 %
2106 21-03-2020 15:00:18 11 C 20 %
2107 21-03-2020 15:10:18 10.1 C 20 %
2108 21-03-2020 15:20:17 11.2 C 20 %
2109 21-03-2020 15:30:17 11.7 C 20 %
2110 21-03-2020 15:40:17 9.4 C 20 %
2111 21-03-2020 15:50:17 8.6 C 20 %
2112 21-03-2020 16:00:18 9.4 C 20 %
2113 21-03-2020 16:10:18 9.5 C 20 %
2114 21-03-2020 16:20:17 12.1 C 20 %
2115 21-03-2020 16:30:17 12 C 20 %
2116 21-03-2020 16:40:17 13.3 C 20 %
2117 21-03-2020 16:50:17 10.9 C 20 %
2118 21-03-2020 17:00:17 9.2 C 20 %
2119 21-03-2020 17:10:17 8.9 C 20 %
2120 21-03-2020 17:20:17 8.3 C 20 %
2121 21-03-2020 17:30:18 7.8 C 20 %
2122 21-03-2020 17:40:18 7.8 C 20 %
2123 21-03-2020 17:50:17 7.5 C 20 %
2124 21-03-2020 18:00:17 7 C 20 %
2125 21-03-2020 18:10:17 6.9 C 20 %
Sensor: Nr:Datum:Temp:Feuchte:
Aussen-T/F 2126 21-03-2020 18:20:17 6.6 C 21 %
2127 21-03-2020 18:30:17 6.4 C 23 %
2128 21-03-2020 18:40:17 5.9 C 25 %
2129 21-03-2020 18:50:17 5.5 C 27 %
2130 21-03-2020 19:00:17 5.5 C 26 %
2131 21-03-2020 19:10:17 5.1 C 28 %
2132 21-03-2020 19:20:17 4.7 C 30 %
2133 21-03-2020 19:30:18 4.4 C 31 %
2134 21-03-2020 19:40:18 4.5 C 30 %
2135 21-03-2020 19:50:17 4.4 C 29 %
2136 21-03-2020 20:00:18 4.1 C 30 %
2137 21-03-2020 20:10:18 3.7 C 31 %
2138 21-03-2020 20:20:18 3.2 C 33 %
2139 21-03-2020 20:30:18 3.7 C 32 %
2140 21-03-2020 20:40:18 3.9 C 30 %
2141 21-03-2020 20:50:17 3.6 C 31 %
2142 21-03-2020 21:00:18 3.3 C 32 %
2143 21-03-2020 21:10:18 3 C 32 %
2144 21-03-2020 21:20:18 3.4 C 32 %
2145 21-03-2020 21:30:18 3.1 C 31 %
2146 21-03-2020 21:40:18 2.9 C 32 %
2147 21-03-2020 21:50:17 2.6 C 33 %
2148 21-03-2020 22:00:17 1.9 C 36 %
2149 21-03-2020 22:10:17 2.3 C 34 %
2150 21-03-2020 22:20:17 3 C 32 %
Sensor: Nr:Datum:Temp:Feuchte:
Aussen-T/F 2151 21-03-2020 22:30:18 2.7 C 32 %
2152 21-03-2020 22:40:18 2.3 C 33 %
2153 21-03-2020 22:50:18 2.7 C 32 %
2154 21-03-2020 23:00:18 2 C 34 %
2155 21-03-2020 23:10:18 2.2 C 33 %
2156 21-03-2020 23:20:18 1.6 C 35 %
2157 21-03-2020 23:30:18 1.7 C 35 %
2158 21-03-2020 23:40:18 1.8 C 35 %
2159 21-03-2020 23:50:17 1.7 C 35 %
2160 22-03-2020 00:00:18 1.4 C 35 %
2161 22-03-2020 00:10:18 1.5 C 35 %
2162 22-03-2020 00:20:17 0.9 C 37 %
2163 22-03-2020 00:30:17 0.7 C 38 %
2164 22-03-2020 00:40:17 1.2 C 36 %
2165 22-03-2020 00:50:17 0.9 C 37 %
2166 22-03-2020 01:00:18 1.5 C 35 %
2167 22-03-2020 01:10:18 1.5 C 35 %
2168 22-03-2020 01:20:18 1.1 C 35 %
2169 22-03-2020 01:30:18 1.1 C 35 %
2170 22-03-2020 01:40:18 0.9 C 36 %
2171 22-03-2020 01:50:18 1 C 35 %
2172 22-03-2020 02:00:18 1 C 35 %
2173 22-03-2020 02:10:18 0.1 C 38 %
2174 22-03-2020 02:20:17 0.3 C 38 %
2175 22-03-2020 02:30:18 0.5 C 37 %
Sensor: Nr:Datum:Temp:Feuchte:
Aussen-T/F 2176 22-03-2020 02:40:18 0.5 C 37 %
2177 22-03-2020 02:50:18 0.4 C 37 %
2178 22-03-2020 03:00:18 0.2 C 37 %
2179 22-03-2020 03:10:18 0.7 C 37 %
2180 22-03-2020 03:20:18 -0.4 C 38 %
2181 22-03-2020 03:30:18 -0.1 C 38 %
2182 22-03-2020 03:40:18 -0.4 C 39 %
2183 22-03-2020 03:50:17 -0.3 C 39 %
2184 22-03-2020 04:00:17 -0.2 C 38 %
2185 22-03-2020 04:10:17 0 C 37 %
2186 22-03-2020 04:20:17 -0.4 C 38 %
2187 22-03-2020 04:30:17 0.3 C 37 %
2188 22-03-2020 04:40:17 0.1 C 37 %
2189 22-03-2020 04:50:17 -0.2 C 38 %
2190 22-03-2020 05:00:18 0.1 C 37 %
2191 22-03-2020 05:10:18 -0.3 C 37 %
2192 22-03-2020 05:20:17 -0.4 C 37 %
2193 22-03-2020 05:30:18 -0.5 C 38 %
2194 22-03-2020 05:40:18 -0.7 C 38 %
2195 22-03-2020 05:50:17 -1 C 39 %
2196 22-03-2020 06:00:17 -1.1 C 39 %
2197 22-03-2020 06:10:17 -0.8 C 39 %
2198 22-03-2020 06:20:17 0.1 C 37 %
2199 22-03-2020 06:30:17 -0.3 C 37 %
2200 22-03-2020 06:40:17 -0.4 C 37 %
Sensor: Nr:Datum:Temp:Feuchte:
Aussen-T/F 2201 22-03-2020 06:50:18 0 C 36 %
2202 22-03-2020 07:00:18 -0.3 C 37 %
2203 22-03-2020 07:10:18 -0.2 C 37 %
2204 22-03-2020 07:20:18 -0.4 C 37 %
2205 22-03-2020 07:30:18 -0.1 C 36 %
2206 22-03-2020 07:40:18 -0.2 C 37 %
2207 22-03-2020 07:50:17 -0.1 C 36 %
2208 22-03-2020 08:00:18 -0.1 C 36 %
2209 22-03-2020 08:10:18 0.3 C 36 %
2210 22-03-2020 08:20:18 0.3 C 35 %
2211 22-03-2020 08:30:18 0.5 C 35 %
2212 22-03-2020 08:40:18 0.8 C 35 %
2213 22-03-2020 08:50:18 0.4 C 35 %
2214 22-03-2020 09:00:18 0.8 C 35 %
2215 22-03-2020 09:10:18 1.2 C 32 %
2216 22-03-2020 09:20:18 1.6 C 32 %
2217 22-03-2020 09:30:18 2.2 C 30 %
2218 22-03-2020 09:40:18 2.5 C 27 %
2219 22-03-2020 09:50:17 2.8 C 26 %
2220 22-03-2020 10:00:18 3.3 C 25 %
2221 22-03-2020 10:10:18 3.6 C 25 %
2222 22-03-2020 10:20:18 3.9 C 20 %
2223 22-03-2020 10:30:18 4.4 C 20 %
2224 22-03-2020 10:40:18 4.6 C 20 %
2225 22-03-2020 10:50:17 5.2 C 20 %
Sensor: Nr:Datum:Temp:Feuchte:
Aussen-T/F 2226 22-03-2020 11:00:18 5.5 C 20 %
2227 22-03-2020 11:10:18 6.3 C 20 %
2228 22-03-2020 11:20:17 6.5 C 20 %
2229 22-03-2020 11:30:18 6.7 C 20 %
2230 22-03-2020 11:40:18 6.7 C 20 %
2231 22-03-2020 11:50:17 6.5 C 20 %
2232 22-03-2020 12:00:18 7 C 20 %
2233 22-03-2020 12:10:18 7.4 C 20 %
2234 22-03-2020 12:20:18 7.3 C 20 %
2235 22-03-2020 12:30:17 6.9 C 20 %
2236 22-03-2020 12:40:17 8 C 20 %
2237 22-03-2020 12:50:18 8.5 C 20 %
2238 22-03-2020 13:00:18 10.1 C 20 %
2239 22-03-2020 13:10:18 11.1 C 20 %
2240 22-03-2020 13:20:17 11.9 C 20 %
2241 22-03-2020 13:30:18 11.6 C 20 %
2242 22-03-2020 13:40:18 10.9 C 20 %
2243 22-03-2020 13:50:18 10.3 C 20 %
2244 22-03-2020 14:00:17 9.6 C 20 %
2245 22-03-2020 14:10:17 10.2 C 20 %
2246 22-03-2020 14:20:17 12.2 C 20 %
2247 22-03-2020 14:30:17 12.6 C 20 %
2248 22-03-2020 14:40:17 14.4 C 20 %
2249 22-03-2020 14:50:17 14.4 C 20 %
2250 22-03-2020 15:00:18 15 C 20 %
Sensor: Nr:Datum:Temp:Feuchte:
Aussen-T/F 2251 22-03-2020 15:10:18 14.4 C 20 %
2252 22-03-2020 15:20:17 14.7 C 20 %
2253 22-03-2020 15:30:17 13.6 C 20 %
2254 22-03-2020 15:40:17 13.7 C 20 %
2255 22-03-2020 15:50:18 15.4 C 20 %
2256 22-03-2020 16:00:18 16.2 C 20 %
2257 22-03-2020 16:10:18 14.9 C 20 %
2258 22-03-2020 16:20:18 14.1 C 20 %
2259 22-03-2020 16:30:18 13.3 C 20 %
2260 22-03-2020 16:40:18 13.2 C 20 %
2261 22-03-2020 16:50:17 11.7 C 20 %
2262 22-03-2020 17:00:17 10.7 C 20 %
2263 22-03-2020 17:10:17 9.9 C 20 %
2264 22-03-2020 17:20:17 9.7 C 20 %
2265 22-03-2020 17:30:17 9.8 C 20 %
2266 22-03-2020 17:40:17 9.5 C 20 %
2267 22-03-2020 17:50:17 8.9 C 20 %
2268 22-03-2020 18:00:18 8.6 C 20 %
2269 22-03-2020 18:10:18 8.4 C 20 %
2270 22-03-2020 18:20:17 7.9 C 20 %
2271 22-03-2020 18:30:17 7.5 C 20 %
2272 22-03-2020 18:40:17 7 C 20 %
2273 22-03-2020 18:50:17 6.5 C 20 %
2274 22-03-2020 19:00:17 5.6 C 20 %
2275 22-03-2020 19:10:17 4.9 C 21 %
Sensor: Nr:Datum:Temp:Feuchte:
Aussen-T/F 2276 22-03-2020 19:20:17 5.2 C 20 %
2277 22-03-2020 19:30:17 4.3 C 26 %
2278 22-03-2020 19:40:17 3.8 C 27 %
2279 22-03-2020 19:50:18 3.7 C 28 %
2280 22-03-2020 20:00:18 3.6 C 28 %
2281 22-03-2020 20:10:18 3.6 C 27 %
2282 22-03-2020 20:20:17 3.6 C 26 %
2283 22-03-2020 20:30:17 3.2 C 26 %
2284 22-03-2020 20:40:17 3 C 26 %
2285 22-03-2020 20:50:17 2.5 C 30 %
2286 22-03-2020 21:00:17 2.9 C 26 %
2287 22-03-2020 21:10:17 2.7 C 27 %
2288 22-03-2020 21:20:17 2.3 C 30 %
2289 22-03-2020 21:30:17 2.2 C 29 %
2290 22-03-2020 21:40:17 1.8 C 30 %
2291 22-03-2020 21:50:18 1.5 C 31 %
2292 22-03-2020 22:00:18 2 C 30 %
2293 22-03-2020 22:10:18 2.5 C 26 %
2294 22-03-2020 22:20:17 1.8 C 30 %
2295 22-03-2020 22:30:17 1.5 C 29 %
2296 22-03-2020 22:40:17 1.3 C 31 %
2297 22-03-2020 22:50:17 1.4 C 30 %
2298 22-03-2020 23:00:17 0.7 C 33 %
2299 22-03-2020 23:10:17 1.1 C 30 %
2300 22-03-2020 23:20:17 0.8 C 32 %
Sensor: Nr:Datum:Temp:Feuchte:
Aussen-T/F 2301 22-03-2020 23:30:18 0.3 C 33 %
2302 22-03-2020 23:40:18 0.3 C 34 %
2303 22-03-2020 23:50:18 0.6 C 33 %
2304 23-03-2020 00:00:18 0.4 C 34 %
2305 23-03-2020 00:10:18 0 C 33 %
2306 23-03-2020 00:20:17 -0.2 C 33 %
2307 23-03-2020 00:30:17 -0.5 C 35 %
2308 23-03-2020 00:40:17 -0.7 C 36 %
2309 23-03-2020 00:50:18 -1.1 C 36 %
2310 23-03-2020 01:00:17 -0.6 C 35 %
2311 23-03-2020 01:10:17 -0.7 C 36 %
2312 23-03-2020 01:20:17 -0.9 C 35 %
2313 23-03-2020 01:30:18 -0.8 C 35 %
2314 23-03-2020 01:40:18 -1.1 C 35 %
2315 23-03-2020 01:50:18 -0.8 C 35 %
2316 23-03-2020 02:00:18 -1.1 C 35 %
2317 23-03-2020 02:10:18 -1.4 C 35 %
2318 23-03-2020 02:20:17 -1.2 C 35 %
2319 23-03-2020 02:30:17 -1.2 C 35 %
2320 23-03-2020 02:40:17 -1.2 C 35 %
2321 23-03-2020 02:50:17 -1.3 C 35 %
2322 23-03-2020 03:00:17 -1.6 C 35 %
2323 23-03-2020 03:10:18 -1.9 C 35 %
2324 23-03-2020 03:20:18 -1.6 C 35 %
2325 23-03-2020 03:30:18 -1.7 C 35 %
Sensor: Nr:Datum:Temp:Feuchte:
Aussen-T/F 2326 23-03-2020 03:40:18 -1.9 C 35 %
2327 23-03-2020 03:50:18 -1.8 C 35 %
2328 23-03-2020 04:00:18 -1.8 C 35 %
2329 23-03-2020 04:10:18 -2.1 C 35 %
2330 23-03-2020 04:20:17 -1.9 C 35 %
2331 23-03-2020 04:30:17 -2 C 35 %
2332 23-03-2020 04:40:17 -2.1 C 35 %
2333 23-03-2020 04:50:17 -2.7 C 36 %
2334 23-03-2020 05:00:18 -2.5 C 36 %
2335 23-03-2020 05:10:18 -2.4 C 36 %
2336 23-03-2020 05:20:17 -2.3 C 36 %
2337 23-03-2020 05:30:18 -2.4 C 35 %
2338 23-03-2020 05:40:18 -2.7 C 36 %
2339 23-03-2020 05:50:17 -2.7 C 36 %
2340 23-03-2020 06:00:18 -2.6 C 36 %
2341 23-03-2020 06:10:18 -2.9 C 36 %
2342 23-03-2020 06:20:17 -2.6 C 36 %
2343 23-03-2020 06:30:18 -2.8 C 36 %
2344 23-03-2020 06:40:18 -3.2 C 36 %
2345 23-03-2020 06:50:18 -3 C 36 %
2346 23-03-2020 07:00:18 -3 C 36 %
2347 23-03-2020 07:10:18 -3.1 C 36 %
2348 23-03-2020 07:20:18 -2.5 C 35 %
2349 23-03-2020 07:30:18 -2.7 C 36 %
2350 23-03-2020 07:40:18 -2.6 C 36 %
Sensor: Nr:Datum:Temp:Feuchte:
Aussen-T/F 2351 23-03-2020 07:50:18 -1.9 C 34 %
2352 23-03-2020 08:00:18 -2 C 35 %
2353 23-03-2020 08:10:18 -1.4 C 32 %
2354 23-03-2020 08:20:17 -1.1 C 31 %
2355 23-03-2020 08:30:18 -0.2 C 27 %
2356 23-03-2020 08:40:18 -0.2 C 26 %
2357 23-03-2020 08:50:18 -0.3 C 25 %
2358 23-03-2020 09:00:18 0 C 23 %
2359 23-03-2020 09:10:18 0.2 C 23 %
2360 23-03-2020 09:20:18 0.5 C 20 %
2361 23-03-2020 09:30:17 0.7 C 20 %
2362 23-03-2020 09:40:17 1.5 C 20 %
2363 23-03-2020 09:50:18 1.8 C 20 %
2364 23-03-2020 10:00:18 2.4 C 20 %
2365 23-03-2020 10:10:18 2.7 C 20 %
2366 23-03-2020 10:20:18 3 C 20 %
2367 23-03-2020 10:30:17 3.8 C 20 %
2368 23-03-2020 10:40:17 4.1 C 20 %
2369 23-03-2020 10:50:17 4.7 C 20 %
2370 23-03-2020 11:00:17 5.5 C 20 %
2371 23-03-2020 11:10:17 5.5 C 20 %
2372 23-03-2020 11:20:17 6 C 20 %
2373 23-03-2020 11:30:18 6.7 C 20 %
2374 23-03-2020 11:40:18 6.2 C 20 %
2375 23-03-2020 11:50:17 6.3 C 20 %
Sensor: Nr:Datum:Temp:Feuchte:
Aussen-T/F 2376 23-03-2020 12:00:18 7 C 20 %
2377 23-03-2020 12:10:18 7.4 C 20 %
2378 23-03-2020 12:20:18 7.8 C 20 %
2379 23-03-2020 12:30:18 7.5 C 20 %
2380 23-03-2020 12:40:18 8.1 C 20 %
2381 23-03-2020 12:50:18 8.7 C 20 %
2382 23-03-2020 13:00:17 10.4 C 20 %
2383 23-03-2020 13:10:17 10.7 C 20 %
2384 23-03-2020 13:20:17 11.9 C 20 %
2385 23-03-2020 13:30:17 11.4 C 20 %
2386 23-03-2020 13:40:17 10 C 20 %
2387 23-03-2020 13:50:17 9.8 C 20 %
2388 23-03-2020 14:00:18 9.2 C 20 %
2389 23-03-2020 14:10:18 10.5 C 20 %
2390 23-03-2020 14:20:18 12.9 C 20 %
2391 23-03-2020 14:30:18 13 C 20 %
2392 23-03-2020 14:40:18 14.2 C 20 %
2393 23-03-2020 14:50:18 14.3 C 20 %
2394 23-03-2020 15:00:18 14.3 C 20 %
2395 23-03-2020 15:10:18 14.4 C 20 %
2396 23-03-2020 15:20:17 14.7 C 20 %
2397 23-03-2020 15:30:17 13.5 C 20 %
2398 23-03-2020 15:40:17 14.4 C 20 %
2399 23-03-2020 15:50:17 14.1 C 20 %
2400 23-03-2020 16:00:17 13.8 C 20 %
Sensor: Nr:Datum:Temp:Feuchte:
Aussen-T/F 2401 23-03-2020 16:10:17 14.7 C 20 %
2402 23-03-2020 16:20:17 15.3 C 20 %
2403 23-03-2020 16:30:18 14.7 C 20 %
2404 23-03-2020 16:40:18 14.8 C 20 %
2405 23-03-2020 16:50:17 11.4 C 20 %
2406 23-03-2020 17:00:18 10.1 C 20 %
2407 23-03-2020 17:10:18 9.7 C 20 %
2408 23-03-2020 17:20:18 9.4 C 20 %
2409 23-03-2020 17:30:18 9 C 20 %
2410 23-03-2020 17:40:18 9 C 20 %
2411 23-03-2020 17:50:17 8.6 C 20 %
2412 23-03-2020 18:00:18 8.3 C 20 %
2413 23-03-2020 18:10:18 7.6 C 20 %
2414 23-03-2020 18:20:17 7.4 C 20 %
2415 23-03-2020 18:30:18 7 C 20 %
2416 23-03-2020 18:40:18 5.3 C 20 %
2417 23-03-2020 18:50:18 4.4 C 20 %
2418 23-03-2020 19:00:18 4.2 C 20 %
2419 23-03-2020 19:10:18 4.1 C 20 %
2420 23-03-2020 19:20:17 3.7 C 20 %
2421 23-03-2020 19:30:18 3.6 C 20 %
2422 23-03-2020 19:40:18 3.4 C 20 %
2423 23-03-2020 19:50:18 2.7 C 20 %
2424 23-03-2020 20:00:17 2.9 C 20 %
2425 23-03-2020 20:10:17 2.6 C 20 %
Sensor: Nr:Datum:Temp:Feuchte:
Aussen-T/F 2426 23-03-2020 20:20:17 2.5 C 20 %
2427 23-03-2020 20:30:18 2.3 C 20 %
2428 23-03-2020 20:40:18 2.4 C 20 %
2429 23-03-2020 20:50:18 2.3 C 20 %
2430 23-03-2020 21:00:18 2.1 C 20 %
2431 23-03-2020 21:10:18 0.9 C 27 %
2432 23-03-2020 21:20:17 1 C 26 %
2433 23-03-2020 21:30:18 1.1 C 28 %
2434 23-03-2020 21:40:18 0.7 C 29 %
2435 23-03-2020 21:50:18 0.2 C 30 %
2436 23-03-2020 22:00:17 -0.4 C 31 %
2437 23-03-2020 22:10:18 -0.9 C 35 %
2438 23-03-2020 22:20:18 -0.2 C 34 %
2439 23-03-2020 22:30:18 -0.9 C 35 %
2440 23-03-2020 22:40:18 -0.9 C 35 %
2441 23-03-2020 22:50:18 -1.3 C 35 %
2442 23-03-2020 23:00:18 -1.4 C 36 %
2443 23-03-2020 23:10:18 -1.6 C 36 %
2444 23-03-2020 23:20:17 -1.7 C 36 %
2445 23-03-2020 23:30:17 -1.7 C 37 %
2446 23-03-2020 23:40:17 -1.9 C 37 %
2447 23-03-2020 23:50:18 -1.8 C 37 %
2448 24-03-2020 00:00:18 -1.9 C 36 %
2449 24-03-2020 00:10:18 -2 C 36 %
2450 24-03-2020 00:20:17 -2.2 C 36 %
Sensor: Nr:Datum:Temp:Feuchte:
Aussen-T/F 2451 24-03-2020 00:30:18 -2.4 C 37 %
2452 24-03-2020 00:40:18 -2.4 C 38 %
2453 24-03-2020 00:50:18 -2.5 C 38 %
2454 24-03-2020 01:00:18 -2.3 C 37 %
2455 24-03-2020 01:10:18 -2.6 C 37 %
2456 24-03-2020 01:20:18 -2.7 C 38 %
2457 24-03-2020 01:30:18 -2.7 C 38 %
2458 24-03-2020 01:40:18 -3 C 38 %
2459 24-03-2020 01:50:18 -2.5 C 37 %
2460 24-03-2020 02:00:18 -2.6 C 38 %
2461 24-03-2020 02:10:18 -2.8 C 38 %
2462 24-03-2020 02:20:17 -3.1 C 38 %
2463 24-03-2020 02:30:17 -3.2 C 38 %
2464 24-03-2020 02:40:17 -3.3 C 38 %
2465 24-03-2020 02:50:17 -3.2 C 38 %
2466 24-03-2020 03:00:17 -3.4 C 38 %
2467 24-03-2020 03:10:17 -3.5 C 38 %
2468 24-03-2020 03:20:17 -3.6 C 39 %
2469 24-03-2020 03:30:17 -3.6 C 38 %
2470 24-03-2020 03:40:17 -3.7 C 38 %
2471 24-03-2020 03:50:17 -3.9 C 39 %
2472 24-03-2020 04:00:18 -3.7 C 39 %
2473 24-03-2020 04:10:18 -3.9 C 38 %
2474 24-03-2020 04:20:18 -4 C 38 %
2475 24-03-2020 04:30:18 -4 C 38 %
Sensor: Nr:Datum:Temp:Feuchte:
Aussen-T/F 2476 24-03-2020 04:40:18 -4 C 38 %
2477 24-03-2020 04:50:17 -3.9 C 38 %
2478 24-03-2020 05:00:17 -4.2 C 38 %
2479 24-03-2020 05:10:17 -4.3 C 39 %
2480 24-03-2020 05:20:17 -4.2 C 38 %
2481 24-03-2020 05:30:18 -4.3 C 38 %
2482 24-03-2020 05:40:18 -4.4 C 38 %
2483 24-03-2020 05:50:18 -4.6 C 39 %
2484 24-03-2020 06:00:17 -4.7 C 39 %
2485 24-03-2020 06:10:18 -4.7 C 38 %
2486 24-03-2020 06:20:17 -4.7 C 39 %
2487 24-03-2020 06:30:18 -4.7 C 38 %
2488 24-03-2020 06:40:18 -4.6 C 39 %
2489 24-03-2020 06:50:18 -4.4 C 38 %
2490 24-03-2020 07:00:18 -4.5 C 39 %
2491 24-03-2020 07:10:18 -4.4 C 39 %
2492 24-03-2020 07:20:18 -4.3 C 39 %
2493 24-03-2020 07:30:18 -4.2 C 39 %
2494 24-03-2020 07:40:18 -4 C 39 %
2495 24-03-2020 07:50:17 -3.8 C 39 %
2496 24-03-2020 08:00:17 -3.7 C 39 %
2497 24-03-2020 08:10:17 -3.5 C 38 %
2498 24-03-2020 08:20:17 -3.3 C 38 %
2499 24-03-2020 08:30:17 -2.5 C 38 %
2500 24-03-2020 08:40:17 -2.4 C 37 %
Sensor: Nr:Datum:Temp:Feuchte:
Aussen-T/F 2501 24-03-2020 08:50:17 -2 C 37 %
2502 24-03-2020 09:00:17 -1.6 C 36 %
2503 24-03-2020 09:10:17 -0.7 C 35 %
2504 24-03-2020 09:20:17 -0.2 C 34 %
2505 24-03-2020 09:30:17 0.4 C 30 %
2506 24-03-2020 09:40:17 1 C 27 %
2507 24-03-2020 09:50:18 1.7 C 23 %
2508 24-03-2020 10:00:18 3 C 20 %
2509 24-03-2020 10:10:18 3.3 C 20 %
2510 24-03-2020 10:20:17 3.9 C 20 %
2511 24-03-2020 10:30:17 4.3 C 20 %
2512 24-03-2020 10:40:17 4.7 C 20 %
2513 24-03-2020 10:50:17 5.7 C 20 %
2514 24-03-2020 11:00:18 5.7 C 20 %
2515 24-03-2020 11:10:18 6.4 C 20 %
2516 24-03-2020 11:20:17 6.9 C 20 %
2517 24-03-2020 11:30:17 7.9 C 20 %
2518 24-03-2020 11:40:17 7.2 C 20 %
2519 24-03-2020 11:50:18 6.8 C 20 %
2520 24-03-2020 12:00:18 7.8 C 20 %
2521 24-03-2020 12:10:18 8.6 C 20 %
2522 24-03-2020 12:20:17 8.2 C 20 %
2523 24-03-2020 12:30:17 8.2 C 20 %
2524 24-03-2020 12:40:17 9 C 20 %
2525 24-03-2020 12:50:17 9.2 C 20 %
Sensor: Nr:Datum:Temp:Feuchte:
Aussen-T/F 2526 24-03-2020 13:00:18 10.4 C 20 %
2527 24-03-2020 13:10:18 11.7 C 20 %
2528 24-03-2020 13:20:17 12.5 C 20 %
2529 24-03-2020 13:30:17 13 C 20 %
2530 24-03-2020 13:40:17 11.9 C 20 %
2531 24-03-2020 13:50:18 11 C 20 %
2532 24-03-2020 14:00:17 10.8 C 20 %
2533 24-03-2020 14:10:17 11.3 C 20 %
2534 24-03-2020 14:20:17 13.7 C 20 %
2535 24-03-2020 14:30:17 12.2 C 20 %
2536 24-03-2020 14:40:17 14.4 C 20 %
2537 24-03-2020 14:50:18 13.4 C 20 %
2538 24-03-2020 15:00:18 13.5 C 20 %
2539 24-03-2020 15:10:18 14.1 C 20 %
2540 24-03-2020 15:20:18 15.3 C 20 %
2541 24-03-2020 15:30:18 14.1 C 20 %
2542 24-03-2020 15:40:18 15.4 C 20 %
2543 24-03-2020 15:50:18 14.9 C 20 %
2544 24-03-2020 16:00:18 14.8 C 20 %
2545 24-03-2020 16:10:18 14.8 C 20 %
2546 24-03-2020 16:20:18 14.1 C 20 %
2547 24-03-2020 16:30:18 13.6 C 20 %
2548 24-03-2020 16:40:18 14.3 C 20 %
2549 24-03-2020 16:50:18 11.4 C 20 %
2550 24-03-2020 17:00:18 10.8 C 20 %
Sensor: Nr:Datum:Temp:Feuchte:
Aussen-T/F 2551 24-03-2020 17:10:18 10.4 C 20 %
2552 24-03-2020 17:20:18 10.1 C 20 %
2553 24-03-2020 17:30:18 9.9 C 20 %
2554 24-03-2020 17:40:18 9.6 C 20 %
2555 24-03-2020 17:50:17 9.3 C 20 %
2556 24-03-2020 18:00:17 9 C 20 %
2557 24-03-2020 18:10:17 8.6 C 20 %
2558 24-03-2020 18:20:17 8.4 C 20 %
2559 24-03-2020 18:30:17 7.6 C 20 %
2560 24-03-2020 18:40:18 6.4 C 20 %
2561 24-03-2020 18:50:17 5.4 C 20 %
2562 24-03-2020 19:00:18 4.9 C 20 %
2563 24-03-2020 19:10:18 4.6 C 20 %
2564 24-03-2020 19:20:18 4.5 C 20 %
2565 24-03-2020 19:30:18 4.1 C 20 %
2566 24-03-2020 19:40:18 3.9 C 20 %
2567 24-03-2020 19:50:17 3.6 C 20 %
2568 24-03-2020 20:00:18 3.6 C 20 %
2569 24-03-2020 20:10:18 3.5 C 20 %
2570 24-03-2020 20:20:17 3.4 C 20 %
2571 24-03-2020 20:30:18 3.4 C 20 %
2572 24-03-2020 20:40:18 2.9 C 20 %
2573 24-03-2020 20:50:18 2.7 C 20 %
2574 24-03-2020 21:00:18 2.7 C 20 %
2575 24-03-2020 21:10:18 2.6 C 20 %
Sensor: Nr:Datum:Temp:Feuchte:
Aussen-T/F 2576 24-03-2020 21:20:17 2.3 C 20 %
2577 24-03-2020 21:30:17 2.3 C 20 %
2578 24-03-2020 21:40:17 2.2 C 20 %
2579 24-03-2020 21:50:17 2.2 C 20 %
2580 24-03-2020 22:00:18 1.7 C 20 %
2581 24-03-2020 22:10:18 1.6 C 20 %
2582 24-03-2020 22:20:17 1.6 C 20 %
2583 24-03-2020 22:30:18 0.3 C 25 %
2584 24-03-2020 22:40:18 -0.2 C 30 %
2585 24-03-2020 22:50:17 -0.7 C 30 %
2586 24-03-2020 23:00:18 -1.2 C 32 %
2587 24-03-2020 23:10:18 -1.1 C 31 %
2588 24-03-2020 23:20:17 -1.4 C 31 %
2589 24-03-2020 23:30:18 -1.7 C 30 %
2590 24-03-2020 23:40:18 -0.9 C 30 %
2591 24-03-2020 23:50:18 -1.2 C 30 %
2592 25-03-2020 00:00:17 -1.6 C 30 %
2593 25-03-2020 00:10:17 -1.6 C 31 %
2594 25-03-2020 00:20:17 -1.8 C 32 %
2595 25-03-2020 00:30:17 -1.8 C 30 %
2596 25-03-2020 00:40:18 -1.9 C 31 %
2597 25-03-2020 00:50:17 -1.8 C 32 %
2598 25-03-2020 01:00:17 -1.6 C 32 %
2599 25-03-2020 01:10:18 -1.3 C 31 %
2600 25-03-2020 01:20:17 -1.1 C 30 %
Sensor: Nr:Datum:Temp:Feuchte:
Aussen-T/F 2601 25-03-2020 01:30:18 -1.1 C 29 %
2602 25-03-2020 01:40:18 -0.9 C 28 %
2603 25-03-2020 01:50:17 -1.1 C 28 %
2604 25-03-2020 02:00:17 -1.1 C 28 %
2605 25-03-2020 02:10:18 -1.3 C 27 %
2606 25-03-2020 02:20:18 -1.4 C 29 %
2607 25-03-2020 02:30:18 -1.6 C 27 %
2608 25-03-2020 02:40:18 -1.5 C 27 %
2609 25-03-2020 02:50:18 -1.4 C 27 %
2610 25-03-2020 03:00:18 -1.4 C 26 %
2611 25-03-2020 03:10:18 -1.4 C 26 %
2612 25-03-2020 03:20:17 -1.5 C 27 %
2613 25-03-2020 03:30:17 -2.3 C 30 %
2614 25-03-2020 03:40:17 -2.6 C 31 %
2615 25-03-2020 03:50:17 -2.8 C 32 %
2616 25-03-2020 04:00:17 -3.1 C 33 %
2617 25-03-2020 04:10:17 -3.2 C 34 %
2618 25-03-2020 04:20:17 -3.3 C 34 %
2619 25-03-2020 04:30:18 -3.3 C 34 %
2620 25-03-2020 04:40:18 -3 C 33 %
2621 25-03-2020 04:50:17 -3.2 C 33 %
2622 25-03-2020 05:00:18 -3 C 32 %
2623 25-03-2020 05:10:18 -2.6 C 32 %
2624 25-03-2020 05:20:17 -2.3 C 30 %
2625 25-03-2020 05:30:17 -2.5 C 30 %
Sensor: Nr:Datum:Temp:Feuchte:
Aussen-T/F 2626 25-03-2020 05:40:17 -3.4 C 33 %
2627 25-03-2020 05:50:17 -4 C 35 %
2628 25-03-2020 06:00:17 -4.4 C 36 %
2629 25-03-2020 06:10:17 -4.2 C 36 %
2630 25-03-2020 06:20:17 -4.2 C 36 %
2631 25-03-2020 06:30:17 -4.4 C 36 %
2632 25-03-2020 06:40:17 -4.3 C 36 %
2633 25-03-2020 06:50:17 -4.3 C 36 %
2634 25-03-2020 07:00:17 -4.3 C 37 %
2635 25-03-2020 07:10:17 -4.3 C 37 %
2636 25-03-2020 07:20:17 -4.1 C 37 %
2637 25-03-2020 07:30:17 -4 C 37 %
2638 25-03-2020 07:40:17 -3.8 C 37 %
2639 25-03-2020 07:50:17 -3.2 C 36 %
2640 25-03-2020 08:00:17 -2.6 C 35 %
2641 25-03-2020 08:10:17 -2 C 32 %
2642 25-03-2020 08:20:17 -2.7 C 35 %
2643 25-03-2020 08:30:17 -2 C 34 %
2644 25-03-2020 08:40:17 -1.9 C 34 %
2645 25-03-2020 08:50:17 -1.6 C 34 %
2646 25-03-2020 09:00:17 -1.5 C 34 %
2647 25-03-2020 09:10:17 -1.3 C 35 %
2648 25-03-2020 09:20:17 -1 C 35 %
2649 25-03-2020 09:30:17 -0.2 C 32 %
2650 25-03-2020 09:40:18 0.7 C 29 %
Sensor: Nr:Datum:Temp:Feuchte:
Aussen-T/F 2651 25-03-2020 09:50:17 2.1 C 20 %
2652 25-03-2020 10:00:18 2.8 C 20 %
2653 25-03-2020 10:10:18 3.2 C 20 %
2654 25-03-2020 10:20:17 3.6 C 20 %
2655 25-03-2020 10:30:17 4.1 C 20 %
2656 25-03-2020 10:40:17 4.7 C 20 %
2657 25-03-2020 10:50:17 5.1 C 20 %
2658 25-03-2020 11:00:17 5.3 C 20 %
2659 25-03-2020 11:10:17 5.7 C 20 %
2660 25-03-2020 11:20:17 7.2 C 20 %
2661 25-03-2020 11:30:18 7.7 C 20 %
2662 25-03-2020 11:40:18 7.3 C 20 %
2663 25-03-2020 11:50:17 6.8 C 20 %
2664 25-03-2020 12:00:17 7.8 C 20 %
2665 25-03-2020 12:10:17 8.3 C 20 %
2666 25-03-2020 12:20:17 8.4 C 20 %
2667 25-03-2020 12:30:17 8.4 C 20 %
2668 25-03-2020 12:40:17 8.6 C 20 %
2669 25-03-2020 12:50:17 10.3 C 20 %
2670 25-03-2020 13:00:17 11.2 C 20 %
2671 25-03-2020 13:10:17 12.2 C 20 %
2672 25-03-2020 13:20:18 13.8 C 20 %
2673 25-03-2020 13:30:18 14.5 C 20 %
2674 25-03-2020 13:40:18 12.4 C 20 %
2675 25-03-2020 13:50:18 12 C 20 %
Sensor: Nr:Datum:Temp:Feuchte:
Aussen-T/F 2676 25-03-2020 14:00:18 11.3 C 20 %
2677 25-03-2020 14:10:18 11.1 C 20 %
2678 25-03-2020 14:20:17 13.2 C 20 %
2679 25-03-2020 14:30:17 13.5 C 20 %
2680 25-03-2020 14:40:17 12.7 C 20 %
2681 25-03-2020 14:50:17 13.5 C 20 %
2682 25-03-2020 15:00:17 13.8 C 20 %
2683 25-03-2020 15:10:17 14.1 C 20 %
2684 25-03-2020 15:20:18 14.9 C 20 %
2685 25-03-2020 15:30:18 14.4 C 20 %
2686 25-03-2020 15:40:18 14.4 C 20 %
2687 25-03-2020 15:50:17 15 C 20 %
2688 25-03-2020 16:00:18 15.3 C 20 %
2689 25-03-2020 16:10:18 14.5 C 20 %
2690 25-03-2020 16:20:17 15.7 C 20 %
2691 25-03-2020 16:30:17 13.8 C 20 %
2692 25-03-2020 16:40:17 12.9 C 20 %
2693 25-03-2020 16:50:18 12.2 C 20 %
2694 25-03-2020 17:00:18 11.9 C 20 %
2695 25-03-2020 17:10:18 11.5 C 20 %
2696 25-03-2020 17:20:17 11.1 C 20 %
2697 25-03-2020 17:30:17 11 C 20 %
2698 25-03-2020 17:40:17 10.7 C 20 %
2699 25-03-2020 17:50:17 10.5 C 20 %
2700 25-03-2020 18:00:18 10.5 C 20 %
Sensor: Nr:Datum:Temp:Feuchte:
Aussen-T/F 2701 25-03-2020 18:10:18 10.1 C 20 %
2702 25-03-2020 18:20:17 9.6 C 20 %
2703 25-03-2020 18:30:18 8.8 C 20 %
2704 25-03-2020 18:40:18 7.7 C 20 %
2705 25-03-2020 18:50:18 7 C 20 %
2706 25-03-2020 19:00:18 6.3 C 20 %
2707 25-03-2020 19:10:18 6.1 C 20 %
2708 25-03-2020 19:20:17 5.4 C 20 %
2709 25-03-2020 19:30:18 5.8 C 20 %
2710 25-03-2020 19:40:18 5.1 C 20 %
2711 25-03-2020 19:50:17 4.6 C 20 %
2712 25-03-2020 20:00:17 4.5 C 20 %
2713 25-03-2020 20:10:17 4.1 C 20 %
2714 25-03-2020 20:20:17 4 C 20 %
2715 25-03-2020 20:30:18 4.7 C 20 %
2716 25-03-2020 20:40:18 4.3 C 20 %
2717 25-03-2020 20:50:17 3.8 C 20 %
2718 25-03-2020 21:00:18 4.6 C 20 %
2719 25-03-2020 21:10:18 4.6 C 20 %
2720 25-03-2020 21:20:17 4.3 C 20 %
2721 25-03-2020 21:30:17 4.3 C 20 %
2722 25-03-2020 21:40:17 4 C 20 %
2723 25-03-2020 21:50:17 3.6 C 20 %
2724 25-03-2020 22:00:17 2.8 C 20 %
2725 25-03-2020 22:10:17 2.6 C 20 %
Sensor: Nr:Datum:Temp:Feuchte:
Aussen-T/F 2726 25-03-2020 22:20:17 2.6 C 20 %
2727 25-03-2020 22:30:18 2.1 C 20 %
2728 25-03-2020 22:40:18 2.3 C 20 %
2729 25-03-2020 22:50:18 2.1 C 20 %
2730 25-03-2020 23:00:18 1.7 C 20 %
2731 25-03-2020 23:10:18 1.7 C 23 %
2732 25-03-2020 23:20:17 1.6 C 23 %
2733 25-03-2020 23:30:18 1.5 C 21 %
2734 25-03-2020 23:40:18 1.8 C 20 %
2735 25-03-2020 23:50:18 1.8 C 20 %
2736 26-03-2020 00:00:18 1.4 C 21 %
2737 26-03-2020 00:10:18 1.2 C 21 %
2738 26-03-2020 00:20:18 1.3 C 21 %
2739 26-03-2020 00:30:18 0.9 C 23 %
2740 26-03-2020 00:40:18 0.9 C 25 %
2741 26-03-2020 00:50:18 1 C 23 %
2742 26-03-2020 01:00:18 0.7 C 25 %
2743 26-03-2020 01:10:18 0.4 C 25 %
2744 26-03-2020 01:20:17 0.5 C 25 %
2745 26-03-2020 01:30:17 0.7 C 25 %
2746 26-03-2020 01:40:17 0.7 C 23 %
2747 26-03-2020 01:50:17 0.7 C 21 %
2748 26-03-2020 02:00:17 0.6 C 23 %
2749 26-03-2020 02:10:17 0.7 C 21 %
2750 26-03-2020 02:20:17 0.7 C 21 %
Sensor: Nr:Datum:Temp:Feuchte:
Aussen-T/F 2751 26-03-2020 02:30:17 0.6 C 21 %
2752 26-03-2020 02:40:18 0.4 C 21 %
2753 26-03-2020 02:50:17 0.3 C 23 %
2754 26-03-2020 03:00:17 0 C 23 %
2755 26-03-2020 03:10:18 0.1 C 23 %
2756 26-03-2020 03:20:18 0 C 23 %
2757 26-03-2020 03:30:18 -0.3 C 25 %
2758 26-03-2020 03:40:18 -0.3 C 27 %
2759 26-03-2020 03:50:17 -0.4 C 27 %
2760 26-03-2020 04:00:17 -0.1 C 26 %
2761 26-03-2020 04:10:17 -0.3 C 25 %
2762 26-03-2020 04:20:17 -0.3 C 26 %
2763 26-03-2020 04:30:18 -0.4 C 26 %
2764 26-03-2020 04:40:18 -0.4 C 26 %
2765 26-03-2020 04:50:17 -0.5 C 26 %
2766 26-03-2020 05:00:18 -0.5 C 27 %
2767 26-03-2020 05:10:18 -0.6 C 27 %
2768 26-03-2020 05:20:17 -0.6 C 28 %
2769 26-03-2020 05:30:17 -0.7 C 28 %
2770 26-03-2020 05:40:18 -0.5 C 28 %
2771 26-03-2020 05:50:17 -0.6 C 28 %
2772 26-03-2020 06:00:18 -0.7 C 29 %
2773 26-03-2020 06:10:18 -0.8 C 28 %
2774 26-03-2020 06:20:18 -0.9 C 28 %
2775 26-03-2020 06:30:18 -1 C 28 %
Sensor: Nr:Datum:Temp:Feuchte:
Aussen-T/F 2776 26-03-2020 06:40:18 -0.9 C 30 %
2777 26-03-2020 06:50:18 -1.1 C 30 %
2778 26-03-2020 07:00:18 -0.8 C 30 %
2779 26-03-2020 07:10:18 -1.1 C 30 %
2780 26-03-2020 07:20:18 -0.6 C 30 %
2781 26-03-2020 07:30:18 -0.4 C 30 %
2782 26-03-2020 07:40:18 0.2 C 27 %
2783 26-03-2020 07:50:17 0.5 C 25 %
2784 26-03-2020 08:00:18 0.3 C 28 %
2785 26-03-2020 08:10:18 0.4 C 28 %
2786 26-03-2020 08:20:18 0.7 C 26 %
2787 26-03-2020 08:30:18 1.4 C 21 %
2788 26-03-2020 08:40:18 1.7 C 21 %
2789 26-03-2020 08:50:17 2.2 C 20 %
2790 26-03-2020 09:00:18 2.3 C 20 %
2791 26-03-2020 09:10:18 2.3 C 20 %
2792 26-03-2020 09:20:18 2.7 C 20 %
2793 26-03-2020 09:30:18 3.2 C 20 %
2794 26-03-2020 09:40:18 3.5 C 20 %
2795 26-03-2020 09:50:18 4.1 C 20 %
2796 26-03-2020 10:00:18 4.4 C 20 %
2797 26-03-2020 10:10:18 4.9 C 20 %
2798 26-03-2020 10:20:18 5 C 20 %
2799 26-03-2020 10:30:18 5.4 C 20 %
2800 26-03-2020 10:40:18 5.9 C 20 %
Sensor: Nr:Datum:Temp:Feuchte:
Aussen-T/F 2801 26-03-2020 10:50:17 6 C 20 %
2802 26-03-2020 11:00:18 6.6 C 20 %
2803 26-03-2020 11:10:18 6.9 C 20 %
2804 26-03-2020 11:20:18 7.3 C 20 %
2805 26-03-2020 11:30:18 8.5 C 20 %
2806 26-03-2020 11:40:18 8.3 C 20 %
2807 26-03-2020 11:50:18 7.3 C 20 %
2808 26-03-2020 12:00:18 8 C 20 %
2809 26-03-2020 12:10:18 9.1 C 20 %
2810 26-03-2020 12:20:17 9.6 C 20 %
2811 26-03-2020 12:30:17 9.6 C 20 %
2812 26-03-2020 12:40:17 9.6 C 20 %
2813 26-03-2020 12:50:17 9.7 C 20 %
2814 26-03-2020 13:00:17 10.4 C 20 %
2815 26-03-2020 13:10:17 10.8 C 20 %
2816 26-03-2020 13:20:18 11.5 C 20 %
2817 26-03-2020 13:30:18 11.5 C 20 %
2818 26-03-2020 13:40:18 12.1 C 20 %
2819 26-03-2020 13:50:18 13 C 20 %
2820 26-03-2020 14:00:18 12 C 20 %
2821 26-03-2020 14:10:18 12.2 C 20 %
2822 26-03-2020 14:20:18 11.9 C 20 %
2823 26-03-2020 14:30:18 14.3 C 20 %
2824 26-03-2020 14:40:18 14.2 C 20 %
2825 26-03-2020 14:50:17 14 C 20 %
Sensor: Nr:Datum:Temp:Feuchte:
Aussen-T/F 2826 26-03-2020 15:00:17 15.3 C 20 %
2827 26-03-2020 15:10:18 14.2 C 20 %
2828 26-03-2020 15:20:18 14 C 20 %
2829 26-03-2020 15:30:18 15.6 C 20 %
2830 26-03-2020 15:40:18 15.6 C 20 %
2831 26-03-2020 15:50:18 16.5 C 20 %
2832 26-03-2020 16:00:18 15.6 C 20 %
2833 26-03-2020 16:10:18 15.3 C 20 %
2834 26-03-2020 16:20:18 12.5 C 20 %
2835 26-03-2020 16:30:18 12.3 C 20 %
2836 26-03-2020 16:40:18 13.9 C 20 %
2837 26-03-2020 16:50:18 12.8 C 20 %
2838 26-03-2020 17:00:18 11.4 C 20 %
2839 26-03-2020 17:10:18 11 C 20 %
2840 26-03-2020 17:20:17 10.9 C 20 %
2841 26-03-2020 17:30:17 11 C 20 %
2842 26-03-2020 17:40:17 11.1 C 20 %
2843 26-03-2020 17:50:17 10.7 C 20 %
2844 26-03-2020 18:00:17 10.5 C 20 %
2845 26-03-2020 18:10:17 10.3 C 20 %
2846 26-03-2020 18:20:18 10.1 C 20 %
2847 26-03-2020 18:30:18 9.8 C 20 %
2848 26-03-2020 18:40:18 9.4 C 20 %
2849 26-03-2020 18:50:17 8.6 C 20 %
2850 26-03-2020 19:00:17 8 C 20 %
Sensor: Nr:Datum:Temp:Feuchte:
Aussen-T/F 2851 26-03-2020 19:10:17 7.4 C 20 %
2852 26-03-2020 19:20:17 6.9 C 21 %
2853 26-03-2020 19:30:17 6.7 C 21 %
2854 26-03-2020 19:40:17 6.4 C 21 %
2855 26-03-2020 19:50:17 6.5 C 21 %
2856 26-03-2020 20:00:17 6.2 C 23 %
2857 26-03-2020 20:10:18 6 C 23 %
2858 26-03-2020 20:20:18 5.7 C 25 %
2859 26-03-2020 20:30:17 5.4 C 26 %
2860 26-03-2020 20:40:17 4.9 C 28 %
2861 26-03-2020 20:50:17 4.9 C 28 %
2862 26-03-2020 21:00:17 4.7 C 29 %
2863 26-03-2020 21:10:17 4.5 C 29 %
2864 26-03-2020 21:20:17 4.5 C 30 %
2865 26-03-2020 21:30:18 4.1 C 30 %
2866 26-03-2020 21:40:18 4.6 C 30 %
2867 26-03-2020 21:50:18 4.6 C 30 %
2868 26-03-2020 22:00:18 4.6 C 30 %
2869 26-03-2020 22:10:18 4.6 C 30 %
2870 26-03-2020 22:20:17 4.5 C 30 %
2871 26-03-2020 22:30:17 4.5 C 30 %
2872 26-03-2020 22:40:17 4.5 C 30 %
2873 26-03-2020 22:50:17 4.4 C 30 %
2874 26-03-2020 23:00:18 4.5 C 30 %
2875 26-03-2020 23:10:18 4.2 C 30 %
Sensor: Nr:Datum:Temp:Feuchte:
Aussen-T/F 2876 26-03-2020 23:20:17 4.2 C 30 %
2877 26-03-2020 23:30:18 3.9 C 31 %
2878 26-03-2020 23:40:18 4 C 30 %
2879 26-03-2020 23:50:18 3.9 C 31 %
2880 27-03-2020 00:00:18 4 C 30 %
2881 27-03-2020 00:10:18 3.9 C 31 %
2882 27-03-2020 00:20:17 4 C 30 %
2883 27-03-2020 00:30:17 4 C 30 %
2884 27-03-2020 00:40:17 3.7 C 32 %
2885 27-03-2020 00:50:18 3.6 C 32 %
2886 27-03-2020 01:00:18 2.7 C 35 %
2887 27-03-2020 01:10:18 2.5 C 36 %
2888 27-03-2020 01:20:17 3 C 35 %
2889 27-03-2020 01:30:18 3.1 C 35 %
2890 27-03-2020 01:40:18 2.7 C 36 %
2891 27-03-2020 01:50:18 3 C 35 %
2892 27-03-2020 02:00:18 2.9 C 35 %
2893 27-03-2020 02:10:18 2.8 C 35 %
2894 27-03-2020 02:20:17 2.7 C 35 %
2895 27-03-2020 02:30:17 2.5 C 36 %
2896 27-03-2020 02:40:17 2.5 C 36 %
2897 27-03-2020 02:50:17 2.6 C 35 %
2898 27-03-2020 03:00:17 2.6 C 35 %
2899 27-03-2020 03:10:17 2.2 C 36 %
2900 27-03-2020 03:20:17 2.5 C 35 %
Sensor: Nr:Datum:Temp:Feuchte:
Aussen-T/F 2901 27-03-2020 03:30:17 2.4 C 35 %
2902 27-03-2020 03:40:17 2.6 C 35 %
2903 27-03-2020 03:50:17 2.4 C 36 %
2904 27-03-2020 04:00:18 2.4 C 35 %
2905 27-03-2020 04:10:18 2.4 C 35 %
2906 27-03-2020 04:20:18 1.4 C 38 %
2907 27-03-2020 04:30:18 1.3 C 38 %
2908 27-03-2020 04:40:18 1.6 C 38 %
2909 27-03-2020 04:50:17 1.8 C 37 %
2910 27-03-2020 05:00:18 1.5 C 38 %
2911 27-03-2020 05:10:18 0.7 C 40 %
2912 27-03-2020 05:20:18 0.4 C 40 %
2913 27-03-2020 05:30:18 0 C 41 %
2914 27-03-2020 05:40:18 0 C 42 %
2915 27-03-2020 05:50:18 -0.1 C 42 %
2916 27-03-2020 06:00:18 -0.5 C 42 %
2917 27-03-2020 06:10:18 -0.6 C 43 %
2918 27-03-2020 06:20:18 -0.4 C 43 %
2919 27-03-2020 06:30:18 -0.4 C 43 %
2920 27-03-2020 06:40:18 -0.3 C 43 %
2921 27-03-2020 06:50:17 -0.3 C 43 %
2922 27-03-2020 07:00:18 -0.2 C 43 %
2923 27-03-2020 07:10:18 -0.1 C 43 %
2924 27-03-2020 07:20:18 0.1 C 43 %
2925 27-03-2020 07:30:18 0.3 C 43 %
Sensor: Nr:Datum:Temp:Feuchte:
Aussen-T/F 2926 27-03-2020 07:40:18 0.8 C 43 %
2927 27-03-2020 07:50:17 1.2 C 41 %
2928 27-03-2020 08:00:17 1.1 C 41 %
2929 27-03-2020 08:10:18 1.9 C 40 %
2930 27-03-2020 08:20:18 1.7 C 40 %
2931 27-03-2020 08:30:18 1.6 C 41 %
2932 27-03-2020 08:40:18 1.9 C 41 %
2933 27-03-2020 08:50:17 2.6 C 39 %
2934 27-03-2020 09:00:18 3 C 38 %
2935 27-03-2020 09:10:18 3.3 C 37 %
2936 27-03-2020 09:20:17 3.6 C 37 %
2937 27-03-2020 09:30:18 4.1 C 36 %
2938 27-03-2020 09:40:18 4.5 C 35 %
2939 27-03-2020 09:50:18 5.3 C 35 %
2940 27-03-2020 10:00:18 5.8 C 34 %
2941 27-03-2020 10:10:18 6.5 C 32 %
2942 27-03-2020 10:20:17 7.6 C 30 %
2943 27-03-2020 10:30:17 8.1 C 28 %
2944 27-03-2020 10:40:17 9.1 C 25 %
2945 27-03-2020 10:50:17 9.3 C 25 %
2946 27-03-2020 11:00:17 10.2 C 20 %
2947 27-03-2020 11:10:17 11 C 20 %
2948 27-03-2020 11:20:17 12.4 C 20 %
2949 27-03-2020 11:30:17 14.5 C 20 %
2950 27-03-2020 11:40:17 14.2 C 20 %
Sensor: Nr:Datum:Temp:Feuchte:
Aussen-T/F 2951 27-03-2020 11:50:17 12.5 C 20 %
2952 27-03-2020 12:00:17 13.4 C 20 %
2953 27-03-2020 12:10:17 13.7 C 20 %
2954 27-03-2020 12:20:17 14.4 C 20 %
2955 27-03-2020 12:30:17 14.1 C 20 %
2956 27-03-2020 12:40:18 14.2 C 20 %
2957 27-03-2020 12:50:18 14.6 C 20 %
2958 27-03-2020 13:00:18 16.6 C 20 %
2959 27-03-2020 13:10:18 15.8 C 20 %
2960 27-03-2020 13:20:17 17.6 C 20 %
2961 27-03-2020 13:30:18 18.8 C 20 %
2962 27-03-2020 13:40:18 16.8 C 20 %
2963 27-03-2020 13:50:18 17.3 C 20 %
2964 27-03-2020 14:00:18 16.9 C 20 %
2965 27-03-2020 14:10:18 17.6 C 20 %
2966 27-03-2020 14:20:18 17.7 C 20 %
2967 27-03-2020 14:30:17 20.4 C 20 %
2968 27-03-2020 14:40:17 18.1 C 20 %
2969 27-03-2020 14:50:17 18.4 C 20 %
2970 27-03-2020 15:00:17 18.5 C 20 %
2971 27-03-2020 15:10:17 18.7 C 20 %
2972 27-03-2020 15:20:17 18.9 C 20 %
2973 27-03-2020 15:30:18 19.4 C 20 %
2974 27-03-2020 15:40:18 18.3 C 20 %
2975 27-03-2020 15:50:17 19.5 C 20 %
Sensor: Nr:Datum:Temp:Feuchte:
Aussen-T/F 2976 27-03-2020 16:00:17 18.5 C 20 %
2977 27-03-2020 16:10:17 18.2 C 20 %
2978 27-03-2020 16:20:17 19.2 C 20 %
2979 27-03-2020 16:30:17 18.3 C 20 %
2980 27-03-2020 16:40:17 18 C 20 %
2981 27-03-2020 16:50:17 17 C 20 %
2982 27-03-2020 17:00:18 16.4 C 20 %
2983 27-03-2020 17:10:18 16.3 C 20 %
2984 27-03-2020 17:20:18 16.1 C 20 %
2985 27-03-2020 17:30:18 16 C 20 %
2986 27-03-2020 17:40:18 15.8 C 20 %
2987 27-03-2020 17:50:18 15.7 C 20 %
2988 27-03-2020 18:00:17 15.4 C 20 %
2989 27-03-2020 18:10:17 15 C 20 %
2990 27-03-2020 18:20:17 14.1 C 20 %
2991 27-03-2020 18:30:18 13.5 C 20 %
2992 27-03-2020 18:40:18 12.9 C 20 %
2993 27-03-2020 18:50:18 12.3 C 20 %
2994 27-03-2020 19:00:18 11.8 C 20 %
2995 27-03-2020 19:10:18 11.5 C 20 %
2996 27-03-2020 19:20:17 11.4 C 20 %
2997 27-03-2020 19:30:17 10.7 C 20 %
2998 27-03-2020 19:40:17 10.7 C 21 %
2999 27-03-2020 19:50:17 10.4 C 23 %
3000 27-03-2020 20:00:18 10.4 C 22 %
Sensor: Nr:Datum:Temp:Feuchte:
Aussen-T/F 3001 27-03-2020 20:10:18 9.2 C 26 %
3002 27-03-2020 20:20:17 8.9 C 28 %
3003 27-03-2020 20:30:17 8.4 C 30 %
3004 27-03-2020 20:40:17 8.1 C 30 %
3005 27-03-2020 20:50:18 7.8 C 31 %
3006 27-03-2020 21:00:17 7.4 C 31 %
3007 27-03-2020 21:10:17 7.3 C 32 %
3008 27-03-2020 21:20:17 7.1 C 32 %
3009 27-03-2020 21:30:17 7 C 32 %
3010 27-03-2020 21:40:17 6.6 C 33 %
3011 27-03-2020 21:50:17 6.6 C 34 %
3012 27-03-2020 22:00:17 6.4 C 34 %
3013 27-03-2020 22:10:17 6.3 C 34 %
3014 27-03-2020 22:20:17 6 C 35 %
3015 27-03-2020 22:30:18 5.8 C 35 %
3016 27-03-2020 22:40:18 5.6 C 35 %
3017 27-03-2020 22:50:18 5.5 C 36 %
3018 27-03-2020 23:00:18 5.6 C 36 %
3019 27-03-2020 23:10:18 5.6 C 36 %
3020 27-03-2020 23:20:17 5.3 C 36 %
3021 27-03-2020 23:30:17 5.2 C 36 %
3022 27-03-2020 23:40:17 5.1 C 36 %
3023 27-03-2020 23:50:17 4.8 C 37 %
3024 28-03-2020 00:00:17 4.8 C 38 %
3025 28-03-2020 00:10:17 4.8 C 39 %
Sensor: Nr:Datum:Temp:Feuchte:
Aussen-T/F 3026 28-03-2020 00:20:17 5 C 37 %
3027 28-03-2020 00:30:18 4.9 C 38 %
3028 28-03-2020 00:40:18 4.7 C 38 %
3029 28-03-2020 00:50:17 4.7 C 38 %
3030 28-03-2020 01:00:17 4.6 C 38 %
3031 28-03-2020 01:10:17 4.4 C 39 %
3032 28-03-2020 01:20:17 4.3 C 39 %
3033 28-03-2020 01:30:17 4.1 C 39 %
3034 28-03-2020 01:40:18 3.9 C 40 %
3035 28-03-2020 01:50:17 3.7 C 41 %
3036 28-03-2020 02:00:18 3.6 C 41 %
3037 28-03-2020 02:10:18 3.3 C 41 %
3038 28-03-2020 02:20:18 3.1 C 41 %
3039 28-03-2020 02:30:17 3.7 C 42 %
3040 28-03-2020 02:40:17 3.7 C 41 %
3041 28-03-2020 02:50:18 3.4 C 41 %
3042 28-03-2020 03:00:18 3.1 C 41 %
3043 28-03-2020 03:10:18 2.9 C 42 %
3044 28-03-2020 03:20:17 2.8 C 43 %
3045 28-03-2020 03:30:18 2.6 C 43 %
3046 28-03-2020 03:40:18 2.1 C 43 %
3047 28-03-2020 03:50:17 2.1 C 44 %
3048 28-03-2020 04:00:18 2.2 C 44 %
3049 28-03-2020 04:10:18 2.1 C 44 %
3050 28-03-2020 04:20:18 1.9 C 45 %
Sensor: Nr:Datum:Temp:Feuchte:
Aussen-T/F 3051 28-03-2020 04:30:18 1.7 C 45 %
3052 28-03-2020 04:40:18 1.8 C 46 %
3053 28-03-2020 04:50:17 1.8 C 46 %
3054 28-03-2020 05:00:18 1.7 C 45 %
3055 28-03-2020 05:10:18 1.6 C 45 %
3056 28-03-2020 05:20:17 1.5 C 45 %
3057 28-03-2020 05:30:18 1.3 C 46 %
3058 28-03-2020 05:40:18 1.2 C 46 %
3059 28-03-2020 05:50:18 1.2 C 46 %
3060 28-03-2020 06:00:18 1.2 C 46 %
3061 28-03-2020 06:10:18 1.3 C 46 %
3062 28-03-2020 06:20:17 1.1 C 46 %
3063 28-03-2020 06:30:17 1.1 C 46 %
3064 28-03-2020 06:40:17 1 C 46 %
3065 28-03-2020 06:50:17 1.2 C 47 %
3066 28-03-2020 07:00:17 1.5 C 47 %
3067 28-03-2020 07:10:17 1.7 C 47 %
3068 28-03-2020 07:20:17 1.9 C 47 %
3069 28-03-2020 07:30:18 1.9 C 46 %
3070 28-03-2020 07:40:18 1.9 C 46 %
3071 28-03-2020 07:50:17 2 C 45 %
3072 28-03-2020 08:00:17 2.2 C 45 %
3073 28-03-2020 08:10:18 2.5 C 45 %
3074 28-03-2020 08:20:18 2.8 C 46 %
3075 28-03-2020 08:30:17 3.2 C 45 %
Sensor: Nr:Datum:Temp:Feuchte:
Aussen-T/F 3076 28-03-2020 08:40:17 3.7 C 44 %
3077 28-03-2020 08:50:18 4 C 43 %
3078 28-03-2020 09:00:18 4.6 C 43 %
3079 28-03-2020 09:10:18 5.1 C 41 %
3080 28-03-2020 09:20:17 5.7 C 41 %
3081 28-03-2020 09:30:18 6.3 C 40 %
3082 28-03-2020 09:40:18 6.9 C 40 %
3083 28-03-2020 09:50:18 7.8 C 38 %
3084 28-03-2020 10:00:18 8.4 C 37 %
3085 28-03-2020 10:10:18 9.5 C 35 %
3086 28-03-2020 10:20:17 10.2 C 32 %
3087 28-03-2020 10:30:17 10.9 C 31 %
3088 28-03-2020 10:40:17 11.6 C 30 %
3089 28-03-2020 10:50:18 12.2 C 29 %
3090 28-03-2020 11:00:18 13.4 C 26 %
3091 28-03-2020 11:10:18 13.6 C 25 %
3092 28-03-2020 11:20:17 15.8 C 20 %
3093 28-03-2020 11:30:17 16.7 C 20 %
3094 28-03-2020 11:40:17 16.4 C 20 %
3095 28-03-2020 11:50:18 15.9 C 20 %
3096 28-03-2020 12:00:17 16.6 C 20 %
3097 28-03-2020 12:10:17 17 C 20 %
3098 28-03-2020 12:20:17 17.7 C 20 %
3099 28-03-2020 12:30:17 17.8 C 20 %
3100 28-03-2020 12:40:17 18.1 C 20 %
Sensor: Nr:Datum:Temp:Feuchte:
Aussen-T/F 3101 28-03-2020 12:50:18 18 C 20 %
3102 28-03-2020 13:00:18 18.6 C 20 %
3103 28-03-2020 13:10:18 19.6 C 20 %
3104 28-03-2020 13:20:18 21.7 C 20 %
3105 28-03-2020 13:30:17 21.1 C 20 %
3106 28-03-2020 13:40:17 20.7 C 20 %
3107 28-03-2020 13:50:18 20.6 C 20 %
3108 28-03-2020 14:00:17 21.1 C 20 %
3109 28-03-2020 14:10:17 21.3 C 20 %
3110 28-03-2020 14:20:17 21.9 C 20 %
3111 28-03-2020 14:30:17 23.7 C 20 %
3112 28-03-2020 14:40:17 24.3 C 20 %
3113 28-03-2020 14:50:17 23.2 C 20 %
3114 28-03-2020 15:00:18 22.4 C 20 %
3115 28-03-2020 15:10:18 19.9 C 20 %
3116 28-03-2020 15:20:18 18.6 C 20 %
3117 28-03-2020 15:30:18 19.6 C 20 %
3118 28-03-2020 15:40:18 22.1 C 20 %
3119 28-03-2020 15:50:18 20.5 C 20 %
3120 28-03-2020 16:00:18 21.1 C 20 %
3121 28-03-2020 16:10:18 21.1 C 20 %
3122 28-03-2020 16:20:18 19.9 C 20 %
3123 28-03-2020 16:30:18 19.6 C 20 %
3124 28-03-2020 16:40:18 19.6 C 20 %
3125 28-03-2020 16:50:18 18.5 C 20 %
Sensor: Nr:Datum:Temp:Feuchte:
Aussen-T/F 3126 28-03-2020 17:00:18 17.9 C 20 %
3127 28-03-2020 17:10:18 17 C 20 %
3128 28-03-2020 17:20:18 16.6 C 20 %
3129 28-03-2020 17:30:18 16.2 C 20 %
3130 28-03-2020 17:40:18 16.2 C 20 %
3131 28-03-2020 17:50:17 15.4 C 20 %
3132 28-03-2020 18:00:18 14.9 C 20 %
3133 28-03-2020 18:10:18 14.6 C 20 %
3134 28-03-2020 18:20:17 14 C 20 %
3135 28-03-2020 18:30:17 13.5 C 20 %
3136 28-03-2020 18:40:17 13.1 C 20 %
3137 28-03-2020 18:50:18 12.6 C 20 %
3138 28-03-2020 19:00:18 12.3 C 20 %
3139 28-03-2020 19:10:18 11.7 C 20 %
3140 28-03-2020 19:20:18 11.7 C 20 %
3141 28-03-2020 19:30:18 11.4 C 20 %
3142 28-03-2020 19:40:18 11.2 C 20 %
3143 28-03-2020 19:50:17 10.8 C 20 %
3144 28-03-2020 20:00:18 10.3 C 20 %
3145 28-03-2020 20:10:18 10.7 C 20 %
3146 28-03-2020 20:20:17 10.5 C 20 %
3147 28-03-2020 20:30:18 10 C 20 %
3148 28-03-2020 20:40:18 9.2 C 20 %
3149 28-03-2020 20:50:17 8.7 C 20 %
3150 28-03-2020 21:00:17 8.8 C 20 %
Sensor: Nr:Datum:Temp:Feuchte:
Aussen-T/F 3151 28-03-2020 21:10:17 9.2 C 20 %
3152 28-03-2020 21:20:17 8.7 C 23 %
3153 28-03-2020 21:30:17 8.1 C 25 %
3154 28-03-2020 21:40:17 8.4 C 23 %
3155 28-03-2020 21:50:17 7.6 C 25 %
3156 28-03-2020 22:00:17 8.3 C 25 %
3157 28-03-2020 22:10:17 8.5 C 21 %
3158 28-03-2020 22:20:17 8.4 C 25 %
3159 28-03-2020 22:30:17 8.3 C 26 %
3160 28-03-2020 22:40:17 7.9 C 26 %
3161 28-03-2020 22:50:17 7.4 C 28 %
3162 28-03-2020 23:00:17 7.3 C 30 %
3163 28-03-2020 23:10:17 7.2 C 30 %
3164 28-03-2020 23:20:18 7.1 C 30 %
3165 28-03-2020 23:30:18 7.1 C 31 %
3166 28-03-2020 23:40:18 6.8 C 32 %
3167 28-03-2020 23:50:17 6.7 C 33 %
3168 29-03-2020 00:00:18 6.5 C 33 %
3169 29-03-2020 00:10:18 6.4 C 33 %
3170 29-03-2020 00:20:17 6.2 C 33 %
3171 29-03-2020 00:30:17 6.5 C 33 %
3172 29-03-2020 00:40:17 6.6 C 33 %
3173 29-03-2020 00:50:18 6.5 C 32 %
3174 29-03-2020 01:00:18 6.3 C 32 %
3175 29-03-2020 01:10:18 6.3 C 32 %
Sensor: Nr:Datum:Temp:Feuchte:
Aussen-T/F 3176 29-03-2020 01:20:17 6.2 C 32 %
3177 29-03-2020 01:30:17 6.1 C 32 %
3178 29-03-2020 01:40:17 6 C 31 %
3179 29-03-2020 01:50:17 6 C 31 %
3180 29-03-2020 02:00:17 5.8 C 31 %
3181 29-03-2020 02:10:17 5.7 C 31 %
3182 29-03-2020 02:20:18 5.4 C 31 %
3183 29-03-2020 02:30:18 5 C 31 %
3184 29-03-2020 02:40:18 4.7 C 32 %
3185 29-03-2020 02:50:18 4.7 C 32 %
3186 29-03-2020 04:00:18 4.6 C 31 %
3187 29-03-2020 04:10:18 4.2 C 32 %
3188 29-03-2020 04:20:17 4.1 C 31 %
3189 29-03-2020 04:30:17 4.3 C 31 %
3190 29-03-2020 04:40:17 4.4 C 31 %
3191 29-03-2020 04:50:18 4.3 C 31 %
3192 29-03-2020 05:00:17 4.4 C 32 %
3193 29-03-2020 05:10:17 4.3 C 32 %
3194 29-03-2020 05:20:17 4.2 C 31 %
3195 29-03-2020 05:30:17 4 C 31 %
3196 29-03-2020 05:40:17 3.8 C 32 %
3197 29-03-2020 05:50:18 3.5 C 32 %
3198 29-03-2020 06:00:18 3.1 C 32 %
3199 29-03-2020 06:10:18 2.8 C 33 %
3200 29-03-2020 06:20:17 2.5 C 33 %
Sensor: Nr:Datum:Temp:Feuchte:
Aussen-T/F 3201 29-03-2020 06:30:18 2.9 C 33 %
3202 29-03-2020 06:40:18 3.2 C 32 %
3203 29-03-2020 06:50:17 3.3 C 33 %
3204 29-03-2020 07:00:18 3.4 C 33 %
3205 29-03-2020 07:10:18 3.5 C 34 %
3206 29-03-2020 07:20:17 3.5 C 35 %
3207 29-03-2020 07:30:17 3.6 C 35 %
3208 29-03-2020 07:40:17 3.7 C 35 %
3209 29-03-2020 07:50:17 3.7 C 35 %
3210 29-03-2020 08:00:18 3.8 C 35 %
3211 29-03-2020 08:10:18 3.8 C 35 %
3212 29-03-2020 08:20:17 4.1 C 33 %
3213 29-03-2020 08:30:17 4.1 C 33 %
3214 29-03-2020 08:40:17 4.3 C 33 %
3215 29-03-2020 08:50:17 4 C 33 %
3216 29-03-2020 09:00:17 4.3 C 33 %
3217 29-03-2020 09:10:17 4.2 C 32 %
3218 29-03-2020 09:20:17 4.1 C 33 %
3219 29-03-2020 09:30:17 4.2 C 33 %
3220 29-03-2020 09:40:17 4.5 C 32 %
3221 29-03-2020 09:50:17 4.8 C 32 %
3222 29-03-2020 10:00:17 5 C 31 %
3223 29-03-2020 10:10:17 5.3 C 31 %
3224 29-03-2020 10:20:17 5.8 C 30 %
3225 29-03-2020 10:30:18 5.6 C 30 %
Sensor: Nr:Datum:Temp:Feuchte:
Aussen-T/F 3226 29-03-2020 10:40:18 6.2 C 30 %
3227 29-03-2020 10:50:17 6.2 C 28 %
3228 29-03-2020 11:00:18 6.5 C 25 %
3229 29-03-2020 11:10:18 6.5 C 25 %
3230 29-03-2020 11:20:18 6 C 25 %
3231 29-03-2020 11:30:18 6.1 C 25 %
3232 29-03-2020 11:40:18 6.2 C 25 %
3233 29-03-2020 11:50:17 6.3 C 25 %
3234 29-03-2020 12:00:17 6.2 C 25 %
3235 29-03-2020 12:10:17 5.6 C 27 %
3236 29-03-2020 12:20:17 5.5 C 27 %
3237 29-03-2020 12:30:17 5.7 C 27 %
3238 29-03-2020 12:40:17 5.8 C 26 %
3239 29-03-2020 12:50:18 6.4 C 26 %
3240 29-03-2020 13:00:18 6.3 C 25 %
3241 29-03-2020 13:10:18 6.1 C 25 %
3242 29-03-2020 13:20:17 6.6 C 23 %
3243 29-03-2020 13:30:17 6.8 C 20 %
3244 29-03-2020 13:40:18 8.1 C 20 %
3245 29-03-2020 13:50:17 8.4 C 20 %
3246 29-03-2020 14:00:18 7.6 C 20 %
3247 29-03-2020 14:10:18 7.5 C 20 %
3248 29-03-2020 14:20:17 7 C 20 %
3249 29-03-2020 14:30:17 6.7 C 20 %
3250 29-03-2020 14:40:17 6.5 C 20 %
Sensor: Nr:Datum:Temp:Feuchte:
Aussen-T/F 3251 29-03-2020 14:50:17 6.7 C 20 %
3252 29-03-2020 15:00:17 7.2 C 20 %
3253 29-03-2020 15:10:17 7.4 C 20 %
3254 29-03-2020 15:20:17 7.4 C 20 %
3255 29-03-2020 15:30:18 7.6 C 20 %
3256 29-03-2020 15:40:18 7.6 C 20 %
3257 29-03-2020 15:50:17 8 C 20 %
3258 29-03-2020 16:00:18 7.4 C 20 %
3259 29-03-2020 16:10:18 7 C 20 %
3260 29-03-2020 16:20:17 6.7 C 20 %
3261 29-03-2020 16:30:18 6.5 C 20 %
3262 29-03-2020 16:40:18 6.6 C 20 %
3263 29-03-2020 16:50:18 6.8 C 20 %
3264 29-03-2020 17:00:18 7 C 20 %
3265 29-03-2020 17:10:18 6.8 C 20 %
3266 29-03-2020 17:20:17 7.4 C 20 %
3267 29-03-2020 17:30:17 7 C 20 %
3268 29-03-2020 17:40:17 7 C 20 %
3269 29-03-2020 17:50:18 6.8 C 25 %
3270 29-03-2020 18:00:18 7.1 C 23 %
3271 29-03-2020 18:10:18 6.5 C 25 %
3272 29-03-2020 18:20:18 6.2 C 25 %
3273 29-03-2020 18:30:18 5.3 C 29 %
3274 29-03-2020 18:40:18 4.4 C 35 %
3275 29-03-2020 18:50:18 4.1 C 36 %
Sensor: Nr:Datum:Temp:Feuchte:
Aussen-T/F 3276 29-03-2020 19:00:18 4 C 36 %
3277 29-03-2020 19:10:18 3.6 C 39 %
3278 29-03-2020 19:20:17 3.6 C 40 %
3279 29-03-2020 19:30:17 3.4 C 40 %
3280 29-03-2020 19:40:17 3.2 C 41 %
3281 29-03-2020 19:50:17 3.1 C 41 %
3282 29-03-2020 20:00:17 3 C 41 %
3283 29-03-2020 20:10:17 3 C 41 %
3284 29-03-2020 20:20:18 2.9 C 42 %
3285 29-03-2020 20:30:18 3 C 41 %
3286 29-03-2020 20:40:18 3.3 C 40 %
3287 29-03-2020 20:50:18 3.5 C 40 %
3288 29-03-2020 21:00:18 3.6 C 39 %
3289 29-03-2020 21:10:18 3.7 C 39 %
3290 29-03-2020 21:20:18 3.7 C 38 %
3291 29-03-2020 21:30:17 3.7 C 37 %
3292 29-03-2020 21:40:17 3.8 C 37 %
3293 29-03-2020 21:50:17 3.8 C 37 %
3294 29-03-2020 22:00:17 3.7 C 37 %
3295 29-03-2020 22:10:17 3.7 C 36 %
3296 29-03-2020 22:20:18 3.7 C 36 %
3297 29-03-2020 22:30:18 3.6 C 36 %
3298 29-03-2020 22:40:18 3.6 C 36 %
3299 29-03-2020 22:50:18 3.6 C 35 %
3300 29-03-2020 23:00:18 3.6 C 35 %
Sensor: Nr:Datum:Temp:Feuchte:
Aussen-T/F 3301 29-03-2020 23:10:18 3.5 C 35 %
3302 29-03-2020 23:20:17 3.4 C 34 %
3303 29-03-2020 23:30:17 3.3 C 33 %
3304 29-03-2020 23:40:17 3.1 C 33 %
3305 29-03-2020 23:50:17 2.9 C 33 %
3306 30-03-2020 00:00:18 2.5 C 34 %
3307 30-03-2020 00:10:18 2.4 C 33 %
3308 30-03-2020 00:20:17 2.4 C 33 %
3309 30-03-2020 00:30:17 1.7 C 35 %
3310 30-03-2020 00:40:17 1 C 36 %
3311 30-03-2020 00:50:17 0.3 C 38 %
3312 30-03-2020 01:00:18 0.2 C 38 %
3313 30-03-2020 01:10:18 0.3 C 38 %
3314 30-03-2020 01:20:17 0.3 C 37 %
3315 30-03-2020 01:30:18 0.5 C 36 %
3316 30-03-2020 01:40:18 -0.1 C 37 %
3317 30-03-2020 01:50:17 -0.3 C 37 %
3318 30-03-2020 02:00:17 -0.8 C 38 %
3319 30-03-2020 02:10:17 -0.9 C 38 %
3320 30-03-2020 02:20:17 -1.5 C 39 %
3321 30-03-2020 02:30:18 -1.7 C 39 %
3322 30-03-2020 02:40:18 -1.6 C 40 %
3323 30-03-2020 02:50:17 -1.6 C 39 %
3324 30-03-2020 03:00:18 -1.7 C 39 %
3325 30-03-2020 03:10:18 -1.3 C 38 %
Sensor: Nr:Datum:Temp:Feuchte:
Aussen-T/F 3326 30-03-2020 03:20:18 -1.7 C 39 %
3327 30-03-2020 03:30:18 -2.2 C 40 %
3328 30-03-2020 03:40:18 -2.1 C 40 %
3329 30-03-2020 03:50:17 -2.1 C 40 %
3330 30-03-2020 04:00:18 -1.9 C 39 %
3331 30-03-2020 04:10:18 -2.2 C 39 %
3332 30-03-2020 04:20:17 -2 C 39 %
3333 30-03-2020 04:30:17 -2.4 C 39 %
3334 30-03-2020 04:40:17 -2.6 C 39 %
3335 30-03-2020 04:50:17 -2.4 C 39 %
3336 30-03-2020 05:00:17 -2.4 C 38 %
3337 30-03-2020 05:10:17 -2.5 C 38 %
3338 30-03-2020 05:20:17 -2.7 C 38 %
3339 30-03-2020 05:30:18 -3 C 39 %
3340 30-03-2020 05:40:18 -3 C 38 %
3341 30-03-2020 05:50:17 -3 C 38 %
3342 30-03-2020 06:00:18 -3 C 38 %
3343 30-03-2020 06:10:18 -3.4 C 38 %
3344 30-03-2020 06:20:17 -3.7 C 39 %
3345 30-03-2020 06:30:17 -3.9 C 40 %
3346 30-03-2020 06:40:17 -4.1 C 40 %
3347 30-03-2020 06:50:17 -3.3 C 39 %
3348 30-03-2020 07:00:17 -3.7 C 40 %
3349 30-03-2020 07:10:17 -3.2 C 39 %
3350 30-03-2020 07:20:17 -3.8 C 39 %
Sensor: Nr:Datum:Temp:Feuchte:
Aussen-T/F 3351 30-03-2020 07:30:18 -4.3 C 40 %
3352 30-03-2020 07:40:18 -4.5 C 40 %
3353 30-03-2020 07:50:17 -4.5 C 40 %
3354 30-03-2020 08:00:18 -3.8 C 40 %
3355 30-03-2020 08:10:18 -3.9 C 40 %
3356 30-03-2020 08:20:18 -4.1 C 40 %
3357 30-03-2020 08:30:18 -3.7 C 39 %
3358 30-03-2020 08:40:18 -3.3 C 39 %
3359 30-03-2020 08:50:17 -3.2 C 38 %
3360 30-03-2020 09:00:18 -3.1 C 38 %
3361 30-03-2020 09:10:18 -2.7 C 37 %
3362 30-03-2020 09:20:18 -2.6 C 37 %
3363 30-03-2020 09:30:18 -2.5 C 37 %
3364 30-03-2020 09:40:18 -2.1 C 37 %
3365 30-03-2020 09:50:18 -2.1 C 37 %
3366 30-03-2020 10:00:18 -1.6 C 36 %
3367 30-03-2020 10:10:18 -1.7 C 37 %
3368 30-03-2020 10:20:17 -1.5 C 37 %
3369 30-03-2020 10:30:17 -1.3 C 36 %
3370 30-03-2020 10:40:17 0.1 C 31 %
3371 30-03-2020 10:50:17 1 C 21 %
3372 30-03-2020 11:00:17 1.1 C 23 %
3373 30-03-2020 11:10:18 2 C 20 %
3374 30-03-2020 11:20:18 2.4 C 20 %
3375 30-03-2020 11:30:18 2.8 C 20 %
Sensor: Nr:Datum:Temp:Feuchte:
Aussen-T/F 3376 30-03-2020 11:40:18 2.9 C 20 %
3377 30-03-2020 11:50:18 3.2 C 20 %
3378 30-03-2020 12:00:18 3.7 C 20 %
3379 30-03-2020 12:10:18 4 C 20 %
3380 30-03-2020 12:20:18 6.4 C 20 %
3381 30-03-2020 12:30:18 7.6 C 20 %
3382 30-03-2020 12:40:18 6.3 C 20 %
3383 30-03-2020 12:50:18 5.1 C 20 %
3384 30-03-2020 13:00:18 6.6 C 20 %
3385 30-03-2020 13:10:18 6.5 C 20 %
3386 30-03-2020 13:20:18 5.6 C 20 %
3387 30-03-2020 13:30:17 5.9 C 20 %
3388 30-03-2020 13:40:17 7 C 20 %
3389 30-03-2020 13:50:17 6.4 C 20 %
3390 30-03-2020 14:00:17 7.1 C 20 %
3391 30-03-2020 14:10:17 8.4 C 20 %
3392 30-03-2020 14:20:18 8.9 C 20 %
3393 30-03-2020 14:30:18 9.5 C 20 %
3394 30-03-2020 14:40:18 9.7 C 20 %
3395 30-03-2020 14:50:18 10.8 C 20 %
3396 30-03-2020 15:00:18 11.3 C 20 %
3397 30-03-2020 15:10:18 11.7 C 20 %
3398 30-03-2020 15:20:17 11.6 C 20 %
3399 30-03-2020 15:30:18 13.5 C 20 %
3400 30-03-2020 15:40:18 13.6 C 20 %
Sensor: Nr:Datum:Temp:Feuchte:
Aussen-T/F 3401 30-03-2020 15:50:18 11.9 C 20 %
3402 30-03-2020 16:00:18 12.9 C 20 %
3403 30-03-2020 16:10:18 13.6 C 20 %
3404 30-03-2020 16:20:17 15.2 C 20 %
3405 30-03-2020 16:30:18 9.9 C 20 %
3406 30-03-2020 16:40:18 13.9 C 20 %
3407 30-03-2020 16:50:18 13.6 C 20 %
3408 30-03-2020 17:00:17 10.1 C 20 %
3409 30-03-2020 17:10:17 13.4 C 20 %
3410 30-03-2020 17:20:18 12.5 C 20 %
3411 30-03-2020 17:30:18 12.6 C 20 %
3412 30-03-2020 17:40:18 11.6 C 20 %
3413 30-03-2020 17:50:18 10.2 C 20 %
3414 30-03-2020 18:00:18 8.7 C 20 %
3415 30-03-2020 18:10:18 7.6 C 20 %
3416 30-03-2020 18:20:18 7.9 C 20 %
3417 30-03-2020 18:30:18 8.2 C 20 %
3418 30-03-2020 18:40:18 7.7 C 20 %
3419 30-03-2020 18:50:18 7.8 C 20 %
3420 30-03-2020 19:00:18 7.3 C 20 %
3421 30-03-2020 19:10:18 7.1 C 20 %
3422 30-03-2020 19:20:17 6.5 C 20 %
3423 30-03-2020 19:30:18 6.3 C 20 %
3424 30-03-2020 19:40:18 5.8 C 20 %
3425 30-03-2020 19:50:17 5 C 20 %
Sensor: Nr:Datum:Temp:Feuchte:
Aussen-T/F 3426 30-03-2020 20:00:18 3.8 C 27 %
3427 30-03-2020 20:10:18 3 C 30 %
3428 30-03-2020 20:20:17 2.8 C 30 %
3429 30-03-2020 20:30:18 3.3 C 31 %
3430 30-03-2020 20:40:18 3.2 C 30 %
3431 30-03-2020 20:50:18 3.3 C 31 %
3432 30-03-2020 21:00:18 4 C 29 %
3433 30-03-2020 21:10:18 4.1 C 29 %
3434 30-03-2020 21:20:18 4.2 C 30 %
3435 30-03-2020 21:30:18 4.3 C 30 %
3436 30-03-2020 21:40:18 4.2 C 30 %
3437 30-03-2020 21:50:18 4.1 C 30 %
3438 30-03-2020 22:00:18 3.7 C 32 %
3439 30-03-2020 22:10:18 3.7 C 33 %
3440 30-03-2020 22:20:17 3.9 C 32 %
3441 30-03-2020 22:30:18 4 C 31 %
3442 30-03-2020 22:40:18 4.1 C 31 %
3443 30-03-2020 22:50:18 4.2 C 31 %
3444 30-03-2020 23:00:18 4.1 C 31 %
3445 30-03-2020 23:10:18 4.2 C 30 %
3446 30-03-2020 23:20:18 4.2 C 31 %
3447 30-03-2020 23:30:18 4.1 C 31 %
3448 30-03-2020 23:40:18 4.2 C 31 %
3449 30-03-2020 23:50:17 4.2 C 31 %
3450 31-03-2020 00:00:18 4.3 C 30 %
Sensor: Nr:Datum:Temp:Feuchte:
Aussen-T/F 3451 31-03-2020 00:10:18 4.3 C 30 %
3452 31-03-2020 00:20:18 4.2 C 31 %
3453 31-03-2020 00:30:18 4.2 C 31 %
3454 31-03-2020 00:40:18 4.2 C 31 %
3455 31-03-2020 00:50:18 4.3 C 31 %
3456 31-03-2020 01:00:18 4.4 C 32 %
3457 31-03-2020 01:10:18 4 C 34 %
3458 31-03-2020 01:20:18 3.8 C 36 %
3459 31-03-2020 01:30:18 3.8 C 36 %
3460 31-03-2020 01:40:18 3.7 C 37 %
3461 31-03-2020 01:50:18 4 C 37 %
3462 31-03-2020 02:00:18 3.9 C 38 %
3463 31-03-2020 02:10:18 3.4 C 39 %
3464 31-03-2020 02:20:17 3.5 C 39 %
3465 31-03-2020 02:30:18 3.7 C 39 %
3466 31-03-2020 02:40:18 3.3 C 40 %
3467 31-03-2020 02:50:18 2.8 C 41 %
3468 31-03-2020 03:00:18 2.5 C 41 %
3469 31-03-2020 03:10:18 2.2 C 42 %
3470 31-03-2020 03:20:17 2.4 C 42 %
3471 31-03-2020 03:30:18 2.3 C 42 %
3472 31-03-2020 03:40:18 2.3 C 43 %
3473 31-03-2020 03:50:18 2.7 C 43 %
3474 31-03-2020 04:00:18 2.9 C 42 %
3475 31-03-2020 04:10:18 3 C 42 %
Sensor: Nr:Datum:Temp:Feuchte:
Aussen-T/F 3476 31-03-2020 04:20:18 3.1 C 42 %
3477 31-03-2020 04:30:17 3.2 C 42 %
3478 31-03-2020 04:40:18 3.2 C 41 %
3479 31-03-2020 04:50:17 3.5 C 41 %
3480 31-03-2020 05:00:18 3.4 C 41 %
3481 31-03-2020 05:10:18 3 C 41 %
3482 31-03-2020 05:20:17 2.8 C 43 %
3483 31-03-2020 05:30:18 2.5 C 43 %
3484 31-03-2020 05:40:18 2.3 C 43 %
3485 31-03-2020 05:50:18 1.9 C 44 %
3486 31-03-2020 06:00:18 1.7 C 44 %
3487 31-03-2020 06:10:18 1.6 C 45 %
3488 31-03-2020 06:20:18 1.5 C 45 %
3489 31-03-2020 06:30:18 1.7 C 45 %
3490 31-03-2020 06:40:18 2 C 45 %
3491 31-03-2020 06:50:18 2.1 C 45 %
3492 31-03-2020 07:00:18 2.2 C 45 %
3493 31-03-2020 07:10:18 2.3 C 45 %
3494 31-03-2020 07:20:18 2.2 C 44 %
3495 31-03-2020 07:30:18 2.1 C 44 %
3496 31-03-2020 07:40:18 1.7 C 45 %
3497 31-03-2020 07:50:17 2 C 45 %
3498 31-03-2020 08:00:18 2.5 C 45 %
3499 31-03-2020 08:10:18 3.1 C 43 %
3500 31-03-2020 08:20:18 3.3 C 42 %
Sensor: Nr:Datum:Temp:Feuchte:
Aussen-T/F 3501 31-03-2020 08:30:18 3.5 C 41 %
3502 31-03-2020 08:40:18 3.7 C 40 %
3503 31-03-2020 08:50:17 4 C 38 %
3504 31-03-2020 09:00:18 3.9 C 38 %
3505 31-03-2020 09:10:18 3.9 C 37 %
3506 31-03-2020 09:20:18 4 C 36 %
3507 31-03-2020 09:30:17 4 C 36 %
3508 31-03-2020 09:40:17 4.1 C 35 %
3509 31-03-2020 09:50:18 4.3 C 35 %
3510 31-03-2020 10:00:18 4.8 C 34 %
3511 31-03-2020 10:10:18 4.7 C 34 %
3512 31-03-2020 10:20:18 4.5 C 34 %
3513 31-03-2020 10:30:18 4.4 C 34 %
3514 31-03-2020 10:40:18 4.3 C 34 %
3515 31-03-2020 10:50:17 4.3 C 33 %
3516 31-03-2020 11:00:17 4.3 C 33 %
3517 31-03-2020 11:10:17 4.4 C 32 %
3518 31-03-2020 11:20:18 4.7 C 31 %
3519 31-03-2020 11:30:18 5.4 C 30 %
3520 31-03-2020 11:40:18 5.3 C 30 %
3521 31-03-2020 11:50:17 5.3 C 29 %
3522 31-03-2020 12:00:18 5.6 C 27 %
3523 31-03-2020 12:10:18 6.3 C 25 %
3524 31-03-2020 12:20:17 6.4 C 20 %
3525 31-03-2020 12:30:18 9.2 C 20 %
Sensor: Nr:Datum:Temp:Feuchte:
Aussen-T/F 3526 31-03-2020 12:40:18 8.4 C 20 %
3527 31-03-2020 12:50:18 7 C 20 %
3528 31-03-2020 13:00:17 7.5 C 20 %
3529 31-03-2020 13:10:17 7.1 C 20 %
3530 31-03-2020 13:20:17 7.3 C 20 %
3531 31-03-2020 13:30:17 7 C 20 %
3532 31-03-2020 13:40:17 8.1 C 20 %
3533 31-03-2020 13:51:17 8.4 C 20 %
3534 31-03-2020 14:00:17 8.5 C 20 %
3535 31-03-2020 14:10:17 9.7 C 20 %
3536 31-03-2020 14:20:17 11.2 C 20 %
3537 31-03-2020 14:30:17 12.6 C 20 %
3538 31-03-2020 14:40:17 11.7 C 20 %
3539 31-03-2020 14:51:17 12 C 20 %
3540 31-03-2020 15:00:17 12 C 20 %
3541 31-03-2020 15:10:18 13.1 C 20 %
3542 31-03-2020 15:20:17 13.2 C 20 %
3543 31-03-2020 15:30:17 13.5 C 20 %
3544 31-03-2020 15:40:17 14.6 C 20 %
3545 31-03-2020 15:50:18 13.9 C 20 %
3546 31-03-2020 16:00:17 16.8 C 20 %
3547 31-03-2020 16:10:17 14.8 C 20 %
3548 31-03-2020 16:20:17 15.8 C 20 %
3549 31-03-2020 16:31:17 15.1 C 20 %
3550 31-03-2020 16:40:17 14 C 20 %
Sensor: Nr:Datum:Temp:Feuchte:
Aussen-T/F 3551 31-03-2020 16:50:17 13.3 C 20 %
3552 31-03-2020 17:00:17 14.4 C 20 %
3553 31-03-2020 17:10:17 16.2 C 20 %
3554 31-03-2020 17:21:17 15.3 C 20 %
3555 31-03-2020 17:31:17 14.7 C 20 %
3556 31-03-2020 17:40:17 15.5 C 20 %
3557 31-03-2020 17:51:17 10.6 C 20 %
3558 31-03-2020 18:01:17 10.5 C 20 %
3559 31-03-2020 18:11:17 10.2 C 20 %
3560 31-03-2020 18:21:17 9.8 C 20 %
3561 31-03-2020 18:31:17 9.6 C 20 %
3562 31-03-2020 18:40:17 9.4 C 20 %
3563 31-03-2020 18:51:17 9.1 C 20 %
3564 31-03-2020 19:00:17 9.1 C 20 %
3565 31-03-2020 19:10:17 8.8 C 20 %
3566 31-03-2020 19:20:17 8.7 C 20 %
3567 31-03-2020 19:31:17 8.2 C 20 %
3568 31-03-2020 19:41:17 7.7 C 20 %
3569 31-03-2020 19:50:17 6.6 C 20 %
3570 31-03-2020 20:01:17 5.6 C 20 %
3571 31-03-2020 20:11:17 5.5 C 20 %
3572 31-03-2020 20:21:17 5.3 C 20 %
3573 31-03-2020 20:31:17 4.7 C 20 %
3574 31-03-2020 20:41:17 4.4 C 20 %
3575 31-03-2020 20:51:17 4 C 20 %
Sensor: Nr:Datum:Temp:Feuchte:
Aussen-T/F 3576 31-03-2020 21:00:17 3.7 C 20 %
3577 31-03-2020 21:10:18 3.9 C 20 %
3578 31-03-2020 21:21:17 3.7 C 20 %
3579 31-03-2020 21:31:17 3.5 C 20 %
3580 31-03-2020 21:41:17 3.2 C 23 %
3581 31-03-2020 21:51:17 3.2 C 23 %
3582 31-03-2020 22:00:18 3 C 23 %
3583 31-03-2020 22:10:18 2.7 C 25 %
3584 31-03-2020 22:21:17 2.7 C 25 %
3585 31-03-2020 22:31:17 2.6 C 25 %
3586 31-03-2020 22:41:17 1.8 C 30 %
3587 31-03-2020 22:50:18 1.6 C 30 %
3588 31-03-2020 23:01:17 1.6 C 30 %
3589 31-03-2020 23:11:17 1.7 C 30 %
3590 31-03-2020 23:21:17 1.4 C 31 %
3591 31-03-2020 23:30:17 1.3 C 31 %
3592 31-03-2020 23:40:18 1.6 C 31 %
3593 31-03-2020 23:51:17 0.9 C 32 %
3594 01-04-2020 00:01:17 1.2 C 31 %
3595 01-04-2020 00:11:17 0 C 35 %
3596 01-04-2020 00:21:17 0.8 C 33 %
3597 01-04-2020 00:31:17 0.6 C 32 %
3598 01-04-2020 00:41:17 0.5 C 33 %
3599 01-04-2020 00:51:17 -0.3 C 35 %
3600 01-04-2020 01:01:17 -0.1 C 36 %
Sensor: Nr:Datum:Temp:Feuchte:
Aussen-T/F 3601 01-04-2020 01:11:17 -0.3 C 35 %
3602 01-04-2020 01:21:17 -1 C 37 %
3603 01-04-2020 01:30:18 -1.4 C 38 %
3604 01-04-2020 01:40:18 -1.7 C 38 %
3605 01-04-2020 01:51:17 -1.9 C 38 %
3606 01-04-2020 02:01:17 -1.9 C 38 %
3607 01-04-2020 02:11:17 -2 C 38 %
3608 01-04-2020 02:21:17 -2.1 C 38 %
3609 01-04-2020 02:31:17 -2.3 C 39 %
3610 01-04-2020 02:41:17 -2.4 C 38 %
3611 01-04-2020 02:50:18 -2.4 C 39 %
3612 01-04-2020 03:01:17 -2.5 C 38 %
3613 01-04-2020 03:11:17 -2.6 C 38 %
3614 01-04-2020 03:21:17 -2.8 C 39 %
3615 01-04-2020 03:31:17 -2.7 C 38 %
3616 01-04-2020 03:41:18 -3 C 38 %
3617 01-04-2020 03:51:17 -3 C 39 %
3618 01-04-2020 04:01:17 -2.8 C 39 %
3619 01-04-2020 04:11:17 -3.1 C 38 %
3620 01-04-2020 04:21:17 -3.2 C 39 %
3621 01-04-2020 04:31:18 -3.5 C 38 %
3622 01-04-2020 04:41:19 -3.4 C 39 %
3623 01-04-2020 04:51:17 -3.5 C 39 %
3624 01-04-2020 05:01:18 -3.6 C 39 %
3625 01-04-2020 05:11:19 -3.8 C 40 %
Sensor: Nr:Datum:Temp:Feuchte:
Aussen-T/F 3626 01-04-2020 05:21:17 -3.8 C 40 %
3627 01-04-2020 05:31:18 -3.8 C 40 %
3628 01-04-2020 05:41:18 -4 C 40 %
3629 01-04-2020 05:51:17 -4.2 C 40 %
3630 01-04-2020 06:01:18 -4.2 C 40 %
3631 01-04-2020 06:11:18 -4 C 40 %
3632 01-04-2020 06:21:17 -4.2 C 40 %
3633 01-04-2020 06:31:17 -4.2 C 41 %
3634 01-04-2020 06:41:17 -4.3 C 41 %
3635 01-04-2020 06:51:17 -4.5 C 41 %
3636 01-04-2020 07:01:18 -4.6 C 41 %
3637 01-04-2020 07:11:19 -4.7 C 41 %
3638 01-04-2020 07:21:17 -4.5 C 41 %
3639 01-04-2020 07:31:18 -4.4 C 41 %
3640 01-04-2020 07:41:18 -4.5 C 41 %
3641 01-04-2020 07:51:17 -4.3 C 41 %
3642 01-04-2020 08:01:17 -4.2 C 41 %
3643 01-04-2020 08:11:17 -4.2 C 41 %
3644 01-04-2020 08:21:17 -3.7 C 41 %
3645 01-04-2020 08:31:17 -3.8 C 41 %
3646 01-04-2020 08:41:17 -3.7 C 41 %
3647 01-04-2020 08:51:17 -3.4 C 40 %
3648 01-04-2020 09:01:17 -3.4 C 40 %
3649 01-04-2020 09:11:17 -2.7 C 40 %
3650 01-04-2020 09:21:17 -2.6 C 40 %
Sensor: Nr:Datum:Temp:Feuchte:
Aussen-T/F 3651 01-04-2020 09:31:17 -2.5 C 40 %
3652 01-04-2020 09:41:17 -2.1 C 40 %
3653 01-04-2020 09:51:17 -1.5 C 39 %
3654 01-04-2020 10:01:17 -1 C 39 %
3655 01-04-2020 10:11:17 -0.9 C 40 %
3656 01-04-2020 10:21:17 -0.4 C 40 %
3657 01-04-2020 10:31:18 0.5 C 39 %
3658 01-04-2020 10:41:18 1 C 37 %
3659 01-04-2020 10:51:17 1.6 C 36 %
3660 01-04-2020 11:01:17 2.4 C 35 %
3661 01-04-2020 11:11:17 3.2 C 33 %
3662 01-04-2020 11:21:17 4.2 C 29 %
3663 01-04-2020 11:31:17 4.8 C 20 %
3664 01-04-2020 11:41:17 5.3 C 20 %
3665 01-04-2020 11:51:17 6 C 20 %
3666 01-04-2020 12:01:17 6.6 C 20 %
3667 01-04-2020 12:11:18 7.1 C 20 %
3668 01-04-2020 12:21:17 8.9 C 20 %
3669 01-04-2020 12:31:17 10.3 C 20 %
3670 01-04-2020 12:41:17 9.2 C 20 %
3671 01-04-2020 12:51:17 8 C 20 %
3672 01-04-2020 13:01:17 9.3 C 20 %
3673 01-04-2020 13:11:17 9.3 C 20 %
3674 01-04-2020 13:21:16 8.6 C 20 %
3675 01-04-2020 13:31:17 9.2 C 20 %
Sensor: Nr:Datum:Temp:Feuchte:
Aussen-T/F 3676 01-04-2020 13:41:17 9.6 C 20 %
3677 01-04-2020 13:51:17 10 C 20 %
3678 01-04-2020 14:01:17 10.3 C 20 %
3679 01-04-2020 14:11:17 10.7 C 20 %
3680 01-04-2020 14:21:17 13.2 C 20 %
3681 01-04-2020 14:31:16 15.9 C 20 %
3682 01-04-2020 14:41:16 16.3 C 20 %
3683 01-04-2020 14:51:17 13.7 C 20 %
3684 01-04-2020 15:01:17 14.2 C 20 %
3685 01-04-2020 15:11:17 17.2 C 20 %
3686 01-04-2020 15:21:17 16.8 C 20 %
3687 01-04-2020 15:31:16 16.3 C 20 %
3688 01-04-2020 15:41:16 18.2 C 20 %
3689 01-04-2020 15:51:17 19.5 C 20 %
3690 01-04-2020 16:01:16 18.7 C 20 %
3691 01-04-2020 16:11:16 18.7 C 20 %
3692 01-04-2020 16:21:16 19.7 C 20 %
3693 01-04-2020 16:31:17 21.3 C 20 %
3694 01-04-2020 16:41:17 15.5 C 20 %
3695 01-04-2020 16:51:16 18.4 C 20 %
3696 01-04-2020 17:01:16 17.2 C 20 %
3697 01-04-2020 17:11:16 17.4 C 20 %
3698 01-04-2020 17:21:17 17.7 C 20 %
3699 01-04-2020 17:31:17 18.5 C 20 %
3700 01-04-2020 17:41:17 16.8 C 20 %
Sensor: Nr:Datum:Temp:Feuchte:
Aussen-T/F 3701 01-04-2020 17:51:17 15.8 C 20 %
3702 01-04-2020 18:01:17 12.6 C 20 %
3703 01-04-2020 18:11:17 12 C 20 %
3704 01-04-2020 18:21:16 12.1 C 20 %
3705 01-04-2020 18:31:17 11.7 C 20 %
3706 01-04-2020 18:41:17 11.8 C 20 %
3707 01-04-2020 18:51:16 11.6 C 20 %
3708 01-04-2020 19:01:17 11 C 20 %
3709 01-04-2020 19:11:17 10.7 C 20 %
3710 01-04-2020 19:21:17 10.4 C 20 %
3711 01-04-2020 19:31:17 9.9 C 20 %
3712 01-04-2020 19:41:17 9.6 C 20 %
3713 01-04-2020 19:51:16 8.9 C 20 %
3714 01-04-2020 20:01:17 8.1 C 20 %
3715 01-04-2020 20:11:17 7.8 C 20 %
3716 01-04-2020 20:21:16 8.1 C 20 %
3717 01-04-2020 20:31:16 7.1 C 20 %
3718 01-04-2020 20:41:16 6.2 C 20 %
3719 01-04-2020 20:51:16 5.9 C 20 %
3720 01-04-2020 21:01:16 6 C 20 %
3721 01-04-2020 21:11:16 6 C 20 %
3722 01-04-2020 21:21:16 5.7 C 20 %
3723 01-04-2020 21:31:16 5.7 C 20 %
3724 01-04-2020 21:41:16 5.4 C 20 %
3725 01-04-2020 21:51:16 4 C 21 %
Sensor: Nr:Datum:Temp:Feuchte:
Aussen-T/F 3726 01-04-2020 22:01:16 4.2 C 21 %
3727 01-04-2020 22:11:16 3.7 C 26 %
3728 01-04-2020 22:21:16 3.2 C 26 %
3729 01-04-2020 22:31:16 2.5 C 29 %
3730 01-04-2020 22:41:16 2.6 C 28 %
3731 01-04-2020 22:51:16 2 C 30 %
3732 01-04-2020 23:01:17 1.7 C 33 %
3733 01-04-2020 23:11:17 1.7 C 32 %
3734 01-04-2020 23:21:16 1.4 C 34 %
3735 01-04-2020 23:31:16 1.2 C 34 %
3736 01-04-2020 23:41:16 1 C 35 %
3737 01-04-2020 23:51:16 1.1 C 34 %
3738 02-04-2020 00:01:17 1 C 35 %
3739 02-04-2020 00:11:17 0.4 C 36 %
3740 02-04-2020 00:21:16 0.4 C 36 %
3741 02-04-2020 00:31:17 0.2 C 36 %
3742 02-04-2020 00:41:17 0.3 C 37 %
3743 02-04-2020 00:51:16 0.3 C 36 %
3744 02-04-2020 01:01:17 0 C 37 %
3745 02-04-2020 01:11:17 -0.4 C 38 %
3746 02-04-2020 01:21:16 -0.6 C 38 %
3747 02-04-2020 01:31:17 -0.7 C 38 %
3748 02-04-2020 01:41:17 -0.7 C 38 %
3749 02-04-2020 01:51:16 -0.9 C 39 %
3750 02-04-2020 02:01:16 -1 C 39 %
Sensor: Nr:Datum:Temp:Feuchte:
Aussen-T/F 3751 02-04-2020 02:11:16 -1 C 39 %
3752 02-04-2020 02:21:16 -1.2 C 39 %
3753 02-04-2020 02:31:17 -1.3 C 40 %
3754 02-04-2020 02:41:17 -1.6 C 40 %
3755 02-04-2020 02:51:17 -1.5 C 40 %
3756 02-04-2020 03:01:17 -1.5 C 40 %
3757 02-04-2020 03:11:17 -1.5 C 40 %
3758 02-04-2020 03:21:17 -1.3 C 40 %
3759 02-04-2020 03:31:17 -1.4 C 40 %
3760 02-04-2020 03:41:17 -1.6 C 40 %
3761 02-04-2020 03:51:18 -1.7 C 40 %
3762 02-04-2020 04:01:18 -2.1 C 40 %
3763 02-04-2020 04:11:18 -1.7 C 41 %
3764 02-04-2020 04:21:18 -1.6 C 40 %
3765 02-04-2020 04:31:17 -2 C 40 %
3766 02-04-2020 04:41:17 -2.4 C 41 %
3767 02-04-2020 04:51:17 -2.7 C 41 %
3768 02-04-2020 05:01:18 -2.6 C 41 %
3769 02-04-2020 05:11:18 -2.6 C 41 %
3770 02-04-2020 05:21:17 -2.6 C 41 %
3771 02-04-2020 05:31:18 -2.7 C 41 %
3772 02-04-2020 05:41:18 -2.6 C 41 %
3773 02-04-2020 05:51:17 -2.5 C 41 %
3774 02-04-2020 06:01:17 -2.6 C 41 %
3775 02-04-2020 06:11:17 -3 C 41 %
Sensor: Nr:Datum:Temp:Feuchte:
Aussen-T/F 3776 02-04-2020 06:21:17 -3 C 42 %
3777 02-04-2020 06:31:17 -2.6 C 43 %
3778 02-04-2020 06:41:17 -3.1 C 42 %
3779 02-04-2020 06:51:17 -2.9 C 42 %
3780 02-04-2020 07:01:17 -3.3 C 42 %
3781 02-04-2020 07:11:17 -3 C 42 %
3782 02-04-2020 07:21:17 -3.1 C 42 %
3783 02-04-2020 07:31:17 -3 C 43 %
3784 02-04-2020 07:41:18 -2.9 C 42 %
3785 02-04-2020 07:51:17 -3 C 43 %
3786 02-04-2020 08:01:17 -2.7 C 43 %
3787 02-04-2020 08:11:18 -2.5 C 43 %
3788 02-04-2020 08:21:17 -2.2 C 42 %
3789 02-04-2020 08:31:17 -2.2 C 42 %
3790 02-04-2020 08:41:17 -2 C 42 %
3791 02-04-2020 08:51:17 -1.8 C 42 %
3792 02-04-2020 09:01:17 -1.7 C 42 %
3793 02-04-2020 09:11:17 -1.5 C 41 %
3794 02-04-2020 09:21:17 -1.3 C 41 %
3795 02-04-2020 09:31:17 -1 C 41 %
3796 02-04-2020 09:41:17 -0.6 C 41 %
3797 02-04-2020 09:51:18 -0.3 C 41 %
3798 02-04-2020 10:01:18 0.1 C 41 %
3799 02-04-2020 10:11:18 0.6 C 41 %
3800 02-04-2020 10:21:17 0.8 C 41 %
Sensor: Nr:Datum:Temp:Feuchte:
Aussen-T/F 3801 02-04-2020 10:31:17 1.7 C 40 %
3802 02-04-2020 10:41:17 2.2 C 39 %
3803 02-04-2020 10:51:17 3.1 C 37 %
3804 02-04-2020 11:01:17 3.6 C 37 %
3805 02-04-2020 11:11:17 4.6 C 35 %
3806 02-04-2020 11:21:17 5.7 C 30 %
3807 02-04-2020 11:31:18 6.5 C 30 %
3808 02-04-2020 11:41:18 6.9 C 29 %
3809 02-04-2020 11:51:17 7.4 C 27 %
3810 02-04-2020 12:01:17 8.1 C 27 %
3811 02-04-2020 12:11:17 8.5 C 25 %
3812 02-04-2020 12:21:17 10.5 C 20 %
3813 02-04-2020 12:31:18 12.2 C 20 %
3814 02-04-2020 12:41:18 10.8 C 20 %
3815 02-04-2020 12:51:17 10.3 C 20 %
3816 02-04-2020 13:01:17 11 C 20 %
3817 02-04-2020 13:11:18 11.5 C 20 %
3818 02-04-2020 13:21:17 11.6 C 20 %
3819 02-04-2020 13:31:17 11.4 C 20 %
3820 02-04-2020 13:41:17 12.3 C 20 %
3821 02-04-2020 13:51:17 12.5 C 20 %
3822 02-04-2020 14:01:17 11.8 C 20 %
3823 02-04-2020 14:11:17 12.6 C 20 %
3824 02-04-2020 14:21:17 15.5 C 20 %
3825 02-04-2020 14:31:18 18.1 C 20 %
Sensor: Nr:Datum:Temp:Feuchte:
Aussen-T/F 3826 02-04-2020 14:41:18 18.3 C 20 %
3827 02-04-2020 14:51:17 18.3 C 20 %
3828 02-04-2020 15:01:18 19.7 C 20 %
3829 02-04-2020 15:11:18 17.5 C 20 %
3830 02-04-2020 15:21:17 19.2 C 20 %
3831 02-04-2020 15:31:18 19.8 C 20 %
3832 02-04-2020 15:41:18 19.3 C 20 %
3833 02-04-2020 15:51:17 19.4 C 20 %
3834 02-04-2020 16:01:17 21.3 C 20 %
3835 02-04-2020 16:11:17 19.9 C 20 %
3836 02-04-2020 16:21:17 16.6 C 20 %
3837 02-04-2020 16:31:18 18 C 20 %
3838 02-04-2020 16:41:18 17.6 C 20 %
3839 02-04-2020 16:51:17 17.8 C 20 %
3840 02-04-2020 17:01:17 17.3 C 20 %
3841 02-04-2020 17:11:17 16.6 C 20 %
3842 02-04-2020 17:21:17 15.8 C 20 %
3843 02-04-2020 17:31:18 15.5 C 20 %
3844 02-04-2020 17:41:18 14.7 C 20 %
3845 02-04-2020 17:51:17 14.8 C 20 %
3846 02-04-2020 18:01:17 12.8 C 20 %
3847 02-04-2020 18:11:17 12.2 C 20 %
3848 02-04-2020 18:21:17 12.3 C 20 %
3849 02-04-2020 18:31:17 11.8 C 20 %
3850 02-04-2020 18:41:17 11.3 C 20 %
Sensor: Nr:Datum:Temp:Feuchte:
Aussen-T/F 3851 02-04-2020 18:51:17 11.1 C 20 %
3852 02-04-2020 19:01:17 10.7 C 20 %
3853 02-04-2020 19:11:17 10.2 C 20 %
3854 02-04-2020 19:21:17 10 C 20 %
3855 02-04-2020 19:31:17 9.6 C 20 %
3856 02-04-2020 19:41:17 9.5 C 20 %
3857 02-04-2020 19:51:17 8.7 C 20 %
3858 02-04-2020 20:01:17 8.5 C 20 %
3859 02-04-2020 20:11:17 8.5 C 20 %
3860 02-04-2020 20:21:17 7.9 C 20 %
3861 02-04-2020 20:31:17 7.8 C 20 %
3862 02-04-2020 20:41:17 7.2 C 21 %
3863 02-04-2020 20:51:17 6.9 C 25 %
3864 02-04-2020 21:01:17 6.4 C 26 %
3865 02-04-2020 21:11:17 6.3 C 27 %
3866 02-04-2020 21:21:17 5.9 C 28 %
3867 02-04-2020 21:31:18 5.7 C 29 %
3868 02-04-2020 21:41:18 5.6 C 30 %
3869 02-04-2020 21:51:17 5.3 C 30 %
3870 02-04-2020 22:01:17 5.2 C 30 %
3871 02-04-2020 22:11:17 5.5 C 30 %
3872 02-04-2020 22:21:17 5 C 30 %
3873 02-04-2020 22:31:18 5.3 C 31 %
3874 02-04-2020 22:41:18 5.2 C 31 %
3875 02-04-2020 22:51:17 5.1 C 31 %
Sensor: Nr:Datum:Temp:Feuchte:
Aussen-T/F 3876 02-04-2020 23:01:17 4.8 C 32 %
3877 02-04-2020 23:11:17 5 C 31 %
3878 02-04-2020 23:21:17 5 C 31 %
3879 02-04-2020 23:31:18 4.7 C 33 %
3880 02-04-2020 23:41:18 3.9 C 35 %
3881 02-04-2020 23:51:17 3.1 C 36 %
3882 03-04-2020 00:01:18 2.7 C 38 %
3883 03-04-2020 00:11:18 2.3 C 39 %
3884 03-04-2020 00:21:17 2.6 C 40 %
3885 03-04-2020 00:31:17 2.6 C 39 %
3886 03-04-2020 00:41:17 3.2 C 38 %
3887 03-04-2020 00:51:17 2.4 C 39 %
3888 03-04-2020 01:01:18 2.4 C 39 %
3889 03-04-2020 01:11:18 2.4 C 39 %
3890 03-04-2020 01:21:17 2.6 C 39 %
3891 03-04-2020 01:31:18 2.7 C 39 %
3892 03-04-2020 01:41:18 2.5 C 39 %
3893 03-04-2020 01:51:17 2.3 C 39 %
3894 03-04-2020 02:01:18 2.2 C 39 %
3895 03-04-2020 02:11:18 2.3 C 39 %
3896 03-04-2020 02:21:18 3.1 C 38 %
3897 03-04-2020 02:31:18 3.2 C 38 %
3898 03-04-2020 02:41:18 2.6 C 39 %
3899 03-04-2020 02:51:17 2.8 C 39 %
3900 03-04-2020 03:01:18 3 C 38 %
Sensor: Nr:Datum:Temp:Feuchte:
Aussen-T/F 3901 03-04-2020 03:11:18 3.6 C 38 %
3902 03-04-2020 03:21:17 3.9 C 38 %
3903 03-04-2020 03:31:17 4.4 C 36 %
3904 03-04-2020 03:41:17 4.7 C 36 %
3905 03-04-2020 03:51:17 4.6 C 36 %
3906 03-04-2020 04:01:17 5 C 35 %
3907 03-04-2020 04:11:17 5.6 C 35 %
3908 03-04-2020 04:21:17 4.9 C 35 %
3909 03-04-2020 04:31:18 4.7 C 36 %
3910 03-04-2020 04:41:18 4.6 C 36 %
3911 03-04-2020 04:51:18 4.4 C 36 %
3912 03-04-2020 05:01:18 4.3 C 36 %
3913 03-04-2020 05:11:18 4.5 C 36 %
3914 03-04-2020 05:21:17 4.8 C 36 %
3915 03-04-2020 05:31:17 4.8 C 36 %
3916 03-04-2020 05:41:17 5.2 C 35 %
3917 03-04-2020 05:51:17 5.3 C 35 %
3918 03-04-2020 06:01:18 5.4 C 35 %
3919 03-04-2020 06:11:18 5.4 C 35 %
3920 03-04-2020 06:21:17 5.1 C 35 %
3921 03-04-2020 06:31:17 5.1 C 36 %
3922 03-04-2020 06:41:17 5.1 C 35 %
3923 03-04-2020 06:51:17 5.2 C 35 %
3924 03-04-2020 07:01:17 5.7 C 35 %
3925 03-04-2020 07:11:17 5.6 C 35 %
Sensor: Nr:Datum:Temp:Feuchte:
Aussen-T/F 3926 03-04-2020 07:21:18 5.5 C 35 %
3927 03-04-2020 07:31:17 5.7 C 35 %
3928 03-04-2020 07:41:17 5.6 C 35 %
3929 03-04-2020 07:51:17 5.6 C 35 %
3930 03-04-2020 08:01:17 5.7 C 35 %
3931 03-04-2020 08:11:17 5.9 C 35 %
3932 03-04-2020 08:21:18 5.9 C 35 %
3933 03-04-2020 08:31:17 5.9 C 35 %
3934 03-04-2020 08:41:17 6.1 C 35 %
3935 03-04-2020 08:51:18 6.6 C 35 %
3936 03-04-2020 09:01:17 7 C 34 %
3937 03-04-2020 09:11:17 7.1 C 34 %
3938 03-04-2020 09:21:18 7.6 C 34 %
3939 03-04-2020 09:31:18 7.7 C 34 %
3940 03-04-2020 09:41:18 8 C 33 %
3941 03-04-2020 09:51:17 8.4 C 33 %
3942 03-04-2020 10:01:18 8.6 C 32 %
3943 03-04-2020 10:11:18 8.6 C 32 %
3944 03-04-2020 10:21:17 9 C 32 %
3945 03-04-2020 10:31:18 9.4 C 32 %
3946 03-04-2020 10:41:18 9.2 C 32 %
3947 03-04-2020 10:51:17 9.6 C 32 %
3948 03-04-2020 11:01:17 10.6 C 31 %
3949 03-04-2020 11:11:17 11.2 C 29 %
3950 03-04-2020 11:21:17 10.9 C 29 %
Sensor: Nr:Datum:Temp:Feuchte:
Aussen-T/F 3951 03-04-2020 11:31:17 11.1 C 28 %
3952 03-04-2020 11:41:17 11.5 C 26 %
3953 03-04-2020 11:51:17 11.4 C 26 %
3954 03-04-2020 12:01:17 11.1 C 26 %
3955 03-04-2020 12:11:17 11.2 C 26 %
3956 03-04-2020 12:21:17 11.4 C 26 %
3957 03-04-2020 12:31:17 11.6 C 25 %
3958 03-04-2020 12:41:18 11.1 C 25 %
3959 03-04-2020 12:51:17 11.1 C 25 %
3960 03-04-2020 13:01:18 11.2 C 25 %
3961 03-04-2020 13:11:18 11.7 C 25 %
3962 03-04-2020 13:21:17 12.2 C 22 %
3963 03-04-2020 13:31:17 11.8 C 22 %
3964 03-04-2020 13:41:17 11.8 C 23 %
3965 03-04-2020 13:51:17 12.2 C 22 %
3966 03-04-2020 14:01:18 12.3 C 20 %
3967 03-04-2020 14:11:18 11.6 C 21 %
3968 03-04-2020 14:21:17 11.7 C 21 %
3969 03-04-2020 14:31:17 11.6 C 21 %
3970 03-04-2020 14:41:18 11.4 C 23 %
3971 03-04-2020 14:51:17 11.7 C 21 %
3972 03-04-2020 15:01:17 11.8 C 20 %
3973 03-04-2020 15:11:17 11.7 C 20 %
3974 03-04-2020 15:21:18 11.8 C 20 %
3975 03-04-2020 15:31:17 12.1 C 20 %
Sensor: Nr:Datum:Temp:Feuchte:
Aussen-T/F 3976 03-04-2020 15:41:17 12.5 C 20 %
3977 03-04-2020 15:51:17 13.1 C 20 %
3978 03-04-2020 16:01:17 12.6 C 20 %
3979 03-04-2020 16:11:17 12.4 C 20 %
3980 03-04-2020 16:21:17 12.4 C 20 %
3981 03-04-2020 16:31:17 12.3 C 20 %
3982 03-04-2020 16:41:17 12.4 C 20 %
3983 03-04-2020 16:51:17 12.4 C 20 %
3984 03-04-2020 17:01:17 12.2 C 20 %
3985 03-04-2020 17:11:17 12.2 C 20 %
3986 03-04-2020 17:21:17 12.2 C 20 %
3987 03-04-2020 17:31:17 12.2 C 20 %
3988 03-04-2020 17:41:17 12.4 C 20 %
3989 03-04-2020 17:51:17 11.9 C 20 %
3990 03-04-2020 18:01:17 11.5 C 20 %
3991 03-04-2020 18:11:17 11.7 C 20 %
3992 03-04-2020 18:21:17 11.5 C 20 %
3993 03-04-2020 18:31:18 11.4 C 20 %
3994 03-04-2020 18:41:18 11 C 20 %
3995 03-04-2020 18:51:17 11 C 20 %
3996 03-04-2020 19:01:18 10.8 C 20 %
3997 03-04-2020 19:11:18 10.7 C 20 %
3998 03-04-2020 19:21:17 10.5 C 20 %
3999 03-04-2020 19:31:17 10.2 C 20 %
4000 03-04-2020 19:41:17 10.3 C 20 %
Sensor: Nr:Datum:Temp:Feuchte:
Aussen-T/F 4001 03-04-2020 19:51:17 9.9 C 20 %
4002 03-04-2020 20:01:17 9.8 C 20 %
4003 03-04-2020 20:11:17 9.5 C 20 %
4004 03-04-2020 20:21:17 9.1 C 20 %
4005 03-04-2020 20:31:18 9.5 C 20 %
4006 03-04-2020 20:41:18 9.2 C 20 %
4007 03-04-2020 20:51:18 9.1 C 20 %
4008 03-04-2020 21:01:17 9.2 C 20 %
4009 03-04-2020 21:11:17 9.1 C 20 %
4010 03-04-2020 21:21:17 8.9 C 20 %
4011 03-04-2020 21:31:17 8.7 C 20 %
4012 03-04-2020 21:41:17 8.6 C 20 %
4013 03-04-2020 21:51:17 8.3 C 20 %
4014 03-04-2020 22:01:17 8.1 C 20 %
4015 03-04-2020 22:11:17 7.9 C 20 %
4016 03-04-2020 22:21:17 7.2 C 23 %
4017 03-04-2020 22:31:18 6.8 C 25 %
4018 03-04-2020 22:41:18 6.5 C 26 %
4019 03-04-2020 22:51:17 6.3 C 26 %
4020 03-04-2020 23:01:17 6.4 C 26 %
4021 03-04-2020 23:11:18 6.4 C 25 %
4022 03-04-2020 23:21:18 6.2 C 26 %
4023 03-04-2020 23:31:17 5.2 C 28 %
4024 03-04-2020 23:41:18 5 C 29 %
4025 03-04-2020 23:51:17 4.7 C 30 %
Sensor: Nr:Datum:Temp:Feuchte:
Aussen-T/F 4026 04-04-2020 00:01:17 4.8 C 30 %
4027 04-04-2020 00:11:18 4.8 C 30 %
4028 04-04-2020 00:21:17 4.7 C 30 %
4029 04-04-2020 00:31:17 5.2 C 28 %
4030 04-04-2020 00:41:17 4.5 C 29 %
4031 04-04-2020 00:51:17 4 C 30 %
4032 04-04-2020 01:01:17 4.6 C 30 %
4033 04-04-2020 01:11:17 4.3 C 30 %
4034 04-04-2020 01:21:18 3.9 C 31 %
4035 04-04-2020 01:31:17 4 C 32 %
4036 04-04-2020 01:41:17 3.1 C 35 %
4037 04-04-2020 01:51:17 2.2 C 37 %
4038 04-04-2020 02:01:18 1.7 C 39 %
4039 04-04-2020 02:11:18 1.4 C 40 %
4040 04-04-2020 02:21:17 1.2 C 40 %
4041 04-04-2020 02:31:17 0.9 C 41 %
4042 04-04-2020 02:41:17 0.8 C 41 %
4043 04-04-2020 02:51:17 0.8 C 42 %
4044 04-04-2020 03:01:18 0.6 C 42 %
4045 04-04-2020 03:11:18 0.4 C 42 %
4046 04-04-2020 03:21:17 0.3 C 43 %
4047 04-04-2020 03:31:18 0.6 C 43 %
4048 04-04-2020 03:41:18 0.5 C 42 %
4049 04-04-2020 03:51:17 -0.1 C 43 %
4050 04-04-2020 04:01:17 -0.4 C 43 %
Sensor: Nr:Datum:Temp:Feuchte:
Aussen-T/F 4051 04-04-2020 04:11:17 -0.6 C 43 %
4052 04-04-2020 04:21:17 -0.7 C 44 %
4053 04-04-2020 04:31:17 -0.6 C 44 %
4054 04-04-2020 04:41:17 -0.9 C 44 %
4055 04-04-2020 04:51:17 -0.9 C 45 %
4056 04-04-2020 05:01:18 -0.9 C 45 %
4057 04-04-2020 05:11:18 -1.2 C 45 %
4058 04-04-2020 05:21:18 -1.2 C 45 %
4059 04-04-2020 05:31:17 -1 C 45 %
4060 04-04-2020 05:41:17 -1.2 C 45 %
4061 04-04-2020 05:51:17 -1.2 C 45 %
4062 04-04-2020 06:01:18 -1.5 C 45 %
4063 04-04-2020 06:11:18 -1.5 C 45 %
4064 04-04-2020 06:21:17 -1.5 C 45 %
4065 04-04-2020 06:31:17 -1.8 C 45 %
4066 04-04-2020 06:41:17 -1.4 C 46 %
4067 04-04-2020 06:51:17 -1.5 C 45 %
4068 04-04-2020 07:01:18 -1.6 C 45 %
4069 04-04-2020 07:11:18 -1.8 C 45 %
4070 04-04-2020 07:21:17 -1.5 C 46 %
4071 04-04-2020 07:31:18 -1.8 C 45 %
4072 04-04-2020 07:41:18 -1.7 C 46 %
4073 04-04-2020 07:51:17 -1.8 C 45 %
4074 04-04-2020 08:01:17 -1.8 C 46 %
4075 04-04-2020 08:11:18 -1.7 C 46 %
Sensor: Nr:Datum:Temp:Feuchte:
Aussen-T/F 4076 04-04-2020 08:21:17 -1.5 C 46 %
4077 04-04-2020 08:31:17 -1.1 C 46 %
4078 04-04-2020 08:41:18 -1 C 46 %
4079 04-04-2020 08:51:17 -0.7 C 45 %
4080 04-04-2020 09:01:17 -0.3 C 45 %
4081 04-04-2020 09:11:17 0 C 45 %
4082 04-04-2020 09:21:17 -0.2 C 45 %
4083 04-04-2020 09:31:18 0.2 C 45 %
4084 04-04-2020 09:41:18 0.8 C 44 %
4085 04-04-2020 09:51:17 1.1 C 43 %
4086 04-04-2020 10:01:17 1.5 C 43 %
4087 04-04-2020 10:11:18 1.8 C 43 %
4088 04-04-2020 10:21:17 2.2 C 41 %
4089 04-04-2020 10:31:17 2.9 C 41 %
4090 04-04-2020 10:41:17 3.5 C 40 %
4091 04-04-2020 10:51:17 4.5 C 37 %
4092 04-04-2020 11:01:17 5.3 C 36 %
4093 04-04-2020 11:11:17 6.4 C 35 %
4094 04-04-2020 11:21:18 7.1 C 32 %
4095 04-04-2020 11:31:18 7.9 C 32 %
4096 04-04-2020 11:41:18 8.4 C 29 %
4097 04-04-2020 11:51:18 8.7 C 29 %
4098 04-04-2020 12:01:18 9.7 C 26 %
4099 04-04-2020 12:11:18 9.7 C 26 %
4100 04-04-2020 12:21:17 10.6 C 22 %
Sensor: Nr:Datum:Temp:Feuchte:
Aussen-T/F 4101 04-04-2020 12:31:17 10.9 C 20 %
4102 04-04-2020 12:41:17 11.4 C 20 %
4103 04-04-2020 12:51:17 10.8 C 20 %
4104 04-04-2020 13:01:17 11.1 C 20 %
4105 04-04-2020 13:11:17 12.1 C 20 %
4106 04-04-2020 13:21:17 11.6 C 20 %
4107 04-04-2020 13:31:17 11.4 C 20 %
4108 04-04-2020 13:41:17 12.2 C 20 %
4109 04-04-2020 13:51:18 12.5 C 20 %
4110 04-04-2020 14:01:17 12.1 C 20 %
4111 04-04-2020 14:11:17 13.7 C 20 %
4112 04-04-2020 14:21:17 14.6 C 20 %
4113 04-04-2020 14:31:17 16.6 C 20 %
4114 04-04-2020 14:41:17 17 C 20 %
4115 04-04-2020 14:51:17 16.3 C 20 %
4116 04-04-2020 15:01:18 18.1 C 20 %
4117 04-04-2020 15:11:18 18.9 C 20 %
4118 04-04-2020 15:21:17 16.9 C 20 %
4119 04-04-2020 15:31:17 19.1 C 20 %
4120 04-04-2020 15:41:17 19.8 C 20 %
4121 04-04-2020 15:51:17 17.4 C 20 %
4122 04-04-2020 16:01:17 19.9 C 20 %
4123 04-04-2020 16:11:17 19.3 C 20 %
4124 04-04-2020 16:21:17 18.7 C 20 %
4125 04-04-2020 16:31:17 19.3 C 20 %
Sensor: Nr:Datum:Temp:Feuchte:
Aussen-T/F 4126 04-04-2020 16:41:17 20.5 C 20 %
4127 04-04-2020 16:51:17 20.4 C 20 %
4128 04-04-2020 17:01:17 20.3 C 20 %
4129 04-04-2020 17:11:17 20.1 C 20 %
4130 04-04-2020 17:21:17 20.5 C 20 %
4131 04-04-2020 17:31:17 19.2 C 20 %
4132 04-04-2020 17:41:17 18.7 C 20 %
4133 04-04-2020 17:51:18 17.8 C 20 %
4134 04-04-2020 18:01:17 16.8 C 20 %
4135 04-04-2020 18:11:17 16.2 C 20 %
4136 04-04-2020 18:21:17 15.4 C 20 %
4137 04-04-2020 18:31:17 15.4 C 20 %
4138 04-04-2020 18:41:17 15.6 C 20 %
4139 04-04-2020 18:51:17 15.1 C 20 %
4140 04-04-2020 19:01:17 14.9 C 20 %
4141 04-04-2020 19:11:17 14.4 C 20 %
4142 04-04-2020 19:21:17 14 C 20 %
4143 04-04-2020 19:31:17 13.9 C 20 %
4144 04-04-2020 19:41:17 12.6 C 20 %
4145 04-04-2020 19:51:17 11.5 C 20 %
4146 04-04-2020 20:01:17 11.3 C 20 %
4147 04-04-2020 20:11:17 10.7 C 20 %
4148 04-04-2020 20:21:17 10.3 C 21 %
4149 04-04-2020 20:31:17 9.8 C 25 %
4150 04-04-2020 20:41:17 9.5 C 23 %
Sensor: Nr:Datum:Temp:Feuchte:
Aussen-T/F 4151 04-04-2020 20:51:17 9.2 C 25 %
4152 04-04-2020 21:01:17 9.2 C 21 %
4153 04-04-2020 21:11:17 8.7 C 25 %
4154 04-04-2020 21:21:17 8.8 C 25 %
4155 04-04-2020 21:31:17 8.5 C 25 %
4156 04-04-2020 21:41:17 8.2 C 25 %
4157 04-04-2020 21:51:17 7.1 C 28 %
4158 04-04-2020 22:01:18 5.8 C 31 %
4159 04-04-2020 22:11:18 5.5 C 32 %
4160 04-04-2020 22:21:18 5.1 C 32 %
4161 04-04-2020 22:31:17 4.8 C 35 %
4162 04-04-2020 22:41:17 4.7 C 34 %
4163 04-04-2020 22:51:17 4.6 C 34 %
4164 04-04-2020 23:01:17 4.4 C 34 %
4165 04-04-2020 23:11:17 4.1 C 34 %
4166 04-04-2020 23:21:17 3.9 C 35 %
4167 04-04-2020 23:31:17 3.6 C 36 %
4168 04-04-2020 23:41:17 3.5 C 36 %
4169 04-04-2020 23:51:17 3.4 C 37 %
<
Sensor: Nr:Datum:Temp:Feuchte:
G-T/H 1 07-03-2020 00:08:17 9.4 C 74 %
2 07-03-2020 00:18:18 9.4 C 74 %
3 07-03-2020 00:28:18 9.4 C 74 %
4 07-03-2020 00:38:17 9.4 C 74 %
5 07-03-2020 00:48:17 9.4 C 74 %
6 07-03-2020 00:58:17 9.4 C 74 %
7 07-03-2020 01:08:17 9.4 C 74 %
8 07-03-2020 01:18:17 9.4 C 74 %
9 07-03-2020 01:28:17 9.4 C 74 %
10 07-03-2020 01:38:18 9.3 C 74 %
11 07-03-2020 01:48:18 9.3 C 74 %
12 07-03-2020 01:58:18 9.3 C 74 %
13 07-03-2020 02:08:18 9.3 C 74 %
14 07-03-2020 02:18:17 9.3 C 74 %
15 07-03-2020 02:28:17 9.3 C 74 %
16 07-03-2020 02:38:17 9.3 C 74 %
17 07-03-2020 02:48:18 9.3 C 74 %
18 07-03-2020 02:58:18 9.3 C 74 %
19 07-03-2020 03:08:18 9.3 C 74 %
20 07-03-2020 03:18:17 9.3 C 74 %
21 07-03-2020 03:28:17 9.3 C 74 %
22 07-03-2020 03:38:17 9.3 C 74 %
23 07-03-2020 03:48:17 9.3 C 74 %
24 07-03-2020 03:58:17 9.3 C 74 %
25 07-03-2020 04:08:18 9.3 C 74 %
Sensor: Nr:Datum:Temp:Feuchte:
G-T/H 26 07-03-2020 04:18:17 9.3 C 74 %
27 07-03-2020 04:28:17 9.3 C 74 %
28 07-03-2020 04:38:18 9.3 C 74 %
29 07-03-2020 04:48:17 9.3 C 74 %
30 07-03-2020 04:58:18 9.3 C 74 %
31 07-03-2020 05:08:18 9.3 C 74 %
32 07-03-2020 05:18:18 9.3 C 74 %
33 07-03-2020 05:28:18 9.3 C 74 %
34 07-03-2020 05:38:18 9.3 C 74 %
35 07-03-2020 05:48:18 9.3 C 74 %
36 07-03-2020 05:58:18 9.3 C 74 %
37 07-03-2020 06:08:17 9.2 C 74 %
38 07-03-2020 06:18:17 9.2 C 74 %
39 07-03-2020 06:28:17 9.2 C 74 %
40 07-03-2020 06:38:18 9.2 C 74 %
41 07-03-2020 06:48:17 9.2 C 74 %
42 07-03-2020 06:58:17 9.2 C 74 %
43 07-03-2020 07:08:18 9.2 C 74 %
44 07-03-2020 07:18:18 9.2 C 74 %
45 07-03-2020 07:28:18 9.2 C 74 %
46 07-03-2020 07:38:18 9.2 C 74 %
47 07-03-2020 07:48:17 9.2 C 74 %
48 07-03-2020 07:58:17 9.2 C 74 %
49 07-03-2020 08:08:18 9.2 C 74 %
50 07-03-2020 08:18:17 9.2 C 74 %
Sensor: Nr:Datum:Temp:Feuchte:
G-T/H 51 07-03-2020 08:28:17 9.2 C 74 %
52 07-03-2020 08:38:17 9.2 C 74 %
53 07-03-2020 08:48:17 9.2 C 74 %
54 07-03-2020 08:58:17 9.2 C 74 %
55 07-03-2020 09:08:17 9.2 C 74 %
56 07-03-2020 09:18:17 9.2 C 74 %
57 07-03-2020 09:28:17 9.2 C 74 %
58 07-03-2020 09:38:17 9.2 C 74 %
59 07-03-2020 09:48:17 9.2 C 74 %
60 07-03-2020 09:58:17 9.2 C 74 %
61 07-03-2020 10:08:17 9.2 C 74 %
62 07-03-2020 10:18:17 9.2 C 74 %
63 07-03-2020 10:28:17 9.2 C 74 %
64 07-03-2020 10:38:17 9.2 C 74 %
65 07-03-2020 10:48:18 9.2 C 74 %
66 07-03-2020 10:58:18 9.2 C 74 %
67 07-03-2020 11:08:18 9.2 C 74 %
68 07-03-2020 11:18:18 9.2 C 74 %
69 07-03-2020 11:28:18 9.2 C 74 %
70 07-03-2020 11:38:18 9.2 C 74 %
71 07-03-2020 11:48:17 9.2 C 74 %
72 07-03-2020 11:58:18 9.4 C 74 %
73 07-03-2020 12:08:18 9.4 C 74 %
74 07-03-2020 12:18:18 9.4 C 74 %
75 07-03-2020 12:28:18 9.4 C 74 %
Sensor: Nr:Datum:Temp:Feuchte:
G-T/H 76 07-03-2020 12:38:17 9.3 C 74 %
77 07-03-2020 12:48:18 9.4 C 74 %
78 07-03-2020 12:58:18 9.3 C 74 %
79 07-03-2020 13:08:17 9.3 C 74 %
80 07-03-2020 13:18:18 9.3 C 74 %
81 07-03-2020 13:28:18 9.3 C 74 %
82 07-03-2020 13:38:18 9.3 C 74 %
83 07-03-2020 13:48:18 9.3 C 74 %
84 07-03-2020 13:58:18 9.3 C 74 %
85 07-03-2020 14:08:17 9.3 C 74 %
86 07-03-2020 14:18:17 9.3 C 74 %
87 07-03-2020 14:28:17 9.4 C 74 %
88 07-03-2020 14:38:18 9.4 C 74 %
89 07-03-2020 14:48:17 9.4 C 74 %
90 07-03-2020 14:58:18 9.4 C 74 %
91 07-03-2020 15:08:18 9.5 C 74 %
92 07-03-2020 15:18:18 9.4 C 74 %
93 07-03-2020 15:28:18 9.4 C 74 %
94 07-03-2020 15:38:17 9.4 C 74 %
95 07-03-2020 15:48:18 9.5 C 74 %
96 07-03-2020 15:58:18 9.5 C 74 %
97 07-03-2020 16:08:17 9.5 C 74 %
98 07-03-2020 16:18:17 9.5 C 74 %
99 07-03-2020 16:28:17 9.5 C 74 %
100 07-03-2020 16:38:17 9.5 C 74 %
Sensor: Nr:Datum:Temp:Feuchte:
G-T/H 101 07-03-2020 16:48:18 9.5 C 74 %
102 07-03-2020 16:58:18 9.5 C 74 %
103 07-03-2020 17:08:18 9.5 C 74 %
104 07-03-2020 17:18:18 9.5 C 74 %
105 07-03-2020 17:28:18 9.5 C 74 %
106 07-03-2020 17:38:18 9.6 C 74 %
107 07-03-2020 17:48:18 9.6 C 74 %
108 07-03-2020 17:58:18 9.6 C 75 %
109 07-03-2020 18:08:17 9.5 C 75 %
110 07-03-2020 18:19:17 9.6 C 75 %
111 07-03-2020 18:28:17 9.6 C 75 %
112 07-03-2020 18:38:18 9.5 C 75 %
113 07-03-2020 18:48:18 9.6 C 75 %
114 07-03-2020 18:58:18 9.5 C 75 %
115 07-03-2020 19:08:17 9.6 C 75 %
116 07-03-2020 19:18:17 9.6 C 74 %
117 07-03-2020 19:28:17 9.6 C 74 %
118 07-03-2020 19:38:17 9.6 C 74 %
119 07-03-2020 19:48:18 9.6 C 74 %
120 07-03-2020 19:58:18 9.6 C 74 %
121 07-03-2020 20:08:18 9.6 C 74 %
122 07-03-2020 20:18:17 9.6 C 74 %
123 07-03-2020 20:28:17 9.6 C 74 %
124 07-03-2020 20:38:17 9.6 C 74 %
125 07-03-2020 20:49:17 9.6 C 74 %
Sensor: Nr:Datum:Temp:Feuchte:
G-T/H 126 07-03-2020 20:59:17 9.6 C 74 %
127 07-03-2020 21:09:17 9.6 C 74 %
128 07-03-2020 21:18:17 9.6 C 74 %
129 07-03-2020 21:28:17 9.6 C 74 %
130 07-03-2020 21:38:17 9.6 C 74 %
131 07-03-2020 21:48:18 9.6 C 74 %
132 07-03-2020 21:58:18 9.6 C 74 %
133 07-03-2020 22:08:17 9.6 C 74 %
134 07-03-2020 22:18:18 9.6 C 74 %
135 07-03-2020 22:28:18 9.6 C 74 %
136 07-03-2020 22:38:17 9.6 C 74 %
137 07-03-2020 22:49:17 9.6 C 74 %
138 07-03-2020 22:59:17 9.6 C 74 %
139 07-03-2020 23:09:17 9.6 C 74 %
140 07-03-2020 23:19:17 9.6 C 74 %
141 07-03-2020 23:29:17 9.6 C 74 %
142 07-03-2020 23:38:17 9.6 C 74 %
143 07-03-2020 23:48:18 9.6 C 74 %
144 07-03-2020 23:58:18 9.6 C 74 %
145 08-03-2020 00:08:18 9.6 C 74 %
146 08-03-2020 00:18:18 9.6 C 74 %
147 08-03-2020 00:28:18 9.6 C 74 %
148 08-03-2020 00:38:18 9.6 C 74 %
149 08-03-2020 00:48:18 9.6 C 74 %
150 08-03-2020 00:58:18 9.6 C 74 %
Sensor: Nr:Datum:Temp:Feuchte:
G-T/H 151 08-03-2020 01:08:17 9.6 C 74 %
152 08-03-2020 01:18:17 9.6 C 74 %
153 08-03-2020 01:28:17 9.6 C 75 %
154 08-03-2020 01:38:17 9.6 C 74 %
155 08-03-2020 01:49:17 9.6 C 75 %
156 08-03-2020 01:59:17 9.6 C 75 %
157 08-03-2020 02:09:17 9.6 C 75 %
158 08-03-2020 02:19:17 9.6 C 75 %
159 08-03-2020 02:29:17 9.6 C 75 %
160 08-03-2020 02:38:17 9.6 C 75 %
161 08-03-2020 02:48:17 9.6 C 75 %
162 08-03-2020 02:58:17 9.6 C 75 %
163 08-03-2020 03:08:18 9.6 C 75 %
164 08-03-2020 03:19:17 9.6 C 75 %
165 08-03-2020 03:29:17 9.6 C 75 %
166 08-03-2020 03:39:17 9.6 C 75 %
167 08-03-2020 03:48:18 9.6 C 75 %
168 08-03-2020 03:58:18 9.6 C 75 %
169 08-03-2020 04:08:18 9.6 C 75 %
170 08-03-2020 04:19:17 9.6 C 75 %
171 08-03-2020 04:29:17 9.6 C 75 %
172 08-03-2020 04:39:17 9.6 C 75 %
173 08-03-2020 04:49:17 9.6 C 75 %
174 08-03-2020 04:59:17 9.6 C 75 %
175 08-03-2020 05:09:17 9.6 C 75 %
Sensor: Nr:Datum:Temp:Feuchte:
G-T/H 176 08-03-2020 05:19:17 9.6 C 75 %
177 08-03-2020 05:29:17 9.6 C 75 %
178 08-03-2020 05:39:17 9.6 C 75 %
179 08-03-2020 05:49:17 9.6 C 75 %
180 08-03-2020 05:59:17 9.6 C 75 %
181 08-03-2020 06:09:17 9.6 C 75 %
182 08-03-2020 06:19:17 9.6 C 75 %
183 08-03-2020 06:29:18 9.6 C 75 %
184 08-03-2020 06:39:18 9.6 C 75 %
185 08-03-2020 06:49:17 9.6 C 75 %
186 08-03-2020 06:59:17 9.6 C 75 %
187 08-03-2020 07:09:17 9.6 C 75 %
188 08-03-2020 07:19:17 9.6 C 75 %
189 08-03-2020 07:29:17 9.6 C 75 %
190 08-03-2020 07:39:17 9.6 C 75 %
191 08-03-2020 07:49:17 9.6 C 75 %
192 08-03-2020 07:59:17 9.6 C 75 %
193 08-03-2020 08:09:17 9.6 C 75 %
194 08-03-2020 08:19:17 9.6 C 75 %
195 08-03-2020 08:29:17 9.6 C 75 %
196 08-03-2020 08:39:17 9.6 C 75 %
197 08-03-2020 08:49:17 9.6 C 75 %
198 08-03-2020 08:59:17 9.6 C 75 %
199 08-03-2020 09:09:17 9.6 C 75 %
200 08-03-2020 09:19:17 9.6 C 75 %
Sensor: Nr:Datum:Temp:Feuchte:
G-T/H 201 08-03-2020 09:29:18 9.6 C 75 %
202 08-03-2020 09:39:17 9.6 C 75 %
203 08-03-2020 09:49:17 9.6 C 75 %
204 08-03-2020 09:59:17 9.6 C 75 %
205 08-03-2020 10:09:17 9.6 C 75 %
206 08-03-2020 10:19:17 9.7 C 75 %
207 08-03-2020 10:29:17 9.7 C 75 %
208 08-03-2020 10:39:17 9.7 C 75 %
209 08-03-2020 10:49:17 9.7 C 75 %
210 08-03-2020 10:59:18 9.7 C 75 %
211 08-03-2020 11:09:17 9.7 C 75 %
212 08-03-2020 11:19:16 9.7 C 75 %
213 08-03-2020 11:29:16 9.7 C 75 %
214 08-03-2020 11:39:17 9.7 C 75 %
215 08-03-2020 11:49:16 9.8 C 75 %
216 08-03-2020 11:59:16 9.8 C 75 %
217 08-03-2020 12:09:17 9.8 C 75 %
218 08-03-2020 12:19:17 9.8 C 75 %
219 08-03-2020 12:29:17 9.9 C 75 %
220 08-03-2020 12:39:17 9.8 C 75 %
221 08-03-2020 12:49:17 9.9 C 75 %
222 08-03-2020 12:59:18 9.9 C 75 %
223 08-03-2020 13:09:17 9.9 C 75 %
224 08-03-2020 13:19:16 10 C 74 %
225 08-03-2020 13:29:16 10 C 74 %
Sensor: Nr:Datum:Temp:Feuchte:
G-T/H 226 08-03-2020 13:39:16 10 C 74 %
227 08-03-2020 13:49:17 10 C 74 %
228 08-03-2020 13:59:17 10 C 74 %
229 08-03-2020 14:09:17 10 C 74 %
230 08-03-2020 14:19:16 10.1 C 74 %
231 08-03-2020 14:29:16 10.1 C 74 %
232 08-03-2020 14:39:16 10.1 C 74 %
233 08-03-2020 14:49:16 10.1 C 74 %
234 08-03-2020 14:59:16 10.1 C 74 %
235 08-03-2020 15:09:16 10.1 C 74 %
236 08-03-2020 15:19:17 10.2 C 74 %
237 08-03-2020 15:29:17 10.2 C 74 %
238 08-03-2020 15:39:17 10.2 C 74 %
239 08-03-2020 15:49:17 10.2 C 74 %
240 08-03-2020 15:59:17 10.2 C 74 %
241 08-03-2020 16:09:17 10.2 C 74 %
242 08-03-2020 16:19:17 10.2 C 74 %
243 08-03-2020 16:29:17 10.3 C 74 %
244 08-03-2020 16:39:17 10.3 C 74 %
245 08-03-2020 16:49:17 10.3 C 74 %
246 08-03-2020 16:59:17 10.4 C 74 %
247 08-03-2020 17:09:17 10.4 C 74 %
248 08-03-2020 17:19:17 10.4 C 74 %
249 08-03-2020 17:29:17 10.4 C 74 %
250 08-03-2020 17:39:17 10.4 C 74 %
Sensor: Nr:Datum:Temp:Feuchte:
G-T/H 251 08-03-2020 17:49:16 10.4 C 74 %
252 08-03-2020 17:59:16 10.5 C 74 %
253 08-03-2020 18:09:17 10.5 C 74 %
254 08-03-2020 18:19:17 10.4 C 75 %
255 08-03-2020 18:29:18 10.5 C 75 %
256 08-03-2020 18:39:17 10.5 C 75 %
257 08-03-2020 18:49:16 10.5 C 75 %
258 08-03-2020 18:59:16 10.5 C 75 %
259 08-03-2020 19:09:17 10.5 C 75 %
260 08-03-2020 19:19:16 10.5 C 75 %
261 08-03-2020 19:29:16 10.5 C 75 %
262 08-03-2020 19:39:17 10.5 C 75 %
263 08-03-2020 19:49:16 10.6 C 75 %
264 08-03-2020 19:59:16 10.6 C 75 %
265 08-03-2020 20:09:16 10.6 C 75 %
266 08-03-2020 20:19:16 10.6 C 75 %
267 08-03-2020 20:29:16 10.6 C 75 %
268 08-03-2020 20:39:17 10.6 C 75 %
269 08-03-2020 20:49:16 10.6 C 75 %
270 08-03-2020 20:59:16 10.6 C 75 %
271 08-03-2020 21:09:17 10.7 C 75 %
272 08-03-2020 21:19:17 10.7 C 75 %
273 08-03-2020 21:29:17 10.6 C 75 %
274 08-03-2020 21:39:17 10.6 C 75 %
275 08-03-2020 21:49:17 10.7 C 75 %
Sensor: Nr:Datum:Temp:Feuchte:
G-T/H 276 08-03-2020 21:59:17 10.7 C 75 %
277 08-03-2020 22:09:17 10.7 C 75 %
278 08-03-2020 22:19:16 10.7 C 75 %
279 08-03-2020 22:29:16 10.7 C 75 %
280 08-03-2020 22:39:17 10.7 C 75 %
281 08-03-2020 22:49:16 10.7 C 75 %
282 08-03-2020 22:59:16 10.7 C 75 %
283 08-03-2020 23:09:16 10.7 C 75 %
284 08-03-2020 23:19:16 10.7 C 75 %
285 08-03-2020 23:29:16 10.7 C 75 %
286 08-03-2020 23:39:16 10.7 C 75 %
287 08-03-2020 23:49:16 10.7 C 75 %
288 08-03-2020 23:59:16 10.7 C 75 %
289 09-03-2020 00:09:17 10.7 C 75 %
290 09-03-2020 00:19:16 10.7 C 75 %
291 09-03-2020 00:29:16 10.7 C 75 %
292 09-03-2020 00:39:16 10.7 C 75 %
293 09-03-2020 00:49:16 10.7 C 75 %
294 09-03-2020 00:59:16 10.7 C 75 %
295 09-03-2020 01:09:16 10.7 C 75 %
296 09-03-2020 01:19:16 10.7 C 75 %
297 09-03-2020 01:29:16 10.7 C 75 %
298 09-03-2020 01:39:16 10.7 C 75 %
299 09-03-2020 01:49:16 10.7 C 75 %
300 09-03-2020 01:59:16 10.7 C 75 %
Sensor: Nr:Datum:Temp:Feuchte:
G-T/H 301 09-03-2020 02:09:16 10.7 C 75 %
302 09-03-2020 02:19:16 10.7 C 75 %
303 09-03-2020 02:29:16 10.7 C 75 %
304 09-03-2020 02:39:16 10.7 C 75 %
305 09-03-2020 02:49:17 10.7 C 75 %
306 09-03-2020 02:59:17 10.7 C 75 %
307 09-03-2020 03:09:17 10.7 C 75 %
308 09-03-2020 03:19:17 10.7 C 75 %
309 09-03-2020 03:29:17 10.7 C 75 %
310 09-03-2020 03:39:17 10.7 C 75 %
311 09-03-2020 03:49:17 10.7 C 75 %
312 09-03-2020 03:59:17 10.7 C 75 %
313 09-03-2020 04:09:17 10.7 C 75 %
314 09-03-2020 04:19:17 10.7 C 75 %
315 09-03-2020 04:29:17 10.7 C 75 %
316 09-03-2020 04:39:18 10.7 C 75 %
317 09-03-2020 04:49:17 10.7 C 75 %
318 09-03-2020 04:59:17 10.7 C 75 %
319 09-03-2020 05:09:18 10.7 C 75 %
320 09-03-2020 05:19:17 10.7 C 75 %
321 09-03-2020 05:29:17 10.7 C 75 %
322 09-03-2020 05:39:17 10.7 C 75 %
323 09-03-2020 05:49:17 10.6 C 75 %
324 09-03-2020 05:59:17 10.6 C 75 %
325 09-03-2020 06:09:17 10.6 C 75 %
Sensor: Nr:Datum:Temp:Feuchte:
G-T/H 326 09-03-2020 06:19:17 10.6 C 75 %
327 09-03-2020 06:29:17 10.6 C 75 %
328 09-03-2020 06:39:18 10.6 C 75 %
329 09-03-2020 06:49:17 10.6 C 75 %
330 09-03-2020 06:59:18 10.6 C 75 %
331 09-03-2020 07:09:18 10.6 C 75 %
332 09-03-2020 07:19:18 10.5 C 75 %
333 09-03-2020 07:29:18 10.5 C 75 %
334 09-03-2020 07:39:17 10.5 C 75 %
335 09-03-2020 07:49:17 10.5 C 75 %
336 09-03-2020 07:59:17 10.5 C 75 %
337 09-03-2020 08:09:17 10.5 C 75 %
338 09-03-2020 08:19:17 10.5 C 74 %
339 09-03-2020 08:29:17 10.5 C 74 %
340 09-03-2020 08:39:18 10.5 C 74 %
341 09-03-2020 08:49:17 10.5 C 74 %
342 09-03-2020 08:59:17 10.5 C 74 %
343 09-03-2020 09:09:17 10.5 C 74 %
344 09-03-2020 09:19:17 10.4 C 74 %
345 09-03-2020 09:29:17 10.4 C 74 %
346 09-03-2020 09:39:17 10.5 C 74 %
347 09-03-2020 09:49:17 10.5 C 74 %
348 09-03-2020 09:59:17 10.4 C 74 %
349 09-03-2020 10:09:17 10.4 C 74 %
350 09-03-2020 10:19:17 10.4 C 74 %
Sensor: Nr:Datum:Temp:Feuchte:
G-T/H 351 09-03-2020 10:29:17 10.4 C 74 %
352 09-03-2020 10:39:17 10.4 C 74 %
353 09-03-2020 10:49:17 10.4 C 74 %
354 09-03-2020 10:59:17 10.4 C 74 %
355 09-03-2020 11:09:17 10.4 C 74 %
356 09-03-2020 11:19:17 10.4 C 74 %
357 09-03-2020 11:29:17 10.4 C 74 %
358 09-03-2020 11:39:17 10.4 C 74 %
359 09-03-2020 11:49:17 10.4 C 74 %
360 09-03-2020 11:59:17 10.4 C 74 %
361 09-03-2020 12:09:18 10.4 C 74 %
362 09-03-2020 12:19:18 10.4 C 74 %
363 09-03-2020 12:29:18 10.4 C 74 %
364 09-03-2020 12:39:18 10.4 C 74 %
365 09-03-2020 12:49:17 10.4 C 74 %
366 09-03-2020 12:59:17 10.4 C 74 %
367 09-03-2020 13:09:17 10.4 C 74 %
368 09-03-2020 13:19:17 10.4 C 74 %
369 09-03-2020 13:29:17 10.5 C 74 %
370 09-03-2020 13:39:17 10.5 C 74 %
371 09-03-2020 13:49:17 10.5 C 74 %
372 09-03-2020 13:59:17 10.5 C 74 %
373 09-03-2020 14:09:17 10.5 C 74 %
374 09-03-2020 14:19:17 10.5 C 74 %
375 09-03-2020 14:29:17 10.5 C 74 %
Sensor: Nr:Datum:Temp:Feuchte:
G-T/H 376 09-03-2020 14:39:17 10.5 C 74 %
377 09-03-2020 14:49:17 10.5 C 74 %
378 09-03-2020 14:59:17 10.5 C 74 %
379 09-03-2020 15:09:18 10.5 C 74 %
380 09-03-2020 15:19:18 10.5 C 74 %
381 09-03-2020 15:29:18 10.5 C 74 %
382 09-03-2020 15:39:18 10.5 C 73 %
383 09-03-2020 15:49:17 10.5 C 73 %
384 09-03-2020 15:59:17 10.5 C 73 %
385 09-03-2020 16:09:18 10.5 C 72 %
386 09-03-2020 16:19:17 10.5 C 72 %
387 09-03-2020 16:29:17 10.5 C 72 %
388 09-03-2020 16:39:17 10.5 C 72 %
389 09-03-2020 16:49:17 10.5 C 72 %
390 09-03-2020 16:59:18 10.5 C 72 %
391 09-03-2020 17:09:18 10.5 C 72 %
392 09-03-2020 17:19:17 10.6 C 72 %
393 09-03-2020 17:29:17 10.6 C 72 %
394 09-03-2020 17:39:18 10.6 C 72 %
395 09-03-2020 17:49:17 10.6 C 72 %
396 09-03-2020 17:59:18 10.6 C 72 %
397 09-03-2020 18:09:18 10.6 C 72 %
398 09-03-2020 18:19:17 10.6 C 72 %
399 09-03-2020 18:29:17 10.6 C 72 %
400 09-03-2020 18:39:17 10.6 C 73 %
Sensor: Nr:Datum:Temp:Feuchte:
G-T/H 401 09-03-2020 18:49:17 10.6 C 73 %
402 09-03-2020 18:59:17 10.6 C 73 %
403 09-03-2020 19:09:18 10.5 C 73 %
404 09-03-2020 19:19:17 10.6 C 73 %
405 09-03-2020 19:29:17 10.6 C 73 %
406 09-03-2020 19:39:17 10.6 C 73 %
407 09-03-2020 19:49:18 10.6 C 73 %
408 09-03-2020 19:59:18 10.6 C 73 %
409 09-03-2020 20:09:17 10.6 C 73 %
410 09-03-2020 20:19:17 10.6 C 73 %
411 09-03-2020 20:29:17 10.6 C 73 %
412 09-03-2020 20:39:18 10.6 C 73 %
413 09-03-2020 20:49:18 10.6 C 73 %
414 09-03-2020 20:59:18 10.6 C 73 %
415 09-03-2020 21:09:17 10.6 C 73 %
416 09-03-2020 21:19:17 10.6 C 73 %
417 09-03-2020 21:29:17 10.5 C 73 %
418 09-03-2020 21:39:17 10.5 C 73 %
419 09-03-2020 21:49:18 10.5 C 73 %
420 09-03-2020 21:59:18 10.5 C 73 %
421 09-03-2020 22:09:18 10.5 C 73 %
422 09-03-2020 22:19:17 10.5 C 73 %
423 09-03-2020 22:29:17 10.5 C 73 %
424 09-03-2020 22:39:17 10.5 C 73 %
425 09-03-2020 22:49:17 10.4 C 73 %
Sensor: Nr:Datum:Temp:Feuchte:
G-T/H 426 09-03-2020 22:59:17 10.4 C 73 %
427 09-03-2020 23:09:18 10.4 C 73 %
428 09-03-2020 23:19:17 10.4 C 73 %
429 09-03-2020 23:29:17 10.4 C 73 %
430 09-03-2020 23:39:17 10.4 C 73 %
431 09-03-2020 23:49:17 10.4 C 73 %
432 09-03-2020 23:59:17 10.4 C 73 %
433 10-03-2020 00:09:17 10.4 C 73 %
434 10-03-2020 00:19:18 10.4 C 72 %
435 10-03-2020 00:29:18 10.4 C 72 %
436 10-03-2020 00:39:18 10.3 C 72 %
437 10-03-2020 00:49:18 10.3 C 72 %
438 10-03-2020 00:59:18 10.3 C 72 %
439 10-03-2020 01:09:18 10.3 C 72 %
440 10-03-2020 01:19:17 10.3 C 72 %
441 10-03-2020 01:29:18 10.3 C 72 %
442 10-03-2020 01:39:18 10.3 C 72 %
443 10-03-2020 01:49:17 10.2 C 72 %
444 10-03-2020 01:59:17 10.2 C 72 %
445 10-03-2020 02:09:18 10.2 C 72 %
446 10-03-2020 02:19:17 10.2 C 72 %
447 10-03-2020 02:29:18 10.2 C 72 %
448 10-03-2020 02:39:18 10.2 C 71 %
449 10-03-2020 02:49:17 10.2 C 71 %
450 10-03-2020 02:59:17 10.2 C 71 %
Sensor: Nr:Datum:Temp:Feuchte:
G-T/H 451 10-03-2020 03:09:18 10.2 C 71 %
452 10-03-2020 03:19:18 10.2 C 71 %
453 10-03-2020 03:29:18 10.1 C 71 %
454 10-03-2020 03:39:18 10.1 C 71 %
455 10-03-2020 03:49:17 10.1 C 71 %
456 10-03-2020 03:59:17 10.1 C 71 %
457 10-03-2020 04:09:17 10.1 C 71 %
458 10-03-2020 04:19:17 10.1 C 71 %
459 10-03-2020 04:29:17 10.1 C 71 %
460 10-03-2020 04:39:17 10.1 C 71 %
461 10-03-2020 04:49:17 10.1 C 72 %
462 10-03-2020 04:59:17 10.1 C 72 %
463 10-03-2020 05:09:17 10.1 C 72 %
464 10-03-2020 05:19:17 10.1 C 72 %
465 10-03-2020 05:29:18 10.1 C 72 %
466 10-03-2020 05:39:18 10.1 C 72 %
467 10-03-2020 05:49:18 10.1 C 72 %
468 10-03-2020 05:59:18 10.1 C 72 %
469 10-03-2020 06:09:17 10.1 C 72 %
470 10-03-2020 06:19:17 10.1 C 72 %
471 10-03-2020 06:29:17 10.1 C 72 %
472 10-03-2020 06:39:18 10.1 C 72 %
473 10-03-2020 06:49:17 10.1 C 72 %
474 10-03-2020 06:59:17 10.1 C 72 %
475 10-03-2020 07:09:18 10.1 C 72 %
Sensor: Nr:Datum:Temp:Feuchte:
G-T/H 476 10-03-2020 07:19:18 10.1 C 72 %
477 10-03-2020 07:29:18 10.1 C 72 %
478 10-03-2020 07:39:18 10.1 C 72 %
479 10-03-2020 07:49:18 10 C 72 %
480 10-03-2020 07:59:18 10 C 72 %
481 10-03-2020 08:09:18 10 C 72 %
482 10-03-2020 08:19:18 10 C 73 %
483 10-03-2020 08:29:18 10 C 73 %
484 10-03-2020 08:39:18 10 C 73 %
485 10-03-2020 08:49:18 10 C 73 %
486 10-03-2020 08:59:18 10 C 73 %
487 10-03-2020 09:09:17 10 C 73 %
488 10-03-2020 09:19:17 10 C 73 %
489 10-03-2020 09:29:17 10 C 73 %
490 10-03-2020 09:39:17 10 C 73 %
491 10-03-2020 09:49:17 10 C 73 %
492 10-03-2020 09:59:17 10 C 73 %
493 10-03-2020 10:09:18 10 C 73 %
494 10-03-2020 10:19:18 10 C 73 %
495 10-03-2020 10:29:18 10 C 73 %
496 10-03-2020 10:39:18 10 C 73 %
497 10-03-2020 10:49:18 10 C 73 %
498 10-03-2020 10:59:18 10 C 73 %